<?xml version="1.0" encoding="utf-8"?>
<gpx xmlns:xsi="http://www.w3.org/2001/XMLSchema-instance" xmlns:xsd="http://www.w3.org/2001/XMLSchema" version="1.1" creator="Shapelink.com" xmlns="http://www.topografix.com/GPX/1/1" xmlns:gpxtpx="http://www.garmin.com/xmlschemas/TrackPointExtension/v1">
  <metadata>
    <name>Caminar 4.83 km, 2019-11-04</name>
    <desc></desc>
    <author><name>Peter Littke</name></author> 
    <time>2019-11-04T11:51:04Z</time>
  </metadata>
  <trk>
    <name>Caminar 4.83 km, 2019-11-04</name>
    <trkseg>
      <trkpt lat="59.173929" lon="18.142949">
        <ele>61</ele>
        <time>2019-11-04T11:51:04Z</time>
      </trkpt>
      <trkpt lat="59.173972" lon="18.142827">
        <ele>66</ele>
        <time>2019-11-04T11:51:09Z</time>
      </trkpt>
      <trkpt lat="59.174043" lon="18.142707">
        <ele>62</ele>
        <time>2019-11-04T11:51:19Z</time>
      </trkpt>
      <trkpt lat="59.174048" lon="18.142661">
        <ele>61</ele>
        <time>2019-11-04T11:51:21Z</time>
      </trkpt>
      <trkpt lat="59.174043" lon="18.142602">
        <ele>60</ele>
        <time>2019-11-04T11:51:23Z</time>
      </trkpt>
      <trkpt lat="59.174036" lon="18.142535">
        <ele>60</ele>
        <time>2019-11-04T11:51:25Z</time>
      </trkpt>
      <trkpt lat="59.174033" lon="18.142482">
        <ele>59</ele>
        <time>2019-11-04T11:51:27Z</time>
      </trkpt>
      <trkpt lat="59.174052" lon="18.142434">
        <ele>59</ele>
        <time>2019-11-04T11:51:29Z</time>
      </trkpt>
      <trkpt lat="59.174081" lon="18.142402">
        <ele>58</ele>
        <time>2019-11-04T11:51:31Z</time>
      </trkpt>
      <trkpt lat="59.174109" lon="18.142369">
        <ele>58</ele>
        <time>2019-11-04T11:51:33Z</time>
      </trkpt>
      <trkpt lat="59.174136" lon="18.14233">
        <ele>58</ele>
        <time>2019-11-04T11:51:35Z</time>
      </trkpt>
      <trkpt lat="59.174161" lon="18.14229">
        <ele>58</ele>
        <time>2019-11-04T11:51:37Z</time>
      </trkpt>
      <trkpt lat="59.174182" lon="18.142252">
        <ele>58</ele>
        <time>2019-11-04T11:51:39Z</time>
      </trkpt>
      <trkpt lat="59.174189" lon="18.142199">
        <ele>59</ele>
        <time>2019-11-04T11:51:41Z</time>
      </trkpt>
      <trkpt lat="59.174188" lon="18.142146">
        <ele>59</ele>
        <time>2019-11-04T11:51:43Z</time>
      </trkpt>
      <trkpt lat="59.17419" lon="18.142089">
        <ele>60</ele>
        <time>2019-11-04T11:51:45Z</time>
      </trkpt>
      <trkpt lat="59.174193" lon="18.142027">
        <ele>60</ele>
        <time>2019-11-04T11:51:47Z</time>
      </trkpt>
      <trkpt lat="59.174193" lon="18.141969">
        <ele>60</ele>
        <time>2019-11-04T11:51:49Z</time>
      </trkpt>
      <trkpt lat="59.174194" lon="18.141918">
        <ele>60</ele>
        <time>2019-11-04T11:51:51Z</time>
      </trkpt>
      <trkpt lat="59.174196" lon="18.141864">
        <ele>60</ele>
        <time>2019-11-04T11:51:53Z</time>
      </trkpt>
      <trkpt lat="59.174197" lon="18.141812">
        <ele>60</ele>
        <time>2019-11-04T11:51:55Z</time>
      </trkpt>
      <trkpt lat="59.174196" lon="18.141752">
        <ele>60</ele>
        <time>2019-11-04T11:51:57Z</time>
      </trkpt>
      <trkpt lat="59.174199" lon="18.141691">
        <ele>61</ele>
        <time>2019-11-04T11:51:59Z</time>
      </trkpt>
      <trkpt lat="59.174204" lon="18.141636">
        <ele>61</ele>
        <time>2019-11-04T11:52:01Z</time>
      </trkpt>
      <trkpt lat="59.174204" lon="18.14159">
        <ele>61</ele>
        <time>2019-11-04T11:52:03Z</time>
      </trkpt>
      <trkpt lat="59.174207" lon="18.141538">
        <ele>61</ele>
        <time>2019-11-04T11:52:05Z</time>
      </trkpt>
      <trkpt lat="59.174214" lon="18.141485">
        <ele>60</ele>
        <time>2019-11-04T11:52:07Z</time>
      </trkpt>
      <trkpt lat="59.174218" lon="18.141428">
        <ele>60</ele>
        <time>2019-11-04T11:52:09Z</time>
      </trkpt>
      <trkpt lat="59.174226" lon="18.141375">
        <ele>60</ele>
        <time>2019-11-04T11:52:11Z</time>
      </trkpt>
      <trkpt lat="59.174234" lon="18.141322">
        <ele>60</ele>
        <time>2019-11-04T11:52:13Z</time>
      </trkpt>
      <trkpt lat="59.17424" lon="18.141264">
        <ele>59</ele>
        <time>2019-11-04T11:52:15Z</time>
      </trkpt>
      <trkpt lat="59.174248" lon="18.141203">
        <ele>59</ele>
        <time>2019-11-04T11:52:17Z</time>
      </trkpt>
      <trkpt lat="59.174262" lon="18.141157">
        <ele>58</ele>
        <time>2019-11-04T11:52:19Z</time>
      </trkpt>
      <trkpt lat="59.174269" lon="18.141094">
        <ele>58</ele>
        <time>2019-11-04T11:52:21Z</time>
      </trkpt>
      <trkpt lat="59.17428" lon="18.141038">
        <ele>58</ele>
        <time>2019-11-04T11:52:23Z</time>
      </trkpt>
      <trkpt lat="59.174296" lon="18.140994">
        <ele>57</ele>
        <time>2019-11-04T11:52:25Z</time>
      </trkpt>
      <trkpt lat="59.174296" lon="18.140936">
        <ele>58</ele>
        <time>2019-11-04T11:52:27Z</time>
      </trkpt>
      <trkpt lat="59.174302" lon="18.140883">
        <ele>57</ele>
        <time>2019-11-04T11:52:29Z</time>
      </trkpt>
      <trkpt lat="59.174311" lon="18.140828">
        <ele>57</ele>
        <time>2019-11-04T11:52:31Z</time>
      </trkpt>
      <trkpt lat="59.174323" lon="18.140778">
        <ele>57</ele>
        <time>2019-11-04T11:52:33Z</time>
      </trkpt>
      <trkpt lat="59.174338" lon="18.140738">
        <ele>56</ele>
        <time>2019-11-04T11:52:35Z</time>
      </trkpt>
      <trkpt lat="59.17435" lon="18.140691">
        <ele>57</ele>
        <time>2019-11-04T11:52:37Z</time>
      </trkpt>
      <trkpt lat="59.174364" lon="18.140639">
        <ele>57</ele>
        <time>2019-11-04T11:52:39Z</time>
      </trkpt>
      <trkpt lat="59.174372" lon="18.140583">
        <ele>57</ele>
        <time>2019-11-04T11:52:41Z</time>
      </trkpt>
      <trkpt lat="59.174379" lon="18.140526">
        <ele>57</ele>
        <time>2019-11-04T11:52:43Z</time>
      </trkpt>
      <trkpt lat="59.17439" lon="18.140473">
        <ele>57</ele>
        <time>2019-11-04T11:52:45Z</time>
      </trkpt>
      <trkpt lat="59.1744" lon="18.140427">
        <ele>57</ele>
        <time>2019-11-04T11:52:47Z</time>
      </trkpt>
      <trkpt lat="59.174408" lon="18.14038">
        <ele>57</ele>
        <time>2019-11-04T11:52:49Z</time>
      </trkpt>
      <trkpt lat="59.174412" lon="18.140343">
        <ele>57</ele>
        <time>2019-11-04T11:52:51Z</time>
      </trkpt>
      <trkpt lat="59.174423" lon="18.140315">
        <ele>57</ele>
        <time>2019-11-04T11:52:59Z</time>
      </trkpt>
      <trkpt lat="59.174436" lon="18.140266">
        <ele>56</ele>
        <time>2019-11-04T11:53:00Z</time>
      </trkpt>
      <trkpt lat="59.174449" lon="18.140216">
        <ele>56</ele>
        <time>2019-11-04T11:53:02Z</time>
      </trkpt>
      <trkpt lat="59.174458" lon="18.140154">
        <ele>56</ele>
        <time>2019-11-04T11:53:04Z</time>
      </trkpt>
      <trkpt lat="59.174466" lon="18.140095">
        <ele>56</ele>
        <time>2019-11-04T11:53:06Z</time>
      </trkpt>
      <trkpt lat="59.17446" lon="18.14005">
        <ele>55</ele>
        <time>2019-11-04T11:53:08Z</time>
      </trkpt>
      <trkpt lat="59.17444" lon="18.140021">
        <ele>55</ele>
        <time>2019-11-04T11:53:10Z</time>
      </trkpt>
      <trkpt lat="59.174415" lon="18.140009">
        <ele>54</ele>
        <time>2019-11-04T11:53:12Z</time>
      </trkpt>
      <trkpt lat="59.174392" lon="18.139998">
        <ele>54</ele>
        <time>2019-11-04T11:53:14Z</time>
      </trkpt>
      <trkpt lat="59.174367" lon="18.139997">
        <ele>54</ele>
        <time>2019-11-04T11:53:16Z</time>
      </trkpt>
      <trkpt lat="59.174347" lon="18.139986">
        <ele>53</ele>
        <time>2019-11-04T11:53:18Z</time>
      </trkpt>
      <trkpt lat="59.174305" lon="18.139987">
        <ele>53</ele>
        <time>2019-11-04T11:53:20Z</time>
      </trkpt>
      <trkpt lat="59.174283" lon="18.139986">
        <ele>53</ele>
        <time>2019-11-04T11:53:21Z</time>
      </trkpt>
      <trkpt lat="59.17426" lon="18.139992">
        <ele>53</ele>
        <time>2019-11-04T11:53:22Z</time>
      </trkpt>
      <trkpt lat="59.174242" lon="18.139986">
        <ele>53</ele>
        <time>2019-11-04T11:53:23Z</time>
      </trkpt>
      <trkpt lat="59.174218" lon="18.139975">
        <ele>52</ele>
        <time>2019-11-04T11:53:25Z</time>
      </trkpt>
      <trkpt lat="59.174194" lon="18.139957">
        <ele>52</ele>
        <time>2019-11-04T11:53:27Z</time>
      </trkpt>
      <trkpt lat="59.174162" lon="18.139948">
        <ele>52</ele>
        <time>2019-11-04T11:53:29Z</time>
      </trkpt>
      <trkpt lat="59.174136" lon="18.139921">
        <ele>52</ele>
        <time>2019-11-04T11:53:31Z</time>
      </trkpt>
      <trkpt lat="59.174128" lon="18.139861">
        <ele>52</ele>
        <time>2019-11-04T11:53:33Z</time>
      </trkpt>
      <trkpt lat="59.174134" lon="18.139799">
        <ele>51</ele>
        <time>2019-11-04T11:53:35Z</time>
      </trkpt>
      <trkpt lat="59.174142" lon="18.139738">
        <ele>51</ele>
        <time>2019-11-04T11:53:37Z</time>
      </trkpt>
      <trkpt lat="59.17415" lon="18.139675">
        <ele>51</ele>
        <time>2019-11-04T11:53:39Z</time>
      </trkpt>
      <trkpt lat="59.174159" lon="18.139616">
        <ele>51</ele>
        <time>2019-11-04T11:53:41Z</time>
      </trkpt>
      <trkpt lat="59.17417" lon="18.139559">
        <ele>52</ele>
        <time>2019-11-04T11:53:43Z</time>
      </trkpt>
      <trkpt lat="59.174172" lon="18.139498">
        <ele>52</ele>
        <time>2019-11-04T11:53:45Z</time>
      </trkpt>
      <trkpt lat="59.174166" lon="18.139444">
        <ele>53</ele>
        <time>2019-11-04T11:53:47Z</time>
      </trkpt>
      <trkpt lat="59.17416" lon="18.139395">
        <ele>53</ele>
        <time>2019-11-04T11:53:49Z</time>
      </trkpt>
      <trkpt lat="59.17417" lon="18.13934">
        <ele>53</ele>
        <time>2019-11-04T11:53:51Z</time>
      </trkpt>
      <trkpt lat="59.174182" lon="18.139282">
        <ele>53</ele>
        <time>2019-11-04T11:53:53Z</time>
      </trkpt>
      <trkpt lat="59.174194" lon="18.139226">
        <ele>53</ele>
        <time>2019-11-04T11:53:55Z</time>
      </trkpt>
      <trkpt lat="59.174211" lon="18.139175">
        <ele>53</ele>
        <time>2019-11-04T11:53:57Z</time>
      </trkpt>
      <trkpt lat="59.174238" lon="18.139131">
        <ele>53</ele>
        <time>2019-11-04T11:53:59Z</time>
      </trkpt>
      <trkpt lat="59.174251" lon="18.139078">
        <ele>53</ele>
        <time>2019-11-04T11:54:01Z</time>
      </trkpt>
      <trkpt lat="59.174248" lon="18.139017">
        <ele>53</ele>
        <time>2019-11-04T11:54:03Z</time>
      </trkpt>
      <trkpt lat="59.17424" lon="18.138963">
        <ele>53</ele>
        <time>2019-11-04T11:54:05Z</time>
      </trkpt>
      <trkpt lat="59.17423" lon="18.138922">
        <ele>53</ele>
        <time>2019-11-04T11:54:07Z</time>
      </trkpt>
      <trkpt lat="59.174208" lon="18.138908">
        <ele>53</ele>
        <time>2019-11-04T11:54:10Z</time>
      </trkpt>
      <trkpt lat="59.17418" lon="18.138917">
        <ele>53</ele>
        <time>2019-11-04T11:54:12Z</time>
      </trkpt>
      <trkpt lat="59.17416" lon="18.138942">
        <ele>54</ele>
        <time>2019-11-04T11:54:14Z</time>
      </trkpt>
      <trkpt lat="59.174139" lon="18.138973">
        <ele>54</ele>
        <time>2019-11-04T11:54:16Z</time>
      </trkpt>
      <trkpt lat="59.174123" lon="18.138995">
        <ele>54</ele>
        <time>2019-11-04T11:54:17Z</time>
      </trkpt>
      <trkpt lat="59.174103" lon="18.139016">
        <ele>54</ele>
        <time>2019-11-04T11:54:18Z</time>
      </trkpt>
      <trkpt lat="59.174077" lon="18.139035">
        <ele>55</ele>
        <time>2019-11-04T11:54:20Z</time>
      </trkpt>
      <trkpt lat="59.174052" lon="18.139047">
        <ele>55</ele>
        <time>2019-11-04T11:54:22Z</time>
      </trkpt>
      <trkpt lat="59.174017" lon="18.139031">
        <ele>55</ele>
        <time>2019-11-04T11:54:24Z</time>
      </trkpt>
      <trkpt lat="59.174" lon="18.139017">
        <ele>55</ele>
        <time>2019-11-04T11:54:25Z</time>
      </trkpt>
      <trkpt lat="59.173972" lon="18.13898">
        <ele>56</ele>
        <time>2019-11-04T11:54:27Z</time>
      </trkpt>
      <trkpt lat="59.173941" lon="18.138942">
        <ele>55</ele>
        <time>2019-11-04T11:54:29Z</time>
      </trkpt>
      <trkpt lat="59.173919" lon="18.13892">
        <ele>55</ele>
        <time>2019-11-04T11:54:30Z</time>
      </trkpt>
      <trkpt lat="59.1739" lon="18.138894">
        <ele>55</ele>
        <time>2019-11-04T11:54:31Z</time>
      </trkpt>
      <trkpt lat="59.17388" lon="18.138872">
        <ele>55</ele>
        <time>2019-11-04T11:54:32Z</time>
      </trkpt>
      <trkpt lat="59.173863" lon="18.138855">
        <ele>55</ele>
        <time>2019-11-04T11:54:33Z</time>
      </trkpt>
      <trkpt lat="59.173833" lon="18.138822">
        <ele>56</ele>
        <time>2019-11-04T11:54:35Z</time>
      </trkpt>
      <trkpt lat="59.173809" lon="18.138802">
        <ele>55</ele>
        <time>2019-11-04T11:54:36Z</time>
      </trkpt>
      <trkpt lat="59.173791" lon="18.138785">
        <ele>56</ele>
        <time>2019-11-04T11:54:37Z</time>
      </trkpt>
      <trkpt lat="59.173765" lon="18.13875">
        <ele>56</ele>
        <time>2019-11-04T11:54:39Z</time>
      </trkpt>
      <trkpt lat="59.173744" lon="18.138726">
        <ele>55</ele>
        <time>2019-11-04T11:54:41Z</time>
      </trkpt>
      <trkpt lat="59.173716" lon="18.138697">
        <ele>55</ele>
        <time>2019-11-04T11:54:43Z</time>
      </trkpt>
      <trkpt lat="59.173698" lon="18.138687">
        <ele>55</ele>
        <time>2019-11-04T11:54:44Z</time>
      </trkpt>
      <trkpt lat="59.173669" lon="18.138667">
        <ele>54</ele>
        <time>2019-11-04T11:54:46Z</time>
      </trkpt>
      <trkpt lat="59.173642" lon="18.138649">
        <ele>54</ele>
        <time>2019-11-04T11:54:48Z</time>
      </trkpt>
      <trkpt lat="59.173616" lon="18.138623">
        <ele>54</ele>
        <time>2019-11-04T11:54:50Z</time>
      </trkpt>
      <trkpt lat="59.173586" lon="18.138606">
        <ele>54</ele>
        <time>2019-11-04T11:54:52Z</time>
      </trkpt>
      <trkpt lat="59.173569" lon="18.138593">
        <ele>53</ele>
        <time>2019-11-04T11:54:53Z</time>
      </trkpt>
      <trkpt lat="59.173539" lon="18.138563">
        <ele>53</ele>
        <time>2019-11-04T11:54:55Z</time>
      </trkpt>
      <trkpt lat="59.17351" lon="18.138537">
        <ele>53</ele>
        <time>2019-11-04T11:54:57Z</time>
      </trkpt>
      <trkpt lat="59.173484" lon="18.138507">
        <ele>53</ele>
        <time>2019-11-04T11:54:59Z</time>
      </trkpt>
      <trkpt lat="59.173456" lon="18.138485">
        <ele>53</ele>
        <time>2019-11-04T11:55:01Z</time>
      </trkpt>
      <trkpt lat="59.173428" lon="18.138462">
        <ele>52</ele>
        <time>2019-11-04T11:55:03Z</time>
      </trkpt>
      <trkpt lat="59.173407" lon="18.138451">
        <ele>52</ele>
        <time>2019-11-04T11:55:05Z</time>
      </trkpt>
      <trkpt lat="59.173383" lon="18.138426">
        <ele>51</ele>
        <time>2019-11-04T11:55:07Z</time>
      </trkpt>
      <trkpt lat="59.173353" lon="18.138391">
        <ele>51</ele>
        <time>2019-11-04T11:55:09Z</time>
      </trkpt>
      <trkpt lat="59.173333" lon="18.138378">
        <ele>51</ele>
        <time>2019-11-04T11:55:11Z</time>
      </trkpt>
      <trkpt lat="59.173307" lon="18.138374">
        <ele>51</ele>
        <time>2019-11-04T11:55:13Z</time>
      </trkpt>
      <trkpt lat="59.173272" lon="18.138366">
        <ele>51</ele>
        <time>2019-11-04T11:55:15Z</time>
      </trkpt>
      <trkpt lat="59.17324" lon="18.138358">
        <ele>52</ele>
        <time>2019-11-04T11:55:17Z</time>
      </trkpt>
      <trkpt lat="59.173208" lon="18.138353">
        <ele>52</ele>
        <time>2019-11-04T11:55:19Z</time>
      </trkpt>
      <trkpt lat="59.173178" lon="18.138353">
        <ele>52</ele>
        <time>2019-11-04T11:55:21Z</time>
      </trkpt>
      <trkpt lat="59.17315" lon="18.138341">
        <ele>52</ele>
        <time>2019-11-04T11:55:23Z</time>
      </trkpt>
      <trkpt lat="59.173124" lon="18.138329">
        <ele>52</ele>
        <time>2019-11-04T11:55:25Z</time>
      </trkpt>
      <trkpt lat="59.173096" lon="18.138316">
        <ele>52</ele>
        <time>2019-11-04T11:55:27Z</time>
      </trkpt>
      <trkpt lat="59.173071" lon="18.138296">
        <ele>52</ele>
        <time>2019-11-04T11:55:29Z</time>
      </trkpt>
      <trkpt lat="59.17304" lon="18.138289">
        <ele>51</ele>
        <time>2019-11-04T11:55:31Z</time>
      </trkpt>
      <trkpt lat="59.173006" lon="18.13828">
        <ele>51</ele>
        <time>2019-11-04T11:55:33Z</time>
      </trkpt>
      <trkpt lat="59.172987" lon="18.138274">
        <ele>51</ele>
        <time>2019-11-04T11:55:34Z</time>
      </trkpt>
      <trkpt lat="59.172963" lon="18.138284">
        <ele>51</ele>
        <time>2019-11-04T11:55:35Z</time>
      </trkpt>
      <trkpt lat="59.172939" lon="18.138259">
        <ele>51</ele>
        <time>2019-11-04T11:55:37Z</time>
      </trkpt>
      <trkpt lat="59.172915" lon="18.138236">
        <ele>51</ele>
        <time>2019-11-04T11:55:39Z</time>
      </trkpt>
      <trkpt lat="59.172883" lon="18.138217">
        <ele>51</ele>
        <time>2019-11-04T11:55:41Z</time>
      </trkpt>
      <trkpt lat="59.172855" lon="18.138181">
        <ele>51</ele>
        <time>2019-11-04T11:55:43Z</time>
      </trkpt>
      <trkpt lat="59.17284" lon="18.13816">
        <ele>50</ele>
        <time>2019-11-04T11:55:44Z</time>
      </trkpt>
      <trkpt lat="59.172828" lon="18.13813">
        <ele>50</ele>
        <time>2019-11-04T11:55:45Z</time>
      </trkpt>
      <trkpt lat="59.172805" lon="18.138078">
        <ele>50</ele>
        <time>2019-11-04T11:55:47Z</time>
      </trkpt>
      <trkpt lat="59.172783" lon="18.138033">
        <ele>50</ele>
        <time>2019-11-04T11:55:49Z</time>
      </trkpt>
      <trkpt lat="59.172761" lon="18.137993">
        <ele>50</ele>
        <time>2019-11-04T11:55:51Z</time>
      </trkpt>
      <trkpt lat="59.172738" lon="18.137946">
        <ele>50</ele>
        <time>2019-11-04T11:55:53Z</time>
      </trkpt>
      <trkpt lat="59.172718" lon="18.137896">
        <ele>50</ele>
        <time>2019-11-04T11:55:55Z</time>
      </trkpt>
      <trkpt lat="59.172699" lon="18.137851">
        <ele>50</ele>
        <time>2019-11-04T11:55:57Z</time>
      </trkpt>
      <trkpt lat="59.172677" lon="18.137806">
        <ele>50</ele>
        <time>2019-11-04T11:55:59Z</time>
      </trkpt>
      <trkpt lat="59.172654" lon="18.137764">
        <ele>50</ele>
        <time>2019-11-04T11:56:01Z</time>
      </trkpt>
      <trkpt lat="59.172637" lon="18.13772">
        <ele>50</ele>
        <time>2019-11-04T11:56:03Z</time>
      </trkpt>
      <trkpt lat="59.172631" lon="18.13766">
        <ele>50</ele>
        <time>2019-11-04T11:56:05Z</time>
      </trkpt>
      <trkpt lat="59.172633" lon="18.137597">
        <ele>49</ele>
        <time>2019-11-04T11:56:07Z</time>
      </trkpt>
      <trkpt lat="59.172632" lon="18.137543">
        <ele>49</ele>
        <time>2019-11-04T11:56:09Z</time>
      </trkpt>
      <trkpt lat="59.172633" lon="18.137493">
        <ele>49</ele>
        <time>2019-11-04T11:56:11Z</time>
      </trkpt>
      <trkpt lat="59.172632" lon="18.13744">
        <ele>49</ele>
        <time>2019-11-04T11:56:13Z</time>
      </trkpt>
      <trkpt lat="59.17263" lon="18.137375">
        <ele>49</ele>
        <time>2019-11-04T11:56:15Z</time>
      </trkpt>
      <trkpt lat="59.172624" lon="18.137318">
        <ele>49</ele>
        <time>2019-11-04T11:56:17Z</time>
      </trkpt>
      <trkpt lat="59.172619" lon="18.137262">
        <ele>48</ele>
        <time>2019-11-04T11:56:19Z</time>
      </trkpt>
      <trkpt lat="59.172616" lon="18.137209">
        <ele>48</ele>
        <time>2019-11-04T11:56:21Z</time>
      </trkpt>
      <trkpt lat="59.172634" lon="18.137165">
        <ele>48</ele>
        <time>2019-11-04T11:56:23Z</time>
      </trkpt>
      <trkpt lat="59.172656" lon="18.137137">
        <ele>48</ele>
        <time>2019-11-04T11:56:25Z</time>
      </trkpt>
      <trkpt lat="59.172681" lon="18.137122">
        <ele>48</ele>
        <time>2019-11-04T11:56:27Z</time>
      </trkpt>
      <trkpt lat="59.172708" lon="18.13712">
        <ele>48</ele>
        <time>2019-11-04T11:56:29Z</time>
      </trkpt>
      <trkpt lat="59.172735" lon="18.137115">
        <ele>48</ele>
        <time>2019-11-04T11:56:31Z</time>
      </trkpt>
      <trkpt lat="59.172763" lon="18.137107">
        <ele>48</ele>
        <time>2019-11-04T11:56:33Z</time>
      </trkpt>
      <trkpt lat="59.172789" lon="18.137097">
        <ele>48</ele>
        <time>2019-11-04T11:56:35Z</time>
      </trkpt>
      <trkpt lat="59.172815" lon="18.137091">
        <ele>47</ele>
        <time>2019-11-04T11:56:37Z</time>
      </trkpt>
      <trkpt lat="59.172844" lon="18.137086">
        <ele>47</ele>
        <time>2019-11-04T11:56:39Z</time>
      </trkpt>
      <trkpt lat="59.17287" lon="18.137074">
        <ele>47</ele>
        <time>2019-11-04T11:56:41Z</time>
      </trkpt>
      <trkpt lat="59.172895" lon="18.137057">
        <ele>47</ele>
        <time>2019-11-04T11:56:43Z</time>
      </trkpt>
      <trkpt lat="59.172914" lon="18.137035">
        <ele>47</ele>
        <time>2019-11-04T11:56:45Z</time>
      </trkpt>
      <trkpt lat="59.172934" lon="18.13701">
        <ele>47</ele>
        <time>2019-11-04T11:56:47Z</time>
      </trkpt>
      <trkpt lat="59.17295" lon="18.136984">
        <ele>46</ele>
        <time>2019-11-04T11:56:49Z</time>
      </trkpt>
      <trkpt lat="59.17297" lon="18.136946">
        <ele>46</ele>
        <time>2019-11-04T11:56:51Z</time>
      </trkpt>
      <trkpt lat="59.172992" lon="18.136901">
        <ele>46</ele>
        <time>2019-11-04T11:56:53Z</time>
      </trkpt>
      <trkpt lat="59.173011" lon="18.136851">
        <ele>46</ele>
        <time>2019-11-04T11:56:55Z</time>
      </trkpt>
      <trkpt lat="59.173034" lon="18.1368">
        <ele>46</ele>
        <time>2019-11-04T11:56:57Z</time>
      </trkpt>
      <trkpt lat="59.173056" lon="18.136751">
        <ele>46</ele>
        <time>2019-11-04T11:56:59Z</time>
      </trkpt>
      <trkpt lat="59.173075" lon="18.136701">
        <ele>46</ele>
        <time>2019-11-04T11:57:01Z</time>
      </trkpt>
      <trkpt lat="59.173094" lon="18.136658">
        <ele>46</ele>
        <time>2019-11-04T11:57:03Z</time>
      </trkpt>
      <trkpt lat="59.173114" lon="18.136618">
        <ele>46</ele>
        <time>2019-11-04T11:57:05Z</time>
      </trkpt>
      <trkpt lat="59.173133" lon="18.136565">
        <ele>47</ele>
        <time>2019-11-04T11:57:07Z</time>
      </trkpt>
      <trkpt lat="59.173155" lon="18.136526">
        <ele>47</ele>
        <time>2019-11-04T11:57:09Z</time>
      </trkpt>
      <trkpt lat="59.173175" lon="18.136481">
        <ele>47</ele>
        <time>2019-11-04T11:57:11Z</time>
      </trkpt>
      <trkpt lat="59.173193" lon="18.136429">
        <ele>47</ele>
        <time>2019-11-04T11:57:13Z</time>
      </trkpt>
      <trkpt lat="59.173216" lon="18.136376">
        <ele>47</ele>
        <time>2019-11-04T11:57:15Z</time>
      </trkpt>
      <trkpt lat="59.173238" lon="18.136323">
        <ele>47</ele>
        <time>2019-11-04T11:57:17Z</time>
      </trkpt>
      <trkpt lat="59.173257" lon="18.136271">
        <ele>48</ele>
        <time>2019-11-04T11:57:19Z</time>
      </trkpt>
      <trkpt lat="59.173278" lon="18.136223">
        <ele>48</ele>
        <time>2019-11-04T11:57:21Z</time>
      </trkpt>
      <trkpt lat="59.173301" lon="18.136174">
        <ele>48</ele>
        <time>2019-11-04T11:57:23Z</time>
      </trkpt>
      <trkpt lat="59.173324" lon="18.136127">
        <ele>48</ele>
        <time>2019-11-04T11:57:25Z</time>
      </trkpt>
      <trkpt lat="59.173354" lon="18.136089">
        <ele>49</ele>
        <time>2019-11-04T11:57:27Z</time>
      </trkpt>
      <trkpt lat="59.173376" lon="18.136047">
        <ele>49</ele>
        <time>2019-11-04T11:57:29Z</time>
      </trkpt>
      <trkpt lat="59.173398" lon="18.136008">
        <ele>49</ele>
        <time>2019-11-04T11:57:31Z</time>
      </trkpt>
      <trkpt lat="59.173424" lon="18.13597">
        <ele>49</ele>
        <time>2019-11-04T11:57:33Z</time>
      </trkpt>
      <trkpt lat="59.173451" lon="18.135942">
        <ele>49</ele>
        <time>2019-11-04T11:57:35Z</time>
      </trkpt>
      <trkpt lat="59.173477" lon="18.135909">
        <ele>48</ele>
        <time>2019-11-04T11:57:37Z</time>
      </trkpt>
      <trkpt lat="59.173501" lon="18.135877">
        <ele>48</ele>
        <time>2019-11-04T11:57:39Z</time>
      </trkpt>
      <trkpt lat="59.173528" lon="18.135845">
        <ele>48</ele>
        <time>2019-11-04T11:57:41Z</time>
      </trkpt>
      <trkpt lat="59.173549" lon="18.135814">
        <ele>48</ele>
        <time>2019-11-04T11:57:43Z</time>
      </trkpt>
      <trkpt lat="59.17357" lon="18.135788">
        <ele>47</ele>
        <time>2019-11-04T11:57:45Z</time>
      </trkpt>
      <trkpt lat="59.173594" lon="18.135764">
        <ele>47</ele>
        <time>2019-11-04T11:57:47Z</time>
      </trkpt>
      <trkpt lat="59.173621" lon="18.135743">
        <ele>47</ele>
        <time>2019-11-04T11:57:49Z</time>
      </trkpt>
      <trkpt lat="59.173644" lon="18.135714">
        <ele>46</ele>
        <time>2019-11-04T11:57:51Z</time>
      </trkpt>
      <trkpt lat="59.173667" lon="18.135683">
        <ele>46</ele>
        <time>2019-11-04T11:57:53Z</time>
      </trkpt>
      <trkpt lat="59.173689" lon="18.135658">
        <ele>46</ele>
        <time>2019-11-04T11:57:55Z</time>
      </trkpt>
      <trkpt lat="59.173714" lon="18.135627">
        <ele>46</ele>
        <time>2019-11-04T11:57:57Z</time>
      </trkpt>
      <trkpt lat="59.173739" lon="18.135599">
        <ele>46</ele>
        <time>2019-11-04T11:57:59Z</time>
      </trkpt>
      <trkpt lat="59.17376" lon="18.135574">
        <ele>46</ele>
        <time>2019-11-04T11:58:01Z</time>
      </trkpt>
      <trkpt lat="59.17379" lon="18.135546">
        <ele>46</ele>
        <time>2019-11-04T11:58:03Z</time>
      </trkpt>
      <trkpt lat="59.173815" lon="18.135518">
        <ele>46</ele>
        <time>2019-11-04T11:58:05Z</time>
      </trkpt>
      <trkpt lat="59.173843" lon="18.135494">
        <ele>46</ele>
        <time>2019-11-04T11:58:07Z</time>
      </trkpt>
      <trkpt lat="59.173871" lon="18.135468">
        <ele>46</ele>
        <time>2019-11-04T11:58:09Z</time>
      </trkpt>
      <trkpt lat="59.173898" lon="18.135434">
        <ele>46</ele>
        <time>2019-11-04T11:58:11Z</time>
      </trkpt>
      <trkpt lat="59.173923" lon="18.135414">
        <ele>46</ele>
        <time>2019-11-04T11:58:13Z</time>
      </trkpt>
      <trkpt lat="59.17395" lon="18.13539">
        <ele>46</ele>
        <time>2019-11-04T11:58:15Z</time>
      </trkpt>
      <trkpt lat="59.173977" lon="18.135367">
        <ele>46</ele>
        <time>2019-11-04T11:58:17Z</time>
      </trkpt>
      <trkpt lat="59.174005" lon="18.135346">
        <ele>47</ele>
        <time>2019-11-04T11:58:19Z</time>
      </trkpt>
      <trkpt lat="59.174032" lon="18.135326">
        <ele>47</ele>
        <time>2019-11-04T11:58:21Z</time>
      </trkpt>
      <trkpt lat="59.174057" lon="18.13531">
        <ele>47</ele>
        <time>2019-11-04T11:58:23Z</time>
      </trkpt>
      <trkpt lat="59.174085" lon="18.13529">
        <ele>47</ele>
        <time>2019-11-04T11:58:25Z</time>
      </trkpt>
      <trkpt lat="59.174112" lon="18.135264">
        <ele>47</ele>
        <time>2019-11-04T11:58:27Z</time>
      </trkpt>
      <trkpt lat="59.174137" lon="18.13524">
        <ele>47</ele>
        <time>2019-11-04T11:58:29Z</time>
      </trkpt>
      <trkpt lat="59.174162" lon="18.135212">
        <ele>47</ele>
        <time>2019-11-04T11:58:31Z</time>
      </trkpt>
      <trkpt lat="59.174188" lon="18.135184">
        <ele>47</ele>
        <time>2019-11-04T11:58:33Z</time>
      </trkpt>
      <trkpt lat="59.174215" lon="18.13516">
        <ele>47</ele>
        <time>2019-11-04T11:58:35Z</time>
      </trkpt>
      <trkpt lat="59.174242" lon="18.135142">
        <ele>46</ele>
        <time>2019-11-04T11:58:37Z</time>
      </trkpt>
      <trkpt lat="59.174266" lon="18.135124">
        <ele>46</ele>
        <time>2019-11-04T11:58:39Z</time>
      </trkpt>
      <trkpt lat="59.174292" lon="18.135094">
        <ele>46</ele>
        <time>2019-11-04T11:58:41Z</time>
      </trkpt>
      <trkpt lat="59.174319" lon="18.135062">
        <ele>46</ele>
        <time>2019-11-04T11:58:43Z</time>
      </trkpt>
      <trkpt lat="59.174344" lon="18.135032">
        <ele>46</ele>
        <time>2019-11-04T11:58:45Z</time>
      </trkpt>
      <trkpt lat="59.174369" lon="18.135008">
        <ele>46</ele>
        <time>2019-11-04T11:58:47Z</time>
      </trkpt>
      <trkpt lat="59.174395" lon="18.134978">
        <ele>45</ele>
        <time>2019-11-04T11:58:49Z</time>
      </trkpt>
      <trkpt lat="59.174422" lon="18.134946">
        <ele>45</ele>
        <time>2019-11-04T11:58:51Z</time>
      </trkpt>
      <trkpt lat="59.174444" lon="18.134916">
        <ele>45</ele>
        <time>2019-11-04T11:58:53Z</time>
      </trkpt>
      <trkpt lat="59.174471" lon="18.134884">
        <ele>45</ele>
        <time>2019-11-04T11:58:55Z</time>
      </trkpt>
      <trkpt lat="59.174492" lon="18.134856">
        <ele>44</ele>
        <time>2019-11-04T11:58:57Z</time>
      </trkpt>
      <trkpt lat="59.174513" lon="18.134825">
        <ele>44</ele>
        <time>2019-11-04T11:58:59Z</time>
      </trkpt>
      <trkpt lat="59.174535" lon="18.134796">
        <ele>44</ele>
        <time>2019-11-04T11:59:01Z</time>
      </trkpt>
      <trkpt lat="59.174558" lon="18.134768">
        <ele>43</ele>
        <time>2019-11-04T11:59:03Z</time>
      </trkpt>
      <trkpt lat="59.174581" lon="18.13474">
        <ele>43</ele>
        <time>2019-11-04T11:59:05Z</time>
      </trkpt>
      <trkpt lat="59.174604" lon="18.134708">
        <ele>43</ele>
        <time>2019-11-04T11:59:07Z</time>
      </trkpt>
      <trkpt lat="59.174629" lon="18.134682">
        <ele>43</ele>
        <time>2019-11-04T11:59:09Z</time>
      </trkpt>
      <trkpt lat="59.174654" lon="18.13466">
        <ele>43</ele>
        <time>2019-11-04T11:59:11Z</time>
      </trkpt>
      <trkpt lat="59.174675" lon="18.134635">
        <ele>43</ele>
        <time>2019-11-04T11:59:13Z</time>
      </trkpt>
      <trkpt lat="59.174705" lon="18.134616">
        <ele>42</ele>
        <time>2019-11-04T11:59:15Z</time>
      </trkpt>
      <trkpt lat="59.174739" lon="18.134616">
        <ele>42</ele>
        <time>2019-11-04T11:59:17Z</time>
      </trkpt>
      <trkpt lat="59.174768" lon="18.134612">
        <ele>42</ele>
        <time>2019-11-04T11:59:19Z</time>
      </trkpt>
      <trkpt lat="59.1748" lon="18.13461">
        <ele>42</ele>
        <time>2019-11-04T11:59:21Z</time>
      </trkpt>
      <trkpt lat="59.174832" lon="18.13461">
        <ele>42</ele>
        <time>2019-11-04T11:59:23Z</time>
      </trkpt>
      <trkpt lat="59.174861" lon="18.134618">
        <ele>42</ele>
        <time>2019-11-04T11:59:25Z</time>
      </trkpt>
      <trkpt lat="59.17489" lon="18.134622">
        <ele>42</ele>
        <time>2019-11-04T11:59:27Z</time>
      </trkpt>
      <trkpt lat="59.174919" lon="18.134628">
        <ele>42</ele>
        <time>2019-11-04T11:59:29Z</time>
      </trkpt>
      <trkpt lat="59.174947" lon="18.134634">
        <ele>42</ele>
        <time>2019-11-04T11:59:31Z</time>
      </trkpt>
      <trkpt lat="59.174975" lon="18.134646">
        <ele>41</ele>
        <time>2019-11-04T11:59:33Z</time>
      </trkpt>
      <trkpt lat="59.175005" lon="18.134657">
        <ele>41</ele>
        <time>2019-11-04T11:59:35Z</time>
      </trkpt>
      <trkpt lat="59.175034" lon="18.134666">
        <ele>41</ele>
        <time>2019-11-04T11:59:38Z</time>
      </trkpt>
      <trkpt lat="59.175063" lon="18.134672">
        <ele>41</ele>
        <time>2019-11-04T11:59:39Z</time>
      </trkpt>
      <trkpt lat="59.175095" lon="18.134676">
        <ele>41</ele>
        <time>2019-11-04T11:59:41Z</time>
      </trkpt>
      <trkpt lat="59.175126" lon="18.134688">
        <ele>40</ele>
        <time>2019-11-04T11:59:43Z</time>
      </trkpt>
      <trkpt lat="59.175157" lon="18.134702">
        <ele>40</ele>
        <time>2019-11-04T11:59:45Z</time>
      </trkpt>
      <trkpt lat="59.175184" lon="18.134706">
        <ele>41</ele>
        <time>2019-11-04T11:59:47Z</time>
      </trkpt>
      <trkpt lat="59.175211" lon="18.134712">
        <ele>41</ele>
        <time>2019-11-04T11:59:49Z</time>
      </trkpt>
      <trkpt lat="59.175242" lon="18.134721">
        <ele>41</ele>
        <time>2019-11-04T11:59:51Z</time>
      </trkpt>
      <trkpt lat="59.175268" lon="18.13473">
        <ele>40</ele>
        <time>2019-11-04T11:59:53Z</time>
      </trkpt>
      <trkpt lat="59.175295" lon="18.134735">
        <ele>40</ele>
        <time>2019-11-04T11:59:55Z</time>
      </trkpt>
      <trkpt lat="59.175323" lon="18.13474">
        <ele>40</ele>
        <time>2019-11-04T11:59:57Z</time>
      </trkpt>
      <trkpt lat="59.175355" lon="18.13474">
        <ele>40</ele>
        <time>2019-11-04T11:59:59Z</time>
      </trkpt>
      <trkpt lat="59.175384" lon="18.134747">
        <ele>40</ele>
        <time>2019-11-04T12:00:01Z</time>
      </trkpt>
      <trkpt lat="59.175417" lon="18.134757">
        <ele>40</ele>
        <time>2019-11-04T12:00:03Z</time>
      </trkpt>
      <trkpt lat="59.175446" lon="18.134767">
        <ele>39</ele>
        <time>2019-11-04T12:00:05Z</time>
      </trkpt>
      <trkpt lat="59.175473" lon="18.134776">
        <ele>39</ele>
        <time>2019-11-04T12:00:07Z</time>
      </trkpt>
      <trkpt lat="59.175505" lon="18.134778">
        <ele>39</ele>
        <time>2019-11-04T12:00:09Z</time>
      </trkpt>
      <trkpt lat="59.17553" lon="18.134786">
        <ele>39</ele>
        <time>2019-11-04T12:00:11Z</time>
      </trkpt>
      <trkpt lat="59.175558" lon="18.134795">
        <ele>39</ele>
        <time>2019-11-04T12:00:13Z</time>
      </trkpt>
      <trkpt lat="59.175585" lon="18.134806">
        <ele>38</ele>
        <time>2019-11-04T12:00:16Z</time>
      </trkpt>
      <trkpt lat="59.175614" lon="18.13481">
        <ele>38</ele>
        <time>2019-11-04T12:00:17Z</time>
      </trkpt>
      <trkpt lat="59.175643" lon="18.134816">
        <ele>38</ele>
        <time>2019-11-04T12:00:19Z</time>
      </trkpt>
      <trkpt lat="59.175671" lon="18.134825">
        <ele>38</ele>
        <time>2019-11-04T12:00:21Z</time>
      </trkpt>
      <trkpt lat="59.1757" lon="18.134829">
        <ele>38</ele>
        <time>2019-11-04T12:00:23Z</time>
      </trkpt>
      <trkpt lat="59.175731" lon="18.134834">
        <ele>39</ele>
        <time>2019-11-04T12:00:25Z</time>
      </trkpt>
      <trkpt lat="59.175762" lon="18.13484">
        <ele>39</ele>
        <time>2019-11-04T12:00:27Z</time>
      </trkpt>
      <trkpt lat="59.175792" lon="18.134844">
        <ele>39</ele>
        <time>2019-11-04T12:00:29Z</time>
      </trkpt>
      <trkpt lat="59.175823" lon="18.134844">
        <ele>39</ele>
        <time>2019-11-04T12:00:31Z</time>
      </trkpt>
      <trkpt lat="59.175852" lon="18.134848">
        <ele>39</ele>
        <time>2019-11-04T12:00:33Z</time>
      </trkpt>
      <trkpt lat="59.17588" lon="18.134856">
        <ele>38</ele>
        <time>2019-11-04T12:00:35Z</time>
      </trkpt>
      <trkpt lat="59.175909" lon="18.134858">
        <ele>39</ele>
        <time>2019-11-04T12:00:37Z</time>
      </trkpt>
      <trkpt lat="59.175942" lon="18.134863">
        <ele>39</ele>
        <time>2019-11-04T12:00:39Z</time>
      </trkpt>
      <trkpt lat="59.175971" lon="18.134869">
        <ele>39</ele>
        <time>2019-11-04T12:00:41Z</time>
      </trkpt>
      <trkpt lat="59.176002" lon="18.134875">
        <ele>39</ele>
        <time>2019-11-04T12:00:43Z</time>
      </trkpt>
      <trkpt lat="59.176031" lon="18.134879">
        <ele>39</ele>
        <time>2019-11-04T12:00:45Z</time>
      </trkpt>
      <trkpt lat="59.176059" lon="18.134881">
        <ele>39</ele>
        <time>2019-11-04T12:00:47Z</time>
      </trkpt>
      <trkpt lat="59.176086" lon="18.134887">
        <ele>39</ele>
        <time>2019-11-04T12:00:49Z</time>
      </trkpt>
      <trkpt lat="59.176114" lon="18.134896">
        <ele>39</ele>
        <time>2019-11-04T12:00:51Z</time>
      </trkpt>
      <trkpt lat="59.176141" lon="18.134903">
        <ele>39</ele>
        <time>2019-11-04T12:00:53Z</time>
      </trkpt>
      <trkpt lat="59.176167" lon="18.134903">
        <ele>39</ele>
        <time>2019-11-04T12:00:55Z</time>
      </trkpt>
      <trkpt lat="59.17619" lon="18.134888">
        <ele>39</ele>
        <time>2019-11-04T12:00:57Z</time>
      </trkpt>
      <trkpt lat="59.1762" lon="18.134844">
        <ele>39</ele>
        <time>2019-11-04T12:00:59Z</time>
      </trkpt>
      <trkpt lat="59.176194" lon="18.134791">
        <ele>39</ele>
        <time>2019-11-04T12:01:01Z</time>
      </trkpt>
      <trkpt lat="59.176178" lon="18.134746">
        <ele>39</ele>
        <time>2019-11-04T12:01:03Z</time>
      </trkpt>
      <trkpt lat="59.176158" lon="18.134707">
        <ele>38</ele>
        <time>2019-11-04T12:01:05Z</time>
      </trkpt>
      <trkpt lat="59.17614" lon="18.134668">
        <ele>38</ele>
        <time>2019-11-04T12:01:07Z</time>
      </trkpt>
      <trkpt lat="59.17612" lon="18.134632">
        <ele>38</ele>
        <time>2019-11-04T12:01:09Z</time>
      </trkpt>
      <trkpt lat="59.176106" lon="18.134594">
        <ele>38</ele>
        <time>2019-11-04T12:01:11Z</time>
      </trkpt>
      <trkpt lat="59.176089" lon="18.134551">
        <ele>38</ele>
        <time>2019-11-04T12:01:13Z</time>
      </trkpt>
      <trkpt lat="59.176066" lon="18.134519">
        <ele>38</ele>
        <time>2019-11-04T12:01:15Z</time>
      </trkpt>
      <trkpt lat="59.176044" lon="18.134482">
        <ele>38</ele>
        <time>2019-11-04T12:01:17Z</time>
      </trkpt>
      <trkpt lat="59.176024" lon="18.13444">
        <ele>37</ele>
        <time>2019-11-04T12:01:19Z</time>
      </trkpt>
      <trkpt lat="59.176008" lon="18.134398">
        <ele>37</ele>
        <time>2019-11-04T12:01:21Z</time>
      </trkpt>
      <trkpt lat="59.17599" lon="18.134362">
        <ele>37</ele>
        <time>2019-11-04T12:01:23Z</time>
      </trkpt>
      <trkpt lat="59.17597" lon="18.134328">
        <ele>37</ele>
        <time>2019-11-04T12:01:25Z</time>
      </trkpt>
      <trkpt lat="59.175953" lon="18.134289">
        <ele>37</ele>
        <time>2019-11-04T12:01:27Z</time>
      </trkpt>
      <trkpt lat="59.175934" lon="18.134251">
        <ele>37</ele>
        <time>2019-11-04T12:01:29Z</time>
      </trkpt>
      <trkpt lat="59.175914" lon="18.134214">
        <ele>37</ele>
        <time>2019-11-04T12:01:31Z</time>
      </trkpt>
      <trkpt lat="59.175892" lon="18.134177">
        <ele>36</ele>
        <time>2019-11-04T12:01:33Z</time>
      </trkpt>
      <trkpt lat="59.175872" lon="18.134142">
        <ele>36</ele>
        <time>2019-11-04T12:01:35Z</time>
      </trkpt>
      <trkpt lat="59.175856" lon="18.134117">
        <ele>36</ele>
        <time>2019-11-04T12:01:36Z</time>
      </trkpt>
      <trkpt lat="59.175838" lon="18.134075">
        <ele>36</ele>
        <time>2019-11-04T12:01:38Z</time>
      </trkpt>
      <trkpt lat="59.175816" lon="18.134032">
        <ele>36</ele>
        <time>2019-11-04T12:01:40Z</time>
      </trkpt>
      <trkpt lat="59.175794" lon="18.13399">
        <ele>36</ele>
        <time>2019-11-04T12:01:42Z</time>
      </trkpt>
      <trkpt lat="59.175769" lon="18.133945">
        <ele>36</ele>
        <time>2019-11-04T12:01:44Z</time>
      </trkpt>
      <trkpt lat="59.175749" lon="18.133901">
        <ele>37</ele>
        <time>2019-11-04T12:01:46Z</time>
      </trkpt>
      <trkpt lat="59.175729" lon="18.133851">
        <ele>36</ele>
        <time>2019-11-04T12:01:48Z</time>
      </trkpt>
      <trkpt lat="59.175707" lon="18.133803">
        <ele>36</ele>
        <time>2019-11-04T12:01:50Z</time>
      </trkpt>
      <trkpt lat="59.175687" lon="18.133757">
        <ele>36</ele>
        <time>2019-11-04T12:01:52Z</time>
      </trkpt>
      <trkpt lat="59.175666" lon="18.133715">
        <ele>36</ele>
        <time>2019-11-04T12:01:54Z</time>
      </trkpt>
      <trkpt lat="59.175649" lon="18.133674">
        <ele>36</ele>
        <time>2019-11-04T12:01:56Z</time>
      </trkpt>
      <trkpt lat="59.17563" lon="18.133631">
        <ele>36</ele>
        <time>2019-11-04T12:01:58Z</time>
      </trkpt>
      <trkpt lat="59.175608" lon="18.133587">
        <ele>36</ele>
        <time>2019-11-04T12:02:00Z</time>
      </trkpt>
      <trkpt lat="59.175586" lon="18.133542">
        <ele>36</ele>
        <time>2019-11-04T12:02:02Z</time>
      </trkpt>
      <trkpt lat="59.175568" lon="18.133493">
        <ele>36</ele>
        <time>2019-11-04T12:02:04Z</time>
      </trkpt>
      <trkpt lat="59.17555" lon="18.133446">
        <ele>36</ele>
        <time>2019-11-04T12:02:06Z</time>
      </trkpt>
      <trkpt lat="59.17553" lon="18.133407">
        <ele>36</ele>
        <time>2019-11-04T12:02:08Z</time>
      </trkpt>
      <trkpt lat="59.175511" lon="18.133369">
        <ele>35</ele>
        <time>2019-11-04T12:02:10Z</time>
      </trkpt>
      <trkpt lat="59.175489" lon="18.13333">
        <ele>36</ele>
        <time>2019-11-04T12:02:12Z</time>
      </trkpt>
      <trkpt lat="59.175469" lon="18.133292">
        <ele>35</ele>
        <time>2019-11-04T12:02:14Z</time>
      </trkpt>
      <trkpt lat="59.175451" lon="18.133248">
        <ele>35</ele>
        <time>2019-11-04T12:02:16Z</time>
      </trkpt>
      <trkpt lat="59.17543" lon="18.133206">
        <ele>35</ele>
        <time>2019-11-04T12:02:18Z</time>
      </trkpt>
      <trkpt lat="59.175411" lon="18.133166">
        <ele>35</ele>
        <time>2019-11-04T12:02:20Z</time>
      </trkpt>
      <trkpt lat="59.175392" lon="18.133119">
        <ele>35</ele>
        <time>2019-11-04T12:02:22Z</time>
      </trkpt>
      <trkpt lat="59.175371" lon="18.133077">
        <ele>35</ele>
        <time>2019-11-04T12:02:24Z</time>
      </trkpt>
      <trkpt lat="59.175349" lon="18.133032">
        <ele>35</ele>
        <time>2019-11-04T12:02:26Z</time>
      </trkpt>
      <trkpt lat="59.17533" lon="18.132985">
        <ele>35</ele>
        <time>2019-11-04T12:02:28Z</time>
      </trkpt>
      <trkpt lat="59.175309" lon="18.132937">
        <ele>35</ele>
        <time>2019-11-04T12:02:30Z</time>
      </trkpt>
      <trkpt lat="59.175288" lon="18.132892">
        <ele>35</ele>
        <time>2019-11-04T12:02:32Z</time>
      </trkpt>
      <trkpt lat="59.175268" lon="18.13285">
        <ele>35</ele>
        <time>2019-11-04T12:02:34Z</time>
      </trkpt>
      <trkpt lat="59.175248" lon="18.132811">
        <ele>35</ele>
        <time>2019-11-04T12:02:36Z</time>
      </trkpt>
      <trkpt lat="59.175228" lon="18.132771">
        <ele>35</ele>
        <time>2019-11-04T12:02:38Z</time>
      </trkpt>
      <trkpt lat="59.175209" lon="18.132732">
        <ele>35</ele>
        <time>2019-11-04T12:02:40Z</time>
      </trkpt>
      <trkpt lat="59.175187" lon="18.132689">
        <ele>35</ele>
        <time>2019-11-04T12:02:42Z</time>
      </trkpt>
      <trkpt lat="59.175165" lon="18.13265">
        <ele>35</ele>
        <time>2019-11-04T12:02:44Z</time>
      </trkpt>
      <trkpt lat="59.175142" lon="18.132609">
        <ele>35</ele>
        <time>2019-11-04T12:02:46Z</time>
      </trkpt>
      <trkpt lat="59.175118" lon="18.132565">
        <ele>35</ele>
        <time>2019-11-04T12:02:48Z</time>
      </trkpt>
      <trkpt lat="59.1751" lon="18.132515">
        <ele>35</ele>
        <time>2019-11-04T12:02:50Z</time>
      </trkpt>
      <trkpt lat="59.175082" lon="18.132462">
        <ele>36</ele>
        <time>2019-11-04T12:02:52Z</time>
      </trkpt>
      <trkpt lat="59.175066" lon="18.132415">
        <ele>36</ele>
        <time>2019-11-04T12:02:54Z</time>
      </trkpt>
      <trkpt lat="59.17505" lon="18.132367">
        <ele>36</ele>
        <time>2019-11-04T12:02:56Z</time>
      </trkpt>
      <trkpt lat="59.175033" lon="18.132319">
        <ele>36</ele>
        <time>2019-11-04T12:02:58Z</time>
      </trkpt>
      <trkpt lat="59.175021" lon="18.132267">
        <ele>36</ele>
        <time>2019-11-04T12:03:00Z</time>
      </trkpt>
      <trkpt lat="59.175013" lon="18.132215">
        <ele>37</ele>
        <time>2019-11-04T12:03:02Z</time>
      </trkpt>
      <trkpt lat="59.175002" lon="18.132164">
        <ele>37</ele>
        <time>2019-11-04T12:03:04Z</time>
      </trkpt>
      <trkpt lat="59.174994" lon="18.132106">
        <ele>37</ele>
        <time>2019-11-04T12:03:06Z</time>
      </trkpt>
      <trkpt lat="59.174987" lon="18.132045">
        <ele>37</ele>
        <time>2019-11-04T12:03:08Z</time>
      </trkpt>
      <trkpt lat="59.174977" lon="18.131987">
        <ele>37</ele>
        <time>2019-11-04T12:03:10Z</time>
      </trkpt>
      <trkpt lat="59.174968" lon="18.131929">
        <ele>38</ele>
        <time>2019-11-04T12:03:12Z</time>
      </trkpt>
      <trkpt lat="59.174962" lon="18.131884">
        <ele>38</ele>
        <time>2019-11-04T12:03:14Z</time>
      </trkpt>
      <trkpt lat="59.174955" lon="18.131834">
        <ele>38</ele>
        <time>2019-11-04T12:03:16Z</time>
      </trkpt>
      <trkpt lat="59.174946" lon="18.131779">
        <ele>38</ele>
        <time>2019-11-04T12:03:18Z</time>
      </trkpt>
      <trkpt lat="59.174936" lon="18.131727">
        <ele>38</ele>
        <time>2019-11-04T12:03:20Z</time>
      </trkpt>
      <trkpt lat="59.174926" lon="18.131674">
        <ele>38</ele>
        <time>2019-11-04T12:03:22Z</time>
      </trkpt>
      <trkpt lat="59.174915" lon="18.131617">
        <ele>38</ele>
        <time>2019-11-04T12:03:24Z</time>
      </trkpt>
      <trkpt lat="59.174908" lon="18.131555">
        <ele>39</ele>
        <time>2019-11-04T12:03:26Z</time>
      </trkpt>
      <trkpt lat="59.174904" lon="18.131497">
        <ele>39</ele>
        <time>2019-11-04T12:03:28Z</time>
      </trkpt>
      <trkpt lat="59.174899" lon="18.131438">
        <ele>39</ele>
        <time>2019-11-04T12:03:30Z</time>
      </trkpt>
      <trkpt lat="59.174899" lon="18.131379">
        <ele>39</ele>
        <time>2019-11-04T12:03:32Z</time>
      </trkpt>
      <trkpt lat="59.174896" lon="18.131316">
        <ele>40</ele>
        <time>2019-11-04T12:03:34Z</time>
      </trkpt>
      <trkpt lat="59.174894" lon="18.131251">
        <ele>40</ele>
        <time>2019-11-04T12:03:36Z</time>
      </trkpt>
      <trkpt lat="59.17489" lon="18.131188">
        <ele>40</ele>
        <time>2019-11-04T12:03:38Z</time>
      </trkpt>
      <trkpt lat="59.174885" lon="18.131129">
        <ele>40</ele>
        <time>2019-11-04T12:03:40Z</time>
      </trkpt>
      <trkpt lat="59.174877" lon="18.131073">
        <ele>40</ele>
        <time>2019-11-04T12:03:42Z</time>
      </trkpt>
      <trkpt lat="59.174873" lon="18.131007">
        <ele>40</ele>
        <time>2019-11-04T12:03:44Z</time>
      </trkpt>
      <trkpt lat="59.17487" lon="18.130971">
        <ele>40</ele>
        <time>2019-11-04T12:03:45Z</time>
      </trkpt>
      <trkpt lat="59.174868" lon="18.130902">
        <ele>40</ele>
        <time>2019-11-04T12:03:47Z</time>
      </trkpt>
      <trkpt lat="59.174869" lon="18.130838">
        <ele>40</ele>
        <time>2019-11-04T12:03:49Z</time>
      </trkpt>
      <trkpt lat="59.174864" lon="18.130776">
        <ele>40</ele>
        <time>2019-11-04T12:03:51Z</time>
      </trkpt>
      <trkpt lat="59.174863" lon="18.130717">
        <ele>40</ele>
        <time>2019-11-04T12:03:53Z</time>
      </trkpt>
      <trkpt lat="59.174865" lon="18.130659">
        <ele>40</ele>
        <time>2019-11-04T12:03:55Z</time>
      </trkpt>
      <trkpt lat="59.174865" lon="18.130603">
        <ele>40</ele>
        <time>2019-11-04T12:03:57Z</time>
      </trkpt>
      <trkpt lat="59.174863" lon="18.130547">
        <ele>40</ele>
        <time>2019-11-04T12:03:59Z</time>
      </trkpt>
      <trkpt lat="59.174844" lon="18.130505">
        <ele>40</ele>
        <time>2019-11-04T12:04:01Z</time>
      </trkpt>
      <trkpt lat="59.17482" lon="18.130493">
        <ele>40</ele>
        <time>2019-11-04T12:04:03Z</time>
      </trkpt>
      <trkpt lat="59.174799" lon="18.1305">
        <ele>41</ele>
        <time>2019-11-04T12:04:05Z</time>
      </trkpt>
      <trkpt lat="59.174772" lon="18.130514">
        <ele>41</ele>
        <time>2019-11-04T12:04:07Z</time>
      </trkpt>
      <trkpt lat="59.174744" lon="18.130529">
        <ele>41</ele>
        <time>2019-11-04T12:04:09Z</time>
      </trkpt>
      <trkpt lat="59.174719" lon="18.130538">
        <ele>42</ele>
        <time>2019-11-04T12:04:11Z</time>
      </trkpt>
      <trkpt lat="59.174696" lon="18.130547">
        <ele>42</ele>
        <time>2019-11-04T12:04:13Z</time>
      </trkpt>
      <trkpt lat="59.17467" lon="18.130558">
        <ele>42</ele>
        <time>2019-11-04T12:04:15Z</time>
      </trkpt>
      <trkpt lat="59.174644" lon="18.130574">
        <ele>42</ele>
        <time>2019-11-04T12:04:17Z</time>
      </trkpt>
      <trkpt lat="59.174616" lon="18.130592">
        <ele>42</ele>
        <time>2019-11-04T12:04:19Z</time>
      </trkpt>
      <trkpt lat="59.174588" lon="18.130602">
        <ele>42</ele>
        <time>2019-11-04T12:04:21Z</time>
      </trkpt>
      <trkpt lat="59.174557" lon="18.130622">
        <ele>42</ele>
        <time>2019-11-04T12:04:23Z</time>
      </trkpt>
      <trkpt lat="59.174526" lon="18.130637">
        <ele>42</ele>
        <time>2019-11-04T12:04:25Z</time>
      </trkpt>
      <trkpt lat="59.174497" lon="18.130644">
        <ele>42</ele>
        <time>2019-11-04T12:04:27Z</time>
      </trkpt>
      <trkpt lat="59.174462" lon="18.130659">
        <ele>42</ele>
        <time>2019-11-04T12:04:29Z</time>
      </trkpt>
      <trkpt lat="59.174442" lon="18.130669">
        <ele>42</ele>
        <time>2019-11-04T12:04:30Z</time>
      </trkpt>
      <trkpt lat="59.174414" lon="18.130691">
        <ele>42</ele>
        <time>2019-11-04T12:04:32Z</time>
      </trkpt>
      <trkpt lat="59.174383" lon="18.130708">
        <ele>42</ele>
        <time>2019-11-04T12:04:34Z</time>
      </trkpt>
      <trkpt lat="59.174353" lon="18.130728">
        <ele>43</ele>
        <time>2019-11-04T12:04:36Z</time>
      </trkpt>
      <trkpt lat="59.174323" lon="18.13075">
        <ele>43</ele>
        <time>2019-11-04T12:04:38Z</time>
      </trkpt>
      <trkpt lat="59.174296" lon="18.130764">
        <ele>43</ele>
        <time>2019-11-04T12:04:40Z</time>
      </trkpt>
      <trkpt lat="59.174271" lon="18.130786">
        <ele>43</ele>
        <time>2019-11-04T12:04:42Z</time>
      </trkpt>
      <trkpt lat="59.174243" lon="18.13081">
        <ele>43</ele>
        <time>2019-11-04T12:04:44Z</time>
      </trkpt>
      <trkpt lat="59.174212" lon="18.130826">
        <ele>44</ele>
        <time>2019-11-04T12:04:46Z</time>
      </trkpt>
      <trkpt lat="59.174178" lon="18.130847">
        <ele>44</ele>
        <time>2019-11-04T12:04:48Z</time>
      </trkpt>
      <trkpt lat="59.174151" lon="18.130852">
        <ele>45</ele>
        <time>2019-11-04T12:04:50Z</time>
      </trkpt>
      <trkpt lat="59.174121" lon="18.130866">
        <ele>45</ele>
        <time>2019-11-04T12:04:52Z</time>
      </trkpt>
      <trkpt lat="59.174097" lon="18.130871">
        <ele>45</ele>
        <time>2019-11-04T12:04:54Z</time>
      </trkpt>
      <trkpt lat="59.174071" lon="18.130884">
        <ele>46</ele>
        <time>2019-11-04T12:04:56Z</time>
      </trkpt>
      <trkpt lat="59.174048" lon="18.130898">
        <ele>46</ele>
        <time>2019-11-04T12:04:58Z</time>
      </trkpt>
      <trkpt lat="59.174015" lon="18.130912">
        <ele>46</ele>
        <time>2019-11-04T12:05:01Z</time>
      </trkpt>
      <trkpt lat="59.173985" lon="18.130924">
        <ele>46</ele>
        <time>2019-11-04T12:05:02Z</time>
      </trkpt>
      <trkpt lat="59.173956" lon="18.130936">
        <ele>46</ele>
        <time>2019-11-04T12:05:04Z</time>
      </trkpt>
      <trkpt lat="59.173929" lon="18.130926">
        <ele>46</ele>
        <time>2019-11-04T12:05:06Z</time>
      </trkpt>
      <trkpt lat="59.173909" lon="18.130922">
        <ele>46</ele>
        <time>2019-11-04T12:05:07Z</time>
      </trkpt>
      <trkpt lat="59.17389" lon="18.130911">
        <ele>46</ele>
        <time>2019-11-04T12:05:08Z</time>
      </trkpt>
      <trkpt lat="59.173857" lon="18.130902">
        <ele>46</ele>
        <time>2019-11-04T12:05:10Z</time>
      </trkpt>
      <trkpt lat="59.173823" lon="18.130895">
        <ele>46</ele>
        <time>2019-11-04T12:05:12Z</time>
      </trkpt>
      <trkpt lat="59.173789" lon="18.130894">
        <ele>46</ele>
        <time>2019-11-04T12:05:14Z</time>
      </trkpt>
      <trkpt lat="59.173755" lon="18.130888">
        <ele>46</ele>
        <time>2019-11-04T12:05:16Z</time>
      </trkpt>
      <trkpt lat="59.173723" lon="18.130881">
        <ele>46</ele>
        <time>2019-11-04T12:05:18Z</time>
      </trkpt>
      <trkpt lat="59.173694" lon="18.13087">
        <ele>47</ele>
        <time>2019-11-04T12:05:20Z</time>
      </trkpt>
      <trkpt lat="59.173664" lon="18.13086">
        <ele>47</ele>
        <time>2019-11-04T12:05:22Z</time>
      </trkpt>
      <trkpt lat="59.173645" lon="18.130863">
        <ele>47</ele>
        <time>2019-11-04T12:05:23Z</time>
      </trkpt>
      <trkpt lat="59.173613" lon="18.13086">
        <ele>47</ele>
        <time>2019-11-04T12:05:25Z</time>
      </trkpt>
      <trkpt lat="59.173594" lon="18.13086">
        <ele>47</ele>
        <time>2019-11-04T12:05:26Z</time>
      </trkpt>
      <trkpt lat="59.173561" lon="18.130847">
        <ele>47</ele>
        <time>2019-11-04T12:05:28Z</time>
      </trkpt>
      <trkpt lat="59.173524" lon="18.130842">
        <ele>47</ele>
        <time>2019-11-04T12:05:30Z</time>
      </trkpt>
      <trkpt lat="59.173493" lon="18.130829">
        <ele>47</ele>
        <time>2019-11-04T12:05:32Z</time>
      </trkpt>
      <trkpt lat="59.173475" lon="18.130835">
        <ele>47</ele>
        <time>2019-11-04T12:05:33Z</time>
      </trkpt>
      <trkpt lat="59.173446" lon="18.130838">
        <ele>47</ele>
        <time>2019-11-04T12:05:35Z</time>
      </trkpt>
      <trkpt lat="59.173421" lon="18.130838">
        <ele>47</ele>
        <time>2019-11-04T12:05:37Z</time>
      </trkpt>
      <trkpt lat="59.173391" lon="18.130841">
        <ele>47</ele>
        <time>2019-11-04T12:05:39Z</time>
      </trkpt>
      <trkpt lat="59.173363" lon="18.130855">
        <ele>48</ele>
        <time>2019-11-04T12:05:41Z</time>
      </trkpt>
      <trkpt lat="59.173338" lon="18.13086">
        <ele>48</ele>
        <time>2019-11-04T12:05:43Z</time>
      </trkpt>
      <trkpt lat="59.17331" lon="18.130846">
        <ele>48</ele>
        <time>2019-11-04T12:05:45Z</time>
      </trkpt>
      <trkpt lat="59.17329" lon="18.130838">
        <ele>48</ele>
        <time>2019-11-04T12:05:47Z</time>
      </trkpt>
      <trkpt lat="59.173275" lon="18.130865">
        <ele>48</ele>
        <time>2019-11-04T12:05:50Z</time>
      </trkpt>
      <trkpt lat="59.173259" lon="18.130845">
        <ele>48</ele>
        <time>2019-11-04T12:05:52Z</time>
      </trkpt>
      <trkpt lat="59.173244" lon="18.130812">
        <ele>48</ele>
        <time>2019-11-04T12:05:54Z</time>
      </trkpt>
      <trkpt lat="59.173227" lon="18.130788">
        <ele>48</ele>
        <time>2019-11-04T12:05:56Z</time>
      </trkpt>
      <trkpt lat="59.173199" lon="18.13078">
        <ele>48</ele>
        <time>2019-11-04T12:05:58Z</time>
      </trkpt>
      <trkpt lat="59.173169" lon="18.130763">
        <ele>48</ele>
        <time>2019-11-04T12:06:00Z</time>
      </trkpt>
      <trkpt lat="59.173144" lon="18.130725">
        <ele>48</ele>
        <time>2019-11-04T12:06:02Z</time>
      </trkpt>
      <trkpt lat="59.173116" lon="18.130697">
        <ele>48</ele>
        <time>2019-11-04T12:06:04Z</time>
      </trkpt>
      <trkpt lat="59.173089" lon="18.13066">
        <ele>48</ele>
        <time>2019-11-04T12:06:06Z</time>
      </trkpt>
      <trkpt lat="59.173068" lon="18.130634">
        <ele>49</ele>
        <time>2019-11-04T12:06:08Z</time>
      </trkpt>
      <trkpt lat="59.173048" lon="18.130602">
        <ele>49</ele>
        <time>2019-11-04T12:06:10Z</time>
      </trkpt>
      <trkpt lat="59.173026" lon="18.130567">
        <ele>49</ele>
        <time>2019-11-04T12:06:12Z</time>
      </trkpt>
      <trkpt lat="59.173003" lon="18.130538">
        <ele>49</ele>
        <time>2019-11-04T12:06:14Z</time>
      </trkpt>
      <trkpt lat="59.172978" lon="18.130512">
        <ele>49</ele>
        <time>2019-11-04T12:06:17Z</time>
      </trkpt>
      <trkpt lat="59.172955" lon="18.130478">
        <ele>49</ele>
        <time>2019-11-04T12:06:18Z</time>
      </trkpt>
      <trkpt lat="59.172935" lon="18.130452">
        <ele>49</ele>
        <time>2019-11-04T12:06:20Z</time>
      </trkpt>
      <trkpt lat="59.172919" lon="18.130426">
        <ele>49</ele>
        <time>2019-11-04T12:06:22Z</time>
      </trkpt>
      <trkpt lat="59.172896" lon="18.13041">
        <ele>49</ele>
        <time>2019-11-04T12:06:26Z</time>
      </trkpt>
      <trkpt lat="59.172872" lon="18.130392">
        <ele>50</ele>
        <time>2019-11-04T12:06:29Z</time>
      </trkpt>
      <trkpt lat="59.172854" lon="18.130371">
        <ele>50</ele>
        <time>2019-11-04T12:06:31Z</time>
      </trkpt>
      <trkpt lat="59.172834" lon="18.13035">
        <ele>50</ele>
        <time>2019-11-04T12:06:33Z</time>
      </trkpt>
      <trkpt lat="59.172816" lon="18.130307">
        <ele>49</ele>
        <time>2019-11-04T12:06:35Z</time>
      </trkpt>
      <trkpt lat="59.172798" lon="18.130256">
        <ele>49</ele>
        <time>2019-11-04T12:06:37Z</time>
      </trkpt>
      <trkpt lat="59.172772" lon="18.130229">
        <ele>49</ele>
        <time>2019-11-04T12:06:39Z</time>
      </trkpt>
      <trkpt lat="59.172764" lon="18.130177">
        <ele>50</ele>
        <time>2019-11-04T12:06:41Z</time>
      </trkpt>
      <trkpt lat="59.172746" lon="18.130158">
        <ele>50</ele>
        <time>2019-11-04T12:06:43Z</time>
      </trkpt>
      <trkpt lat="59.172721" lon="18.130143">
        <ele>50</ele>
        <time>2019-11-04T12:06:45Z</time>
      </trkpt>
      <trkpt lat="59.172699" lon="18.130117">
        <ele>50</ele>
        <time>2019-11-04T12:06:48Z</time>
      </trkpt>
      <trkpt lat="59.172682" lon="18.130096">
        <ele>50</ele>
        <time>2019-11-04T12:06:50Z</time>
      </trkpt>
      <trkpt lat="59.172668" lon="18.130069">
        <ele>50</ele>
        <time>2019-11-04T12:06:52Z</time>
      </trkpt>
      <trkpt lat="59.172657" lon="18.130036">
        <ele>49</ele>
        <time>2019-11-04T12:06:57Z</time>
      </trkpt>
      <trkpt lat="59.172648" lon="18.130003">
        <ele>49</ele>
        <time>2019-11-04T12:07:35Z</time>
      </trkpt>
      <trkpt lat="59.172637" lon="18.129966">
        <ele>50</ele>
        <time>2019-11-04T12:07:42Z</time>
      </trkpt>
      <trkpt lat="59.172623" lon="18.129941">
        <ele>50</ele>
        <time>2019-11-04T12:07:44Z</time>
      </trkpt>
      <trkpt lat="59.172602" lon="18.129916">
        <ele>49</ele>
        <time>2019-11-04T12:07:47Z</time>
      </trkpt>
      <trkpt lat="59.172584" lon="18.129892">
        <ele>49</ele>
        <time>2019-11-04T12:07:50Z</time>
      </trkpt>
      <trkpt lat="59.172571" lon="18.129864">
        <ele>50</ele>
        <time>2019-11-04T12:07:55Z</time>
      </trkpt>
      <trkpt lat="59.17255" lon="18.129836">
        <ele>50</ele>
        <time>2019-11-04T12:07:58Z</time>
      </trkpt>
      <trkpt lat="59.172538" lon="18.129787">
        <ele>50</ele>
        <time>2019-11-04T12:08:01Z</time>
      </trkpt>
      <trkpt lat="59.172519" lon="18.129766">
        <ele>50</ele>
        <time>2019-11-04T12:08:03Z</time>
      </trkpt>
      <trkpt lat="59.1725" lon="18.129734">
        <ele>50</ele>
        <time>2019-11-04T12:08:05Z</time>
      </trkpt>
      <trkpt lat="59.172497" lon="18.129695">
        <ele>50</ele>
        <time>2019-11-04T12:08:07Z</time>
      </trkpt>
      <trkpt lat="59.172491" lon="18.129653">
        <ele>50</ele>
        <time>2019-11-04T12:08:09Z</time>
      </trkpt>
      <trkpt lat="59.172481" lon="18.129605">
        <ele>50</ele>
        <time>2019-11-04T12:08:11Z</time>
      </trkpt>
      <trkpt lat="59.172466" lon="18.129574">
        <ele>50</ele>
        <time>2019-11-04T12:08:13Z</time>
      </trkpt>
      <trkpt lat="59.172451" lon="18.12953">
        <ele>50</ele>
        <time>2019-11-04T12:08:15Z</time>
      </trkpt>
      <trkpt lat="59.172443" lon="18.129484">
        <ele>50</ele>
        <time>2019-11-04T12:08:17Z</time>
      </trkpt>
      <trkpt lat="59.172429" lon="18.129445">
        <ele>50</ele>
        <time>2019-11-04T12:08:19Z</time>
      </trkpt>
      <trkpt lat="59.172413" lon="18.129402">
        <ele>49</ele>
        <time>2019-11-04T12:08:21Z</time>
      </trkpt>
      <trkpt lat="59.172401" lon="18.129355">
        <ele>49</ele>
        <time>2019-11-04T12:08:23Z</time>
      </trkpt>
      <trkpt lat="59.172385" lon="18.129331">
        <ele>50</ele>
        <time>2019-11-04T12:08:25Z</time>
      </trkpt>
      <trkpt lat="59.172373" lon="18.1293">
        <ele>50</ele>
        <time>2019-11-04T12:08:27Z</time>
      </trkpt>
      <trkpt lat="59.172353" lon="18.129284">
        <ele>49</ele>
        <time>2019-11-04T12:08:31Z</time>
      </trkpt>
      <trkpt lat="59.172337" lon="18.129251">
        <ele>49</ele>
        <time>2019-11-04T12:08:33Z</time>
      </trkpt>
      <trkpt lat="59.172325" lon="18.129204">
        <ele>50</ele>
        <time>2019-11-04T12:08:35Z</time>
      </trkpt>
      <trkpt lat="59.172313" lon="18.129153">
        <ele>51</ele>
        <time>2019-11-04T12:08:37Z</time>
      </trkpt>
      <trkpt lat="59.172304" lon="18.129122">
        <ele>51</ele>
        <time>2019-11-04T12:08:39Z</time>
      </trkpt>
      <trkpt lat="59.172289" lon="18.129082">
        <ele>51</ele>
        <time>2019-11-04T12:08:42Z</time>
      </trkpt>
      <trkpt lat="59.172281" lon="18.129044">
        <ele>51</ele>
        <time>2019-11-04T12:08:45Z</time>
      </trkpt>
      <trkpt lat="59.172282" lon="18.129005">
        <ele>51</ele>
        <time>2019-11-04T12:08:47Z</time>
      </trkpt>
      <trkpt lat="59.172273" lon="18.128971">
        <ele>51</ele>
        <time>2019-11-04T12:08:49Z</time>
      </trkpt>
      <trkpt lat="59.172258" lon="18.128942">
        <ele>51</ele>
        <time>2019-11-04T12:08:51Z</time>
      </trkpt>
      <trkpt lat="59.172246" lon="18.128902">
        <ele>51</ele>
        <time>2019-11-04T12:08:53Z</time>
      </trkpt>
      <trkpt lat="59.172236" lon="18.128866">
        <ele>51</ele>
        <time>2019-11-04T12:08:55Z</time>
      </trkpt>
      <trkpt lat="59.172217" lon="18.128823">
        <ele>51</ele>
        <time>2019-11-04T12:08:57Z</time>
      </trkpt>
      <trkpt lat="59.172198" lon="18.128788">
        <ele>51</ele>
        <time>2019-11-04T12:08:59Z</time>
      </trkpt>
      <trkpt lat="59.172179" lon="18.128744">
        <ele>51</ele>
        <time>2019-11-04T12:09:01Z</time>
      </trkpt>
      <trkpt lat="59.17217" lon="18.128697">
        <ele>50</ele>
        <time>2019-11-04T12:09:03Z</time>
      </trkpt>
      <trkpt lat="59.172166" lon="18.128647">
        <ele>51</ele>
        <time>2019-11-04T12:09:05Z</time>
      </trkpt>
      <trkpt lat="59.172141" lon="18.128617">
        <ele>51</ele>
        <time>2019-11-04T12:09:07Z</time>
      </trkpt>
      <trkpt lat="59.172112" lon="18.128594">
        <ele>51</ele>
        <time>2019-11-04T12:09:09Z</time>
      </trkpt>
      <trkpt lat="59.172095" lon="18.12858">
        <ele>51</ele>
        <time>2019-11-04T12:09:10Z</time>
      </trkpt>
      <trkpt lat="59.172071" lon="18.128537">
        <ele>51</ele>
        <time>2019-11-04T12:09:12Z</time>
      </trkpt>
      <trkpt lat="59.172053" lon="18.128493">
        <ele>51</ele>
        <time>2019-11-04T12:09:14Z</time>
      </trkpt>
      <trkpt lat="59.172037" lon="18.128461">
        <ele>51</ele>
        <time>2019-11-04T12:09:16Z</time>
      </trkpt>
      <trkpt lat="59.172019" lon="18.128434">
        <ele>52</ele>
        <time>2019-11-04T12:09:18Z</time>
      </trkpt>
      <trkpt lat="59.171996" lon="18.12841">
        <ele>52</ele>
        <time>2019-11-04T12:09:20Z</time>
      </trkpt>
      <trkpt lat="59.171972" lon="18.128387">
        <ele>52</ele>
        <time>2019-11-04T12:09:22Z</time>
      </trkpt>
      <trkpt lat="59.171947" lon="18.128377">
        <ele>52</ele>
        <time>2019-11-04T12:09:24Z</time>
      </trkpt>
      <trkpt lat="59.171925" lon="18.128364">
        <ele>52</ele>
        <time>2019-11-04T12:09:26Z</time>
      </trkpt>
      <trkpt lat="59.171899" lon="18.128363">
        <ele>53</ele>
        <time>2019-11-04T12:09:28Z</time>
      </trkpt>
      <trkpt lat="59.171876" lon="18.12835">
        <ele>53</ele>
        <time>2019-11-04T12:09:30Z</time>
      </trkpt>
      <trkpt lat="59.171854" lon="18.128327">
        <ele>53</ele>
        <time>2019-11-04T12:09:32Z</time>
      </trkpt>
      <trkpt lat="59.171824" lon="18.128304">
        <ele>53</ele>
        <time>2019-11-04T12:09:34Z</time>
      </trkpt>
      <trkpt lat="59.171796" lon="18.128285">
        <ele>53</ele>
        <time>2019-11-04T12:09:36Z</time>
      </trkpt>
      <trkpt lat="59.171772" lon="18.128265">
        <ele>53</ele>
        <time>2019-11-04T12:09:38Z</time>
      </trkpt>
      <trkpt lat="59.171749" lon="18.12824">
        <ele>53</ele>
        <time>2019-11-04T12:09:40Z</time>
      </trkpt>
      <trkpt lat="59.171732" lon="18.128235">
        <ele>53</ele>
        <time>2019-11-04T12:09:42Z</time>
      </trkpt>
      <trkpt lat="59.171716" lon="18.128193">
        <ele>53</ele>
        <time>2019-11-04T12:09:44Z</time>
      </trkpt>
      <trkpt lat="59.171693" lon="18.128156">
        <ele>53</ele>
        <time>2019-11-04T12:09:46Z</time>
      </trkpt>
      <trkpt lat="59.171669" lon="18.128123">
        <ele>53</ele>
        <time>2019-11-04T12:09:48Z</time>
      </trkpt>
      <trkpt lat="59.171649" lon="18.128103">
        <ele>53</ele>
        <time>2019-11-04T12:09:50Z</time>
      </trkpt>
      <trkpt lat="59.171626" lon="18.128106">
        <ele>53</ele>
        <time>2019-11-04T12:09:52Z</time>
      </trkpt>
      <trkpt lat="59.171607" lon="18.12811">
        <ele>53</ele>
        <time>2019-11-04T12:09:53Z</time>
      </trkpt>
      <trkpt lat="59.171579" lon="18.128112">
        <ele>53</ele>
        <time>2019-11-04T12:09:55Z</time>
      </trkpt>
      <trkpt lat="59.171556" lon="18.128101">
        <ele>53</ele>
        <time>2019-11-04T12:09:57Z</time>
      </trkpt>
      <trkpt lat="59.171535" lon="18.128098">
        <ele>53</ele>
        <time>2019-11-04T12:09:59Z</time>
      </trkpt>
      <trkpt lat="59.171508" lon="18.128103">
        <ele>53</ele>
        <time>2019-11-04T12:10:01Z</time>
      </trkpt>
      <trkpt lat="59.17148" lon="18.128093">
        <ele>53</ele>
        <time>2019-11-04T12:10:03Z</time>
      </trkpt>
      <trkpt lat="59.17146" lon="18.128049">
        <ele>52</ele>
        <time>2019-11-04T12:10:05Z</time>
      </trkpt>
      <trkpt lat="59.171448" lon="18.128021">
        <ele>52</ele>
        <time>2019-11-04T12:10:06Z</time>
      </trkpt>
      <trkpt lat="59.171428" lon="18.127979">
        <ele>52</ele>
        <time>2019-11-04T12:10:08Z</time>
      </trkpt>
      <trkpt lat="59.171412" lon="18.127932">
        <ele>52</ele>
        <time>2019-11-04T12:10:10Z</time>
      </trkpt>
      <trkpt lat="59.171386" lon="18.127908">
        <ele>52</ele>
        <time>2019-11-04T12:10:12Z</time>
      </trkpt>
      <trkpt lat="59.171359" lon="18.127904">
        <ele>52</ele>
        <time>2019-11-04T12:10:14Z</time>
      </trkpt>
      <trkpt lat="59.171343" lon="18.127881">
        <ele>52</ele>
        <time>2019-11-04T12:10:16Z</time>
      </trkpt>
      <trkpt lat="59.171324" lon="18.127895">
        <ele>52</ele>
        <time>2019-11-04T12:10:18Z</time>
      </trkpt>
      <trkpt lat="59.171306" lon="18.12792">
        <ele>52</ele>
        <time>2019-11-04T12:10:20Z</time>
      </trkpt>
      <trkpt lat="59.171287" lon="18.127926">
        <ele>52</ele>
        <time>2019-11-04T12:10:23Z</time>
      </trkpt>
      <trkpt lat="59.171262" lon="18.127909">
        <ele>52</ele>
        <time>2019-11-04T12:10:25Z</time>
      </trkpt>
      <trkpt lat="59.171243" lon="18.127876">
        <ele>52</ele>
        <time>2019-11-04T12:10:27Z</time>
      </trkpt>
      <trkpt lat="59.171221" lon="18.127833">
        <ele>52</ele>
        <time>2019-11-04T12:10:29Z</time>
      </trkpt>
      <trkpt lat="59.171207" lon="18.127797">
        <ele>52</ele>
        <time>2019-11-04T12:10:31Z</time>
      </trkpt>
      <trkpt lat="59.17119" lon="18.127749">
        <ele>52</ele>
        <time>2019-11-04T12:10:33Z</time>
      </trkpt>
      <trkpt lat="59.171173" lon="18.127708">
        <ele>52</ele>
        <time>2019-11-04T12:10:35Z</time>
      </trkpt>
      <trkpt lat="59.17115" lon="18.127672">
        <ele>51</ele>
        <time>2019-11-04T12:10:37Z</time>
      </trkpt>
      <trkpt lat="59.171125" lon="18.127645">
        <ele>52</ele>
        <time>2019-11-04T12:10:39Z</time>
      </trkpt>
      <trkpt lat="59.171106" lon="18.127618">
        <ele>52</ele>
        <time>2019-11-04T12:10:41Z</time>
      </trkpt>
      <trkpt lat="59.171088" lon="18.127572">
        <ele>52</ele>
        <time>2019-11-04T12:10:43Z</time>
      </trkpt>
      <trkpt lat="59.171073" lon="18.127529">
        <ele>52</ele>
        <time>2019-11-04T12:10:45Z</time>
      </trkpt>
      <trkpt lat="59.171052" lon="18.127496">
        <ele>52</ele>
        <time>2019-11-04T12:10:47Z</time>
      </trkpt>
      <trkpt lat="59.171028" lon="18.127454">
        <ele>51</ele>
        <time>2019-11-04T12:10:49Z</time>
      </trkpt>
      <trkpt lat="59.171016" lon="18.127402">
        <ele>51</ele>
        <time>2019-11-04T12:10:51Z</time>
      </trkpt>
      <trkpt lat="59.171008" lon="18.127358">
        <ele>52</ele>
        <time>2019-11-04T12:10:53Z</time>
      </trkpt>
      <trkpt lat="59.17101" lon="18.127313">
        <ele>52</ele>
        <time>2019-11-04T12:10:55Z</time>
      </trkpt>
      <trkpt lat="59.171006" lon="18.12727">
        <ele>52</ele>
        <time>2019-11-04T12:10:57Z</time>
      </trkpt>
      <trkpt lat="59.171003" lon="18.127224">
        <ele>52</ele>
        <time>2019-11-04T12:10:59Z</time>
      </trkpt>
      <trkpt lat="59.171013" lon="18.127179">
        <ele>52</ele>
        <time>2019-11-04T12:11:01Z</time>
      </trkpt>
      <trkpt lat="59.17101" lon="18.127129">
        <ele>52</ele>
        <time>2019-11-04T12:11:03Z</time>
      </trkpt>
      <trkpt lat="59.171008" lon="18.127079">
        <ele>52</ele>
        <time>2019-11-04T12:11:05Z</time>
      </trkpt>
      <trkpt lat="59.171008" lon="18.127023">
        <ele>52</ele>
        <time>2019-11-04T12:11:07Z</time>
      </trkpt>
      <trkpt lat="59.171007" lon="18.12697">
        <ele>52</ele>
        <time>2019-11-04T12:11:09Z</time>
      </trkpt>
      <trkpt lat="59.171009" lon="18.12692">
        <ele>53</ele>
        <time>2019-11-04T12:11:11Z</time>
      </trkpt>
      <trkpt lat="59.171008" lon="18.126866">
        <ele>53</ele>
        <time>2019-11-04T12:11:13Z</time>
      </trkpt>
      <trkpt lat="59.171009" lon="18.126811">
        <ele>53</ele>
        <time>2019-11-04T12:11:15Z</time>
      </trkpt>
      <trkpt lat="59.171013" lon="18.12676">
        <ele>53</ele>
        <time>2019-11-04T12:11:17Z</time>
      </trkpt>
      <trkpt lat="59.171029" lon="18.126711">
        <ele>53</ele>
        <time>2019-11-04T12:11:19Z</time>
      </trkpt>
      <trkpt lat="59.17103" lon="18.126664">
        <ele>52</ele>
        <time>2019-11-04T12:11:21Z</time>
      </trkpt>
      <trkpt lat="59.171016" lon="18.126618">
        <ele>53</ele>
        <time>2019-11-04T12:11:23Z</time>
      </trkpt>
      <trkpt lat="59.171006" lon="18.126562">
        <ele>53</ele>
        <time>2019-11-04T12:11:25Z</time>
      </trkpt>
      <trkpt lat="59.171008" lon="18.126503">
        <ele>53</ele>
        <time>2019-11-04T12:11:27Z</time>
      </trkpt>
      <trkpt lat="59.171007" lon="18.12646">
        <ele>53</ele>
        <time>2019-11-04T12:11:29Z</time>
      </trkpt>
      <trkpt lat="59.170999" lon="18.126408">
        <ele>53</ele>
        <time>2019-11-04T12:11:31Z</time>
      </trkpt>
      <trkpt lat="59.170988" lon="18.126377">
        <ele>53</ele>
        <time>2019-11-04T12:11:33Z</time>
      </trkpt>
      <trkpt lat="59.170967" lon="18.126352">
        <ele>54</ele>
        <time>2019-11-04T12:11:35Z</time>
      </trkpt>
      <trkpt lat="59.170945" lon="18.126345">
        <ele>53</ele>
        <time>2019-11-04T12:11:37Z</time>
      </trkpt>
      <trkpt lat="59.170926" lon="18.126348">
        <ele>54</ele>
        <time>2019-11-04T12:11:39Z</time>
      </trkpt>
      <trkpt lat="59.170938" lon="18.126302">
        <ele>53</ele>
        <time>2019-11-04T12:11:52Z</time>
      </trkpt>
      <trkpt lat="59.170941" lon="18.126267">
        <ele>54</ele>
        <time>2019-11-04T12:11:54Z</time>
      </trkpt>
      <trkpt lat="59.170948" lon="18.126313">
        <ele>53</ele>
        <time>2019-11-04T12:12:02Z</time>
      </trkpt>
      <trkpt lat="59.170944" lon="18.126353">
        <ele>53</ele>
        <time>2019-11-04T12:12:04Z</time>
      </trkpt>
      <trkpt lat="59.170926" lon="18.126388">
        <ele>53</ele>
        <time>2019-11-04T12:12:06Z</time>
      </trkpt>
      <trkpt lat="59.170904" lon="18.126406">
        <ele>53</ele>
        <time>2019-11-04T12:12:08Z</time>
      </trkpt>
      <trkpt lat="59.17089" lon="18.126384">
        <ele>53</ele>
        <time>2019-11-04T12:12:10Z</time>
      </trkpt>
      <trkpt lat="59.170868" lon="18.126384">
        <ele>53</ele>
        <time>2019-11-04T12:12:15Z</time>
      </trkpt>
      <trkpt lat="59.170895" lon="18.126386">
        <ele>53</ele>
        <time>2019-11-04T12:12:21Z</time>
      </trkpt>
      <trkpt lat="59.170914" lon="18.126356">
        <ele>53</ele>
        <time>2019-11-04T12:12:23Z</time>
      </trkpt>
      <trkpt lat="59.170925" lon="18.126321">
        <ele>53</ele>
        <time>2019-11-04T12:12:25Z</time>
      </trkpt>
      <trkpt lat="59.170928" lon="18.126358">
        <ele>53</ele>
        <time>2019-11-04T12:12:32Z</time>
      </trkpt>
      <trkpt lat="59.170907" lon="18.126389">
        <ele>53</ele>
        <time>2019-11-04T12:12:34Z</time>
      </trkpt>
      <trkpt lat="59.170885" lon="18.126423">
        <ele>53</ele>
        <time>2019-11-04T12:12:36Z</time>
      </trkpt>
      <trkpt lat="59.170864" lon="18.126456">
        <ele>53</ele>
        <time>2019-11-04T12:12:38Z</time>
      </trkpt>
      <trkpt lat="59.170844" lon="18.126495">
        <ele>53</ele>
        <time>2019-11-04T12:12:40Z</time>
      </trkpt>
      <trkpt lat="59.17082" lon="18.126518">
        <ele>53</ele>
        <time>2019-11-04T12:12:42Z</time>
      </trkpt>
      <trkpt lat="59.170793" lon="18.126541">
        <ele>53</ele>
        <time>2019-11-04T12:12:44Z</time>
      </trkpt>
      <trkpt lat="59.170767" lon="18.126571">
        <ele>53</ele>
        <time>2019-11-04T12:12:46Z</time>
      </trkpt>
      <trkpt lat="59.170742" lon="18.126601">
        <ele>53</ele>
        <time>2019-11-04T12:12:48Z</time>
      </trkpt>
      <trkpt lat="59.170719" lon="18.126632">
        <ele>53</ele>
        <time>2019-11-04T12:12:50Z</time>
      </trkpt>
      <trkpt lat="59.170692" lon="18.126634">
        <ele>53</ele>
        <time>2019-11-04T12:12:52Z</time>
      </trkpt>
      <trkpt lat="59.170662" lon="18.126637">
        <ele>53</ele>
        <time>2019-11-04T12:12:54Z</time>
      </trkpt>
      <trkpt lat="59.170631" lon="18.126622">
        <ele>53</ele>
        <time>2019-11-04T12:12:56Z</time>
      </trkpt>
      <trkpt lat="59.170608" lon="18.126582">
        <ele>53</ele>
        <time>2019-11-04T12:12:58Z</time>
      </trkpt>
      <trkpt lat="59.170586" lon="18.126555">
        <ele>53</ele>
        <time>2019-11-04T12:13:00Z</time>
      </trkpt>
      <trkpt lat="59.170569" lon="18.126526">
        <ele>53</ele>
        <time>2019-11-04T12:13:02Z</time>
      </trkpt>
      <trkpt lat="59.170548" lon="18.126501">
        <ele>53</ele>
        <time>2019-11-04T12:13:04Z</time>
      </trkpt>
      <trkpt lat="59.170528" lon="18.12648">
        <ele>53</ele>
        <time>2019-11-04T12:13:06Z</time>
      </trkpt>
      <trkpt lat="59.170503" lon="18.126451">
        <ele>53</ele>
        <time>2019-11-04T12:13:08Z</time>
      </trkpt>
      <trkpt lat="59.17048" lon="18.126419">
        <ele>53</ele>
        <time>2019-11-04T12:13:10Z</time>
      </trkpt>
      <trkpt lat="59.170465" lon="18.126383">
        <ele>53</ele>
        <time>2019-11-04T12:13:12Z</time>
      </trkpt>
      <trkpt lat="59.170445" lon="18.126335">
        <ele>52</ele>
        <time>2019-11-04T12:13:14Z</time>
      </trkpt>
      <trkpt lat="59.170425" lon="18.126288">
        <ele>52</ele>
        <time>2019-11-04T12:13:16Z</time>
      </trkpt>
      <trkpt lat="59.170403" lon="18.126237">
        <ele>51</ele>
        <time>2019-11-04T12:13:18Z</time>
      </trkpt>
      <trkpt lat="59.170377" lon="18.126198">
        <ele>51</ele>
        <time>2019-11-04T12:13:20Z</time>
      </trkpt>
      <trkpt lat="59.170353" lon="18.126167">
        <ele>52</ele>
        <time>2019-11-04T12:13:22Z</time>
      </trkpt>
      <trkpt lat="59.17033" lon="18.126138">
        <ele>52</ele>
        <time>2019-11-04T12:13:24Z</time>
      </trkpt>
      <trkpt lat="59.170308" lon="18.126103">
        <ele>52</ele>
        <time>2019-11-04T12:13:26Z</time>
      </trkpt>
      <trkpt lat="59.170288" lon="18.126061">
        <ele>52</ele>
        <time>2019-11-04T12:13:28Z</time>
      </trkpt>
      <trkpt lat="59.17027" lon="18.126008">
        <ele>51</ele>
        <time>2019-11-04T12:13:30Z</time>
      </trkpt>
      <trkpt lat="59.170253" lon="18.125967">
        <ele>51</ele>
        <time>2019-11-04T12:13:32Z</time>
      </trkpt>
      <trkpt lat="59.170228" lon="18.125958">
        <ele>51</ele>
        <time>2019-11-04T12:13:35Z</time>
      </trkpt>
      <trkpt lat="59.170211" lon="18.125966">
        <ele>51</ele>
        <time>2019-11-04T12:13:37Z</time>
      </trkpt>
      <trkpt lat="59.170186" lon="18.12599">
        <ele>51</ele>
        <time>2019-11-04T12:13:39Z</time>
      </trkpt>
      <trkpt lat="59.170156" lon="18.125995">
        <ele>51</ele>
        <time>2019-11-04T12:13:41Z</time>
      </trkpt>
      <trkpt lat="59.170126" lon="18.125985">
        <ele>51</ele>
        <time>2019-11-04T12:13:43Z</time>
      </trkpt>
      <trkpt lat="59.170096" lon="18.125986">
        <ele>51</ele>
        <time>2019-11-04T12:13:45Z</time>
      </trkpt>
      <trkpt lat="59.170068" lon="18.125987">
        <ele>51</ele>
        <time>2019-11-04T12:13:47Z</time>
      </trkpt>
      <trkpt lat="59.170043" lon="18.12596">
        <ele>51</ele>
        <time>2019-11-04T12:13:49Z</time>
      </trkpt>
      <trkpt lat="59.170025" lon="18.125937">
        <ele>51</ele>
        <time>2019-11-04T12:13:51Z</time>
      </trkpt>
      <trkpt lat="59.170002" lon="18.125926">
        <ele>51</ele>
        <time>2019-11-04T12:13:53Z</time>
      </trkpt>
      <trkpt lat="59.169973" lon="18.125918">
        <ele>51</ele>
        <time>2019-11-04T12:13:55Z</time>
      </trkpt>
      <trkpt lat="59.169955" lon="18.125926">
        <ele>51</ele>
        <time>2019-11-04T12:13:56Z</time>
      </trkpt>
      <trkpt lat="59.169925" lon="18.125916">
        <ele>51</ele>
        <time>2019-11-04T12:13:58Z</time>
      </trkpt>
      <trkpt lat="59.169894" lon="18.125918">
        <ele>51</ele>
        <time>2019-11-04T12:14:00Z</time>
      </trkpt>
      <trkpt lat="59.169872" lon="18.125921">
        <ele>51</ele>
        <time>2019-11-04T12:14:02Z</time>
      </trkpt>
      <trkpt lat="59.169848" lon="18.125918">
        <ele>51</ele>
        <time>2019-11-04T12:14:04Z</time>
      </trkpt>
      <trkpt lat="59.169825" lon="18.125901">
        <ele>51</ele>
        <time>2019-11-04T12:14:06Z</time>
      </trkpt>
      <trkpt lat="59.169804" lon="18.125878">
        <ele>51</ele>
        <time>2019-11-04T12:14:08Z</time>
      </trkpt>
      <trkpt lat="59.169783" lon="18.125826">
        <ele>50</ele>
        <time>2019-11-04T12:14:10Z</time>
      </trkpt>
      <trkpt lat="59.169766" lon="18.125784">
        <ele>50</ele>
        <time>2019-11-04T12:14:12Z</time>
      </trkpt>
      <trkpt lat="59.169746" lon="18.125751">
        <ele>50</ele>
        <time>2019-11-04T12:14:14Z</time>
      </trkpt>
      <trkpt lat="59.169726" lon="18.125711">
        <ele>50</ele>
        <time>2019-11-04T12:14:16Z</time>
      </trkpt>
      <trkpt lat="59.169712" lon="18.125665">
        <ele>50</ele>
        <time>2019-11-04T12:14:18Z</time>
      </trkpt>
      <trkpt lat="59.169692" lon="18.125642">
        <ele>50</ele>
        <time>2019-11-04T12:14:20Z</time>
      </trkpt>
      <trkpt lat="59.16967" lon="18.125596">
        <ele>50</ele>
        <time>2019-11-04T12:14:22Z</time>
      </trkpt>
      <trkpt lat="59.169656" lon="18.12555">
        <ele>50</ele>
        <time>2019-11-04T12:14:24Z</time>
      </trkpt>
      <trkpt lat="59.169643" lon="18.12551">
        <ele>50</ele>
        <time>2019-11-04T12:14:26Z</time>
      </trkpt>
      <trkpt lat="59.169628" lon="18.125477">
        <ele>50</ele>
        <time>2019-11-04T12:14:28Z</time>
      </trkpt>
      <trkpt lat="59.169606" lon="18.125465">
        <ele>50</ele>
        <time>2019-11-04T12:14:31Z</time>
      </trkpt>
      <trkpt lat="59.169586" lon="18.125471">
        <ele>50</ele>
        <time>2019-11-04T12:14:35Z</time>
      </trkpt>
      <trkpt lat="59.16957" lon="18.125497">
        <ele>50</ele>
        <time>2019-11-04T12:14:38Z</time>
      </trkpt>
      <trkpt lat="59.169552" lon="18.125513">
        <ele>50</ele>
        <time>2019-11-04T12:14:40Z</time>
      </trkpt>
      <trkpt lat="59.169533" lon="18.125534">
        <ele>50</ele>
        <time>2019-11-04T12:14:42Z</time>
      </trkpt>
      <trkpt lat="59.169521" lon="18.125564">
        <ele>50</ele>
        <time>2019-11-04T12:14:44Z</time>
      </trkpt>
      <trkpt lat="59.169508" lon="18.125599">
        <ele>50</ele>
        <time>2019-11-04T12:14:46Z</time>
      </trkpt>
      <trkpt lat="59.169486" lon="18.125625">
        <ele>50</ele>
        <time>2019-11-04T12:14:48Z</time>
      </trkpt>
      <trkpt lat="59.169456" lon="18.125639">
        <ele>50</ele>
        <time>2019-11-04T12:14:50Z</time>
      </trkpt>
      <trkpt lat="59.169428" lon="18.125653">
        <ele>50</ele>
        <time>2019-11-04T12:14:52Z</time>
      </trkpt>
      <trkpt lat="59.169403" lon="18.125673">
        <ele>50</ele>
        <time>2019-11-04T12:14:54Z</time>
      </trkpt>
      <trkpt lat="59.16938" lon="18.125687">
        <ele>50</ele>
        <time>2019-11-04T12:14:56Z</time>
      </trkpt>
      <trkpt lat="59.169354" lon="18.125702">
        <ele>50</ele>
        <time>2019-11-04T12:14:58Z</time>
      </trkpt>
      <trkpt lat="59.169338" lon="18.125734">
        <ele>51</ele>
        <time>2019-11-04T12:15:00Z</time>
      </trkpt>
      <trkpt lat="59.169317" lon="18.125757">
        <ele>51</ele>
        <time>2019-11-04T12:15:02Z</time>
      </trkpt>
      <trkpt lat="59.169316" lon="18.125796">
        <ele>51</ele>
        <time>2019-11-04T12:15:05Z</time>
      </trkpt>
      <trkpt lat="59.169311" lon="18.125832">
        <ele>52</ele>
        <time>2019-11-04T12:15:07Z</time>
      </trkpt>
      <trkpt lat="59.169308" lon="18.125881">
        <ele>52</ele>
        <time>2019-11-04T12:15:10Z</time>
      </trkpt>
      <trkpt lat="59.169307" lon="18.125921">
        <ele>53</ele>
        <time>2019-11-04T12:15:12Z</time>
      </trkpt>
      <trkpt lat="59.169288" lon="18.125954">
        <ele>53</ele>
        <time>2019-11-04T12:15:14Z</time>
      </trkpt>
      <trkpt lat="59.16927" lon="18.125978">
        <ele>53</ele>
        <time>2019-11-04T12:15:16Z</time>
      </trkpt>
      <trkpt lat="59.169242" lon="18.126014">
        <ele>52</ele>
        <time>2019-11-04T12:15:18Z</time>
      </trkpt>
      <trkpt lat="59.169221" lon="18.126029">
        <ele>52</ele>
        <time>2019-11-04T12:15:20Z</time>
      </trkpt>
      <trkpt lat="59.169197" lon="18.126042">
        <ele>52</ele>
        <time>2019-11-04T12:15:22Z</time>
      </trkpt>
      <trkpt lat="59.169181" lon="18.126063">
        <ele>53</ele>
        <time>2019-11-04T12:15:24Z</time>
      </trkpt>
      <trkpt lat="59.169174" lon="18.126107">
        <ele>54</ele>
        <time>2019-11-04T12:15:27Z</time>
      </trkpt>
      <trkpt lat="59.169166" lon="18.126139">
        <ele>54</ele>
        <time>2019-11-04T12:15:32Z</time>
      </trkpt>
      <trkpt lat="59.169171" lon="18.126084">
        <ele>53</ele>
        <time>2019-11-04T12:15:34Z</time>
      </trkpt>
      <trkpt lat="59.169174" lon="18.126029">
        <ele>53</ele>
        <time>2019-11-04T12:15:36Z</time>
      </trkpt>
      <trkpt lat="59.169188" lon="18.12599">
        <ele>53</ele>
        <time>2019-11-04T12:15:38Z</time>
      </trkpt>
      <trkpt lat="59.169207" lon="18.125966">
        <ele>53</ele>
        <time>2019-11-04T12:15:40Z</time>
      </trkpt>
      <trkpt lat="59.169227" lon="18.125943">
        <ele>53</ele>
        <time>2019-11-04T12:15:42Z</time>
      </trkpt>
      <trkpt lat="59.169246" lon="18.125918">
        <ele>53</ele>
        <time>2019-11-04T12:15:44Z</time>
      </trkpt>
      <trkpt lat="59.169264" lon="18.125884">
        <ele>53</ele>
        <time>2019-11-04T12:15:46Z</time>
      </trkpt>
      <trkpt lat="59.169277" lon="18.125846">
        <ele>53</ele>
        <time>2019-11-04T12:15:48Z</time>
      </trkpt>
      <trkpt lat="59.16928" lon="18.125803">
        <ele>53</ele>
        <time>2019-11-04T12:15:50Z</time>
      </trkpt>
      <trkpt lat="59.169288" lon="18.125754">
        <ele>53</ele>
        <time>2019-11-04T12:15:52Z</time>
      </trkpt>
      <trkpt lat="59.169295" lon="18.125709">
        <ele>53</ele>
        <time>2019-11-04T12:15:54Z</time>
      </trkpt>
      <trkpt lat="59.169289" lon="18.125669">
        <ele>53</ele>
        <time>2019-11-04T12:15:56Z</time>
      </trkpt>
      <trkpt lat="59.169278" lon="18.12563">
        <ele>53</ele>
        <time>2019-11-04T12:15:58Z</time>
      </trkpt>
      <trkpt lat="59.169265" lon="18.125606">
        <ele>53</ele>
        <time>2019-11-04T12:16:00Z</time>
      </trkpt>
      <trkpt lat="59.169243" lon="18.12558">
        <ele>53</ele>
        <time>2019-11-04T12:16:02Z</time>
      </trkpt>
      <trkpt lat="59.169222" lon="18.125546">
        <ele>53</ele>
        <time>2019-11-04T12:16:04Z</time>
      </trkpt>
      <trkpt lat="59.169201" lon="18.125508">
        <ele>53</ele>
        <time>2019-11-04T12:16:06Z</time>
      </trkpt>
      <trkpt lat="59.169185" lon="18.125487">
        <ele>53</ele>
        <time>2019-11-04T12:16:08Z</time>
      </trkpt>
      <trkpt lat="59.169166" lon="18.125463">
        <ele>53</ele>
        <time>2019-11-04T12:16:10Z</time>
      </trkpt>
      <trkpt lat="59.169148" lon="18.125431">
        <ele>53</ele>
        <time>2019-11-04T12:16:12Z</time>
      </trkpt>
      <trkpt lat="59.169128" lon="18.125414">
        <ele>53</ele>
        <time>2019-11-04T12:16:14Z</time>
      </trkpt>
      <trkpt lat="59.169104" lon="18.125408">
        <ele>53</ele>
        <time>2019-11-04T12:16:20Z</time>
      </trkpt>
      <trkpt lat="59.169089" lon="18.125367">
        <ele>53</ele>
        <time>2019-11-04T12:16:23Z</time>
      </trkpt>
      <trkpt lat="59.169084" lon="18.125324">
        <ele>53</ele>
        <time>2019-11-04T12:16:25Z</time>
      </trkpt>
      <trkpt lat="59.169079" lon="18.125287">
        <ele>53</ele>
        <time>2019-11-04T12:16:27Z</time>
      </trkpt>
      <trkpt lat="59.169066" lon="18.125259">
        <ele>53</ele>
        <time>2019-11-04T12:16:29Z</time>
      </trkpt>
      <trkpt lat="59.169063" lon="18.125214">
        <ele>53</ele>
        <time>2019-11-04T12:16:34Z</time>
      </trkpt>
      <trkpt lat="59.169078" lon="18.125166">
        <ele>53</ele>
        <time>2019-11-04T12:16:36Z</time>
      </trkpt>
      <trkpt lat="59.169093" lon="18.125126">
        <ele>54</ele>
        <time>2019-11-04T12:16:38Z</time>
      </trkpt>
      <trkpt lat="59.169104" lon="18.125077">
        <ele>54</ele>
        <time>2019-11-04T12:16:41Z</time>
      </trkpt>
      <trkpt lat="59.169108" lon="18.125029">
        <ele>54</ele>
        <time>2019-11-04T12:16:44Z</time>
      </trkpt>
      <trkpt lat="59.169112" lon="18.124989">
        <ele>54</ele>
        <time>2019-11-04T12:16:46Z</time>
      </trkpt>
      <trkpt lat="59.169109" lon="18.124943">
        <ele>54</ele>
        <time>2019-11-04T12:16:49Z</time>
      </trkpt>
      <trkpt lat="59.169096" lon="18.124911">
        <ele>54</ele>
        <time>2019-11-04T12:16:51Z</time>
      </trkpt>
      <trkpt lat="59.169085" lon="18.124875">
        <ele>53</ele>
        <time>2019-11-04T12:16:53Z</time>
      </trkpt>
      <trkpt lat="59.169075" lon="18.124839">
        <ele>53</ele>
        <time>2019-11-04T12:16:55Z</time>
      </trkpt>
      <trkpt lat="59.169079" lon="18.124798">
        <ele>54</ele>
        <time>2019-11-04T12:17:07Z</time>
      </trkpt>
      <trkpt lat="59.169083" lon="18.124756">
        <ele>54</ele>
        <time>2019-11-04T12:17:10Z</time>
      </trkpt>
      <trkpt lat="59.169086" lon="18.124716">
        <ele>54</ele>
        <time>2019-11-04T12:17:12Z</time>
      </trkpt>
      <trkpt lat="59.169093" lon="18.124673">
        <ele>54</ele>
        <time>2019-11-04T12:17:14Z</time>
      </trkpt>
      <trkpt lat="59.169102" lon="18.124627">
        <ele>54</ele>
        <time>2019-11-04T12:17:16Z</time>
      </trkpt>
      <trkpt lat="59.169104" lon="18.124586">
        <ele>54</ele>
        <time>2019-11-04T12:17:18Z</time>
      </trkpt>
      <trkpt lat="59.169095" lon="18.124542">
        <ele>54</ele>
        <time>2019-11-04T12:17:20Z</time>
      </trkpt>
      <trkpt lat="59.169097" lon="18.12449">
        <ele>54</ele>
        <time>2019-11-04T12:17:22Z</time>
      </trkpt>
      <trkpt lat="59.169106" lon="18.124455">
        <ele>55</ele>
        <time>2019-11-04T12:17:24Z</time>
      </trkpt>
      <trkpt lat="59.169104" lon="18.124411">
        <ele>55</ele>
        <time>2019-11-04T12:17:26Z</time>
      </trkpt>
      <trkpt lat="59.169094" lon="18.124371">
        <ele>55</ele>
        <time>2019-11-04T12:17:28Z</time>
      </trkpt>
      <trkpt lat="59.169085" lon="18.124331">
        <ele>55</ele>
        <time>2019-11-04T12:17:30Z</time>
      </trkpt>
      <trkpt lat="59.169079" lon="18.124294">
        <ele>54</ele>
        <time>2019-11-04T12:17:32Z</time>
      </trkpt>
      <trkpt lat="59.169072" lon="18.124261">
        <ele>54</ele>
        <time>2019-11-04T12:17:34Z</time>
      </trkpt>
      <trkpt lat="59.169055" lon="18.124238">
        <ele>54</ele>
        <time>2019-11-04T12:17:36Z</time>
      </trkpt>
      <trkpt lat="59.169037" lon="18.12422">
        <ele>55</ele>
        <time>2019-11-04T12:17:38Z</time>
      </trkpt>
      <trkpt lat="59.16902" lon="18.124184">
        <ele>55</ele>
        <time>2019-11-04T12:17:40Z</time>
      </trkpt>
      <trkpt lat="59.169018" lon="18.124142">
        <ele>55</ele>
        <time>2019-11-04T12:17:42Z</time>
      </trkpt>
      <trkpt lat="59.169015" lon="18.124091">
        <ele>56</ele>
        <time>2019-11-04T12:17:45Z</time>
      </trkpt>
      <trkpt lat="59.169012" lon="18.124049">
        <ele>56</ele>
        <time>2019-11-04T12:17:48Z</time>
      </trkpt>
      <trkpt lat="59.169001" lon="18.124011">
        <ele>57</ele>
        <time>2019-11-04T12:17:50Z</time>
      </trkpt>
      <trkpt lat="59.168988" lon="18.123963">
        <ele>57</ele>
        <time>2019-11-04T12:17:52Z</time>
      </trkpt>
      <trkpt lat="59.168975" lon="18.12393">
        <ele>57</ele>
        <time>2019-11-04T12:17:54Z</time>
      </trkpt>
      <trkpt lat="59.168953" lon="18.123915">
        <ele>57</ele>
        <time>2019-11-04T12:17:56Z</time>
      </trkpt>
      <trkpt lat="59.168929" lon="18.123908">
        <ele>57</ele>
        <time>2019-11-04T12:17:58Z</time>
      </trkpt>
      <trkpt lat="59.1689" lon="18.123902">
        <ele>57</ele>
        <time>2019-11-04T12:18:01Z</time>
      </trkpt>
      <trkpt lat="59.168873" lon="18.123896">
        <ele>58</ele>
        <time>2019-11-04T12:18:03Z</time>
      </trkpt>
      <trkpt lat="59.168853" lon="18.123891">
        <ele>58</ele>
        <time>2019-11-04T12:18:05Z</time>
      </trkpt>
      <trkpt lat="59.168837" lon="18.12387">
        <ele>58</ele>
        <time>2019-11-04T12:18:07Z</time>
      </trkpt>
      <trkpt lat="59.168811" lon="18.123847">
        <ele>57</ele>
        <time>2019-11-04T12:18:09Z</time>
      </trkpt>
      <trkpt lat="59.16879" lon="18.123804">
        <ele>58</ele>
        <time>2019-11-04T12:18:11Z</time>
      </trkpt>
      <trkpt lat="59.16877" lon="18.123756">
        <ele>58</ele>
        <time>2019-11-04T12:18:13Z</time>
      </trkpt>
      <trkpt lat="59.168757" lon="18.123717">
        <ele>58</ele>
        <time>2019-11-04T12:18:15Z</time>
      </trkpt>
      <trkpt lat="59.168758" lon="18.123677">
        <ele>58</ele>
        <time>2019-11-04T12:18:18Z</time>
      </trkpt>
      <trkpt lat="59.168758" lon="18.123622">
        <ele>58</ele>
        <time>2019-11-04T12:18:21Z</time>
      </trkpt>
      <trkpt lat="59.168765" lon="18.123578">
        <ele>58</ele>
        <time>2019-11-04T12:18:23Z</time>
      </trkpt>
      <trkpt lat="59.168767" lon="18.123537">
        <ele>58</ele>
        <time>2019-11-04T12:18:25Z</time>
      </trkpt>
      <trkpt lat="59.168775" lon="18.12349">
        <ele>58</ele>
        <time>2019-11-04T12:18:27Z</time>
      </trkpt>
      <trkpt lat="59.168786" lon="18.123434">
        <ele>58</ele>
        <time>2019-11-04T12:18:29Z</time>
      </trkpt>
      <trkpt lat="59.168788" lon="18.123384">
        <ele>59</ele>
        <time>2019-11-04T12:18:31Z</time>
      </trkpt>
      <trkpt lat="59.168791" lon="18.123331">
        <ele>59</ele>
        <time>2019-11-04T12:18:33Z</time>
      </trkpt>
      <trkpt lat="59.168793" lon="18.123275">
        <ele>59</ele>
        <time>2019-11-04T12:18:35Z</time>
      </trkpt>
      <trkpt lat="59.168801" lon="18.123222">
        <ele>59</ele>
        <time>2019-11-04T12:18:37Z</time>
      </trkpt>
      <trkpt lat="59.168805" lon="18.123181">
        <ele>60</ele>
        <time>2019-11-04T12:18:39Z</time>
      </trkpt>
      <trkpt lat="59.168803" lon="18.123142">
        <ele>60</ele>
        <time>2019-11-04T12:18:41Z</time>
      </trkpt>
      <trkpt lat="59.168792" lon="18.123111">
        <ele>61</ele>
        <time>2019-11-04T12:18:44Z</time>
      </trkpt>
      <trkpt lat="59.168774" lon="18.123121">
        <ele>61</ele>
        <time>2019-11-04T12:18:46Z</time>
      </trkpt>
      <trkpt lat="59.168756" lon="18.123135">
        <ele>61</ele>
        <time>2019-11-04T12:18:48Z</time>
      </trkpt>
      <trkpt lat="59.168736" lon="18.123151">
        <ele>62</ele>
        <time>2019-11-04T12:18:50Z</time>
      </trkpt>
      <trkpt lat="59.168717" lon="18.123175">
        <ele>62</ele>
        <time>2019-11-04T12:18:52Z</time>
      </trkpt>
      <trkpt lat="59.168694" lon="18.123196">
        <ele>62</ele>
        <time>2019-11-04T12:18:54Z</time>
      </trkpt>
      <trkpt lat="59.168676" lon="18.123206">
        <ele>62</ele>
        <time>2019-11-04T12:18:56Z</time>
      </trkpt>
      <trkpt lat="59.168654" lon="18.123212">
        <ele>63</ele>
        <time>2019-11-04T12:18:58Z</time>
      </trkpt>
      <trkpt lat="59.168627" lon="18.123214">
        <ele>63</ele>
        <time>2019-11-04T12:19:00Z</time>
      </trkpt>
      <trkpt lat="59.168599" lon="18.123227">
        <ele>62</ele>
        <time>2019-11-04T12:19:02Z</time>
      </trkpt>
      <trkpt lat="59.168581" lon="18.123233">
        <ele>62</ele>
        <time>2019-11-04T12:19:03Z</time>
      </trkpt>
      <trkpt lat="59.168552" lon="18.123244">
        <ele>62</ele>
        <time>2019-11-04T12:19:05Z</time>
      </trkpt>
      <trkpt lat="59.16853" lon="18.123239">
        <ele>62</ele>
        <time>2019-11-04T12:19:07Z</time>
      </trkpt>
      <trkpt lat="59.168505" lon="18.123257">
        <ele>62</ele>
        <time>2019-11-04T12:19:09Z</time>
      </trkpt>
      <trkpt lat="59.168479" lon="18.123258">
        <ele>63</ele>
        <time>2019-11-04T12:19:11Z</time>
      </trkpt>
      <trkpt lat="59.168456" lon="18.123256">
        <ele>63</ele>
        <time>2019-11-04T12:19:13Z</time>
      </trkpt>
      <trkpt lat="59.168428" lon="18.123255">
        <ele>63</ele>
        <time>2019-11-04T12:19:15Z</time>
      </trkpt>
      <trkpt lat="59.1684" lon="18.12323">
        <ele>62</ele>
        <time>2019-11-04T12:19:17Z</time>
      </trkpt>
      <trkpt lat="59.168373" lon="18.123217">
        <ele>63</ele>
        <time>2019-11-04T12:19:19Z</time>
      </trkpt>
      <trkpt lat="59.168349" lon="18.123195">
        <ele>62</ele>
        <time>2019-11-04T12:19:21Z</time>
      </trkpt>
      <trkpt lat="59.16833" lon="18.123161">
        <ele>63</ele>
        <time>2019-11-04T12:19:23Z</time>
      </trkpt>
      <trkpt lat="59.168311" lon="18.123124">
        <ele>63</ele>
        <time>2019-11-04T12:19:25Z</time>
      </trkpt>
      <trkpt lat="59.168288" lon="18.123093">
        <ele>63</ele>
        <time>2019-11-04T12:19:27Z</time>
      </trkpt>
      <trkpt lat="59.168267" lon="18.123063">
        <ele>63</ele>
        <time>2019-11-04T12:19:29Z</time>
      </trkpt>
      <trkpt lat="59.168249" lon="18.123031">
        <ele>63</ele>
        <time>2019-11-04T12:19:31Z</time>
      </trkpt>
      <trkpt lat="59.168227" lon="18.122997">
        <ele>63</ele>
        <time>2019-11-04T12:19:33Z</time>
      </trkpt>
      <trkpt lat="59.168203" lon="18.122965">
        <ele>63</ele>
        <time>2019-11-04T12:19:35Z</time>
      </trkpt>
      <trkpt lat="59.168181" lon="18.122941">
        <ele>63</ele>
        <time>2019-11-04T12:19:37Z</time>
      </trkpt>
      <trkpt lat="59.168159" lon="18.12292">
        <ele>63</ele>
        <time>2019-11-04T12:19:39Z</time>
      </trkpt>
      <trkpt lat="59.168135" lon="18.122883">
        <ele>63</ele>
        <time>2019-11-04T12:19:41Z</time>
      </trkpt>
      <trkpt lat="59.168104" lon="18.122855">
        <ele>63</ele>
        <time>2019-11-04T12:19:43Z</time>
      </trkpt>
      <trkpt lat="59.168074" lon="18.122835">
        <ele>63</ele>
        <time>2019-11-04T12:19:45Z</time>
      </trkpt>
      <trkpt lat="59.168045" lon="18.122809">
        <ele>63</ele>
        <time>2019-11-04T12:19:47Z</time>
      </trkpt>
      <trkpt lat="59.16802" lon="18.122789">
        <ele>63</ele>
        <time>2019-11-04T12:19:49Z</time>
      </trkpt>
      <trkpt lat="59.167991" lon="18.12277">
        <ele>63</ele>
        <time>2019-11-04T12:19:51Z</time>
      </trkpt>
      <trkpt lat="59.167966" lon="18.122756">
        <ele>63</ele>
        <time>2019-11-04T12:19:53Z</time>
      </trkpt>
      <trkpt lat="59.167946" lon="18.122748">
        <ele>63</ele>
        <time>2019-11-04T12:19:55Z</time>
      </trkpt>
      <trkpt lat="59.167924" lon="18.122745">
        <ele>63</ele>
        <time>2019-11-04T12:19:57Z</time>
      </trkpt>
      <trkpt lat="59.167906" lon="18.122746">
        <ele>63</ele>
        <time>2019-11-04T12:19:59Z</time>
      </trkpt>
      <trkpt lat="59.167888" lon="18.122756">
        <ele>62</ele>
        <time>2019-11-04T12:20:01Z</time>
      </trkpt>
      <trkpt lat="59.167867" lon="18.122759">
        <ele>62</ele>
        <time>2019-11-04T12:20:03Z</time>
      </trkpt>
      <trkpt lat="59.167843" lon="18.122772">
        <ele>62</ele>
        <time>2019-11-04T12:20:05Z</time>
      </trkpt>
      <trkpt lat="59.167822" lon="18.122792">
        <ele>61</ele>
        <time>2019-11-04T12:20:08Z</time>
      </trkpt>
      <trkpt lat="59.1678" lon="18.122808">
        <ele>60</ele>
        <time>2019-11-04T12:20:10Z</time>
      </trkpt>
      <trkpt lat="59.167774" lon="18.122829">
        <ele>60</ele>
        <time>2019-11-04T12:20:12Z</time>
      </trkpt>
      <trkpt lat="59.167754" lon="18.122837">
        <ele>59</ele>
        <time>2019-11-04T12:20:14Z</time>
      </trkpt>
      <trkpt lat="59.167738" lon="18.122856">
        <ele>59</ele>
        <time>2019-11-04T12:20:16Z</time>
      </trkpt>
      <trkpt lat="59.167718" lon="18.122875">
        <ele>59</ele>
        <time>2019-11-04T12:20:18Z</time>
      </trkpt>
      <trkpt lat="59.167696" lon="18.122894">
        <ele>58</ele>
        <time>2019-11-04T12:20:20Z</time>
      </trkpt>
      <trkpt lat="59.167678" lon="18.122912">
        <ele>58</ele>
        <time>2019-11-04T12:20:22Z</time>
      </trkpt>
      <trkpt lat="59.167656" lon="18.122934">
        <ele>58</ele>
        <time>2019-11-04T12:20:24Z</time>
      </trkpt>
      <trkpt lat="59.167633" lon="18.122966">
        <ele>58</ele>
        <time>2019-11-04T12:20:26Z</time>
      </trkpt>
      <trkpt lat="59.167614" lon="18.122981">
        <ele>58</ele>
        <time>2019-11-04T12:20:28Z</time>
      </trkpt>
      <trkpt lat="59.167591" lon="18.123001">
        <ele>58</ele>
        <time>2019-11-04T12:20:30Z</time>
      </trkpt>
      <trkpt lat="59.167579" lon="18.123028">
        <ele>58</ele>
        <time>2019-11-04T12:20:32Z</time>
      </trkpt>
      <trkpt lat="59.167567" lon="18.123064">
        <ele>59</ele>
        <time>2019-11-04T12:20:35Z</time>
      </trkpt>
      <trkpt lat="59.167556" lon="18.123094">
        <ele>59</ele>
        <time>2019-11-04T12:20:37Z</time>
      </trkpt>
      <trkpt lat="59.167546" lon="18.123131">
        <ele>60</ele>
        <time>2019-11-04T12:20:39Z</time>
      </trkpt>
      <trkpt lat="59.167531" lon="18.123161">
        <ele>60</ele>
        <time>2019-11-04T12:20:41Z</time>
      </trkpt>
      <trkpt lat="59.16753" lon="18.123204">
        <ele>60</ele>
        <time>2019-11-04T12:20:45Z</time>
      </trkpt>
      <trkpt lat="59.167519" lon="18.123236">
        <ele>60</ele>
        <time>2019-11-04T12:20:47Z</time>
      </trkpt>
      <trkpt lat="59.167509" lon="18.123268">
        <ele>60</ele>
        <time>2019-11-04T12:20:49Z</time>
      </trkpt>
      <trkpt lat="59.167496" lon="18.123298">
        <ele>60</ele>
        <time>2019-11-04T12:20:51Z</time>
      </trkpt>
      <trkpt lat="59.167482" lon="18.123325">
        <ele>60</ele>
        <time>2019-11-04T12:20:53Z</time>
      </trkpt>
      <trkpt lat="59.167465" lon="18.123359">
        <ele>60</ele>
        <time>2019-11-04T12:20:55Z</time>
      </trkpt>
      <trkpt lat="59.167442" lon="18.123388">
        <ele>59</ele>
        <time>2019-11-04T12:20:57Z</time>
      </trkpt>
      <trkpt lat="59.167427" lon="18.123409">
        <ele>59</ele>
        <time>2019-11-04T12:20:58Z</time>
      </trkpt>
      <trkpt lat="59.1674" lon="18.123437">
        <ele>59</ele>
        <time>2019-11-04T12:21:00Z</time>
      </trkpt>
      <trkpt lat="59.167383" lon="18.123465">
        <ele>59</ele>
        <time>2019-11-04T12:21:02Z</time>
      </trkpt>
      <trkpt lat="59.167369" lon="18.123501">
        <ele>59</ele>
        <time>2019-11-04T12:21:04Z</time>
      </trkpt>
      <trkpt lat="59.167354" lon="18.123547">
        <ele>60</ele>
        <time>2019-11-04T12:21:06Z</time>
      </trkpt>
      <trkpt lat="59.167337" lon="18.12359">
        <ele>60</ele>
        <time>2019-11-04T12:21:08Z</time>
      </trkpt>
      <trkpt lat="59.167319" lon="18.123627">
        <ele>60</ele>
        <time>2019-11-04T12:21:10Z</time>
      </trkpt>
      <trkpt lat="59.167302" lon="18.123658">
        <ele>60</ele>
        <time>2019-11-04T12:21:12Z</time>
      </trkpt>
      <trkpt lat="59.16729" lon="18.123687">
        <ele>60</ele>
        <time>2019-11-04T12:21:14Z</time>
      </trkpt>
      <trkpt lat="59.167274" lon="18.123707">
        <ele>60</ele>
        <time>2019-11-04T12:21:16Z</time>
      </trkpt>
      <trkpt lat="59.167255" lon="18.123727">
        <ele>60</ele>
        <time>2019-11-04T12:21:18Z</time>
      </trkpt>
      <trkpt lat="59.167226" lon="18.123749">
        <ele>60</ele>
        <time>2019-11-04T12:21:20Z</time>
      </trkpt>
      <trkpt lat="59.16721" lon="18.12377">
        <ele>60</ele>
        <time>2019-11-04T12:21:21Z</time>
      </trkpt>
      <trkpt lat="59.167193" lon="18.123795">
        <ele>60</ele>
        <time>2019-11-04T12:21:22Z</time>
      </trkpt>
      <trkpt lat="59.167178" lon="18.123817">
        <ele>60</ele>
        <time>2019-11-04T12:21:23Z</time>
      </trkpt>
      <trkpt lat="59.167159" lon="18.123844">
        <ele>60</ele>
        <time>2019-11-04T12:21:25Z</time>
      </trkpt>
      <trkpt lat="59.167132" lon="18.12386">
        <ele>60</ele>
        <time>2019-11-04T12:21:27Z</time>
      </trkpt>
      <trkpt lat="59.167105" lon="18.123883">
        <ele>59</ele>
        <time>2019-11-04T12:21:29Z</time>
      </trkpt>
      <trkpt lat="59.167083" lon="18.123925">
        <ele>59</ele>
        <time>2019-11-04T12:21:31Z</time>
      </trkpt>
      <trkpt lat="59.167065" lon="18.123939">
        <ele>58</ele>
        <time>2019-11-04T12:21:32Z</time>
      </trkpt>
      <trkpt lat="59.167047" lon="18.123952">
        <ele>58</ele>
        <time>2019-11-04T12:21:33Z</time>
      </trkpt>
      <trkpt lat="59.167028" lon="18.12396">
        <ele>57</ele>
        <time>2019-11-04T12:21:34Z</time>
      </trkpt>
      <trkpt lat="59.167009" lon="18.123976">
        <ele>57</ele>
        <time>2019-11-04T12:21:35Z</time>
      </trkpt>
      <trkpt lat="59.166979" lon="18.123999">
        <ele>57</ele>
        <time>2019-11-04T12:21:37Z</time>
      </trkpt>
      <trkpt lat="59.166962" lon="18.124019">
        <ele>57</ele>
        <time>2019-11-04T12:21:38Z</time>
      </trkpt>
      <trkpt lat="59.166939" lon="18.12405">
        <ele>57</ele>
        <time>2019-11-04T12:21:40Z</time>
      </trkpt>
      <trkpt lat="59.166918" lon="18.124084">
        <ele>56</ele>
        <time>2019-11-04T12:21:42Z</time>
      </trkpt>
      <trkpt lat="59.166901" lon="18.124105">
        <ele>56</ele>
        <time>2019-11-04T12:21:44Z</time>
      </trkpt>
      <trkpt lat="59.166887" lon="18.124128">
        <ele>57</ele>
        <time>2019-11-04T12:21:46Z</time>
      </trkpt>
      <trkpt lat="59.166866" lon="18.12416">
        <ele>56</ele>
        <time>2019-11-04T12:21:48Z</time>
      </trkpt>
      <trkpt lat="59.166845" lon="18.124196">
        <ele>56</ele>
        <time>2019-11-04T12:21:50Z</time>
      </trkpt>
      <trkpt lat="59.166825" lon="18.124223">
        <ele>56</ele>
        <time>2019-11-04T12:21:52Z</time>
      </trkpt>
      <trkpt lat="59.166801" lon="18.124211">
        <ele>55</ele>
        <time>2019-11-04T12:21:55Z</time>
      </trkpt>
      <trkpt lat="59.166772" lon="18.124197">
        <ele>55</ele>
        <time>2019-11-04T12:21:57Z</time>
      </trkpt>
      <trkpt lat="59.166749" lon="18.124173">
        <ele>55</ele>
        <time>2019-11-04T12:21:59Z</time>
      </trkpt>
      <trkpt lat="59.166729" lon="18.124149">
        <ele>55</ele>
        <time>2019-11-04T12:22:01Z</time>
      </trkpt>
      <trkpt lat="59.166707" lon="18.124121">
        <ele>54</ele>
        <time>2019-11-04T12:22:03Z</time>
      </trkpt>
      <trkpt lat="59.166685" lon="18.124089">
        <ele>54</ele>
        <time>2019-11-04T12:22:05Z</time>
      </trkpt>
      <trkpt lat="59.166666" lon="18.124057">
        <ele>54</ele>
        <time>2019-11-04T12:22:07Z</time>
      </trkpt>
      <trkpt lat="59.166643" lon="18.124039">
        <ele>54</ele>
        <time>2019-11-04T12:22:09Z</time>
      </trkpt>
      <trkpt lat="59.166618" lon="18.124029">
        <ele>53</ele>
        <time>2019-11-04T12:22:11Z</time>
      </trkpt>
      <trkpt lat="59.166588" lon="18.124008">
        <ele>53</ele>
        <time>2019-11-04T12:22:13Z</time>
      </trkpt>
      <trkpt lat="59.166562" lon="18.123983">
        <ele>53</ele>
        <time>2019-11-04T12:22:15Z</time>
      </trkpt>
      <trkpt lat="59.166533" lon="18.123954">
        <ele>52</ele>
        <time>2019-11-04T12:22:17Z</time>
      </trkpt>
      <trkpt lat="59.166516" lon="18.123935">
        <ele>52</ele>
        <time>2019-11-04T12:22:18Z</time>
      </trkpt>
      <trkpt lat="59.166503" lon="18.12389">
        <ele>51</ele>
        <time>2019-11-04T12:22:20Z</time>
      </trkpt>
      <trkpt lat="59.166499" lon="18.123854">
        <ele>50</ele>
        <time>2019-11-04T12:22:27Z</time>
      </trkpt>
      <trkpt lat="59.166477" lon="18.123853">
        <ele>50</ele>
        <time>2019-11-04T12:22:30Z</time>
      </trkpt>
      <trkpt lat="59.166448" lon="18.123845">
        <ele>50</ele>
        <time>2019-11-04T12:22:32Z</time>
      </trkpt>
      <trkpt lat="59.166429" lon="18.123806">
        <ele>50</ele>
        <time>2019-11-04T12:22:35Z</time>
      </trkpt>
      <trkpt lat="59.166402" lon="18.12378">
        <ele>50</ele>
        <time>2019-11-04T12:22:37Z</time>
      </trkpt>
      <trkpt lat="59.16638" lon="18.123764">
        <ele>50</ele>
        <time>2019-11-04T12:22:39Z</time>
      </trkpt>
      <trkpt lat="59.166367" lon="18.123736">
        <ele>50</ele>
        <time>2019-11-04T12:22:41Z</time>
      </trkpt>
      <trkpt lat="59.166349" lon="18.123705">
        <ele>49</ele>
        <time>2019-11-04T12:22:43Z</time>
      </trkpt>
      <trkpt lat="59.166322" lon="18.123683">
        <ele>49</ele>
        <time>2019-11-04T12:22:45Z</time>
      </trkpt>
      <trkpt lat="59.166299" lon="18.123653">
        <ele>49</ele>
        <time>2019-11-04T12:22:47Z</time>
      </trkpt>
      <trkpt lat="59.166274" lon="18.123617">
        <ele>49</ele>
        <time>2019-11-04T12:22:49Z</time>
      </trkpt>
      <trkpt lat="59.166247" lon="18.123588">
        <ele>49</ele>
        <time>2019-11-04T12:22:51Z</time>
      </trkpt>
      <trkpt lat="59.166222" lon="18.123572">
        <ele>49</ele>
        <time>2019-11-04T12:22:53Z</time>
      </trkpt>
      <trkpt lat="59.166201" lon="18.123564">
        <ele>49</ele>
        <time>2019-11-04T12:22:55Z</time>
      </trkpt>
      <trkpt lat="59.166177" lon="18.123558">
        <ele>50</ele>
        <time>2019-11-04T12:22:57Z</time>
      </trkpt>
      <trkpt lat="59.16615" lon="18.123561">
        <ele>50</ele>
        <time>2019-11-04T12:22:59Z</time>
      </trkpt>
      <trkpt lat="59.16612" lon="18.123577">
        <ele>51</ele>
        <time>2019-11-04T12:23:01Z</time>
      </trkpt>
      <trkpt lat="59.166096" lon="18.123596">
        <ele>52</ele>
        <time>2019-11-04T12:23:03Z</time>
      </trkpt>
      <trkpt lat="59.166076" lon="18.123613">
        <ele>52</ele>
        <time>2019-11-04T12:23:05Z</time>
      </trkpt>
      <trkpt lat="59.166049" lon="18.123623">
        <ele>52</ele>
        <time>2019-11-04T12:23:07Z</time>
      </trkpt>
      <trkpt lat="59.166028" lon="18.123631">
        <ele>52</ele>
        <time>2019-11-04T12:23:09Z</time>
      </trkpt>
      <trkpt lat="59.165996" lon="18.123634">
        <ele>52</ele>
        <time>2019-11-04T12:23:11Z</time>
      </trkpt>
      <trkpt lat="59.165967" lon="18.123634">
        <ele>52</ele>
        <time>2019-11-04T12:23:13Z</time>
      </trkpt>
      <trkpt lat="59.165943" lon="18.123661">
        <ele>52</ele>
        <time>2019-11-04T12:23:16Z</time>
      </trkpt>
      <trkpt lat="59.165923" lon="18.123671">
        <ele>52</ele>
        <time>2019-11-04T12:23:17Z</time>
      </trkpt>
      <trkpt lat="59.165903" lon="18.123677">
        <ele>52</ele>
        <time>2019-11-04T12:23:18Z</time>
      </trkpt>
      <trkpt lat="59.165877" lon="18.123682">
        <ele>52</ele>
        <time>2019-11-04T12:23:20Z</time>
      </trkpt>
      <trkpt lat="59.165852" lon="18.123688">
        <ele>52</ele>
        <time>2019-11-04T12:23:22Z</time>
      </trkpt>
      <trkpt lat="59.165821" lon="18.123695">
        <ele>52</ele>
        <time>2019-11-04T12:23:24Z</time>
      </trkpt>
      <trkpt lat="59.16579" lon="18.123703">
        <ele>52</ele>
        <time>2019-11-04T12:23:26Z</time>
      </trkpt>
      <trkpt lat="59.165763" lon="18.123698">
        <ele>52</ele>
        <time>2019-11-04T12:23:28Z</time>
      </trkpt>
      <trkpt lat="59.165728" lon="18.123693">
        <ele>50</ele>
        <time>2019-11-04T12:23:30Z</time>
      </trkpt>
      <trkpt lat="59.165694" lon="18.123696">
        <ele>50</ele>
        <time>2019-11-04T12:23:32Z</time>
      </trkpt>
      <trkpt lat="59.165662" lon="18.123703">
        <ele>50</ele>
        <time>2019-11-04T12:23:34Z</time>
      </trkpt>
      <trkpt lat="59.165634" lon="18.1237">
        <ele>50</ele>
        <time>2019-11-04T12:23:36Z</time>
      </trkpt>
      <trkpt lat="59.165605" lon="18.123701">
        <ele>50</ele>
        <time>2019-11-04T12:23:38Z</time>
      </trkpt>
      <trkpt lat="59.165578" lon="18.123711">
        <ele>50</ele>
        <time>2019-11-04T12:23:40Z</time>
      </trkpt>
      <trkpt lat="59.165547" lon="18.12372">
        <ele>50</ele>
        <time>2019-11-04T12:23:42Z</time>
      </trkpt>
      <trkpt lat="59.165513" lon="18.123724">
        <ele>51</ele>
        <time>2019-11-04T12:23:44Z</time>
      </trkpt>
      <trkpt lat="59.165486" lon="18.123736">
        <ele>50</ele>
        <time>2019-11-04T12:23:46Z</time>
      </trkpt>
      <trkpt lat="59.165459" lon="18.123746">
        <ele>50</ele>
        <time>2019-11-04T12:23:48Z</time>
      </trkpt>
      <trkpt lat="59.165437" lon="18.123761">
        <ele>50</ele>
        <time>2019-11-04T12:23:50Z</time>
      </trkpt>
      <trkpt lat="59.165414" lon="18.123781">
        <ele>51</ele>
        <time>2019-11-04T12:23:53Z</time>
      </trkpt>
      <trkpt lat="59.165397" lon="18.123793">
        <ele>51</ele>
        <time>2019-11-04T12:23:55Z</time>
      </trkpt>
      <trkpt lat="59.165379" lon="18.123815">
        <ele>51</ele>
        <time>2019-11-04T12:23:57Z</time>
      </trkpt>
      <trkpt lat="59.165361" lon="18.12384">
        <ele>52</ele>
        <time>2019-11-04T12:23:59Z</time>
      </trkpt>
      <trkpt lat="59.165338" lon="18.12386">
        <ele>52</ele>
        <time>2019-11-04T12:24:01Z</time>
      </trkpt>
      <trkpt lat="59.165312" lon="18.123879">
        <ele>52</ele>
        <time>2019-11-04T12:24:03Z</time>
      </trkpt>
      <trkpt lat="59.165296" lon="18.123898">
        <ele>52</ele>
        <time>2019-11-04T12:24:04Z</time>
      </trkpt>
      <trkpt lat="59.165272" lon="18.123925">
        <ele>52</ele>
        <time>2019-11-04T12:24:06Z</time>
      </trkpt>
      <trkpt lat="59.165246" lon="18.123955">
        <ele>52</ele>
        <time>2019-11-04T12:24:08Z</time>
      </trkpt>
      <trkpt lat="59.165226" lon="18.123975">
        <ele>52</ele>
        <time>2019-11-04T12:24:09Z</time>
      </trkpt>
      <trkpt lat="59.165206" lon="18.123992">
        <ele>52</ele>
        <time>2019-11-04T12:24:10Z</time>
      </trkpt>
      <trkpt lat="59.165179" lon="18.124029">
        <ele>52</ele>
        <time>2019-11-04T12:24:12Z</time>
      </trkpt>
      <trkpt lat="59.16516" lon="18.124037">
        <ele>51</ele>
        <time>2019-11-04T12:24:13Z</time>
      </trkpt>
      <trkpt lat="59.165132" lon="18.124036">
        <ele>51</ele>
        <time>2019-11-04T12:24:15Z</time>
      </trkpt>
      <trkpt lat="59.165105" lon="18.124018">
        <ele>51</ele>
        <time>2019-11-04T12:24:17Z</time>
      </trkpt>
      <trkpt lat="59.165078" lon="18.124005">
        <ele>50</ele>
        <time>2019-11-04T12:24:20Z</time>
      </trkpt>
      <trkpt lat="59.165048" lon="18.123992">
        <ele>50</ele>
        <time>2019-11-04T12:24:21Z</time>
      </trkpt>
      <trkpt lat="59.165014" lon="18.123987">
        <ele>49</ele>
        <time>2019-11-04T12:24:23Z</time>
      </trkpt>
      <trkpt lat="59.164982" lon="18.123991">
        <ele>49</ele>
        <time>2019-11-04T12:24:25Z</time>
      </trkpt>
      <trkpt lat="59.164949" lon="18.123997">
        <ele>49</ele>
        <time>2019-11-04T12:24:27Z</time>
      </trkpt>
      <trkpt lat="59.164919" lon="18.124">
        <ele>48</ele>
        <time>2019-11-04T12:24:29Z</time>
      </trkpt>
      <trkpt lat="59.164892" lon="18.124">
        <ele>48</ele>
        <time>2019-11-04T12:24:31Z</time>
      </trkpt>
      <trkpt lat="59.164871" lon="18.124016">
        <ele>48</ele>
        <time>2019-11-04T12:24:33Z</time>
      </trkpt>
      <trkpt lat="59.164853" lon="18.124035">
        <ele>48</ele>
        <time>2019-11-04T12:24:35Z</time>
      </trkpt>
      <trkpt lat="59.164832" lon="18.124043">
        <ele>48</ele>
        <time>2019-11-04T12:24:37Z</time>
      </trkpt>
      <trkpt lat="59.164808" lon="18.124068">
        <ele>48</ele>
        <time>2019-11-04T12:24:39Z</time>
      </trkpt>
      <trkpt lat="59.164782" lon="18.124095">
        <ele>47</ele>
        <time>2019-11-04T12:24:41Z</time>
      </trkpt>
      <trkpt lat="59.164756" lon="18.124123">
        <ele>47</ele>
        <time>2019-11-04T12:24:43Z</time>
      </trkpt>
      <trkpt lat="59.16473" lon="18.124151">
        <ele>47</ele>
        <time>2019-11-04T12:24:45Z</time>
      </trkpt>
      <trkpt lat="59.164703" lon="18.124179">
        <ele>46</ele>
        <time>2019-11-04T12:24:47Z</time>
      </trkpt>
      <trkpt lat="59.164679" lon="18.124211">
        <ele>46</ele>
        <time>2019-11-04T12:24:49Z</time>
      </trkpt>
      <trkpt lat="59.164661" lon="18.124248">
        <ele>46</ele>
        <time>2019-11-04T12:24:51Z</time>
      </trkpt>
      <trkpt lat="59.16465" lon="18.124285">
        <ele>47</ele>
        <time>2019-11-04T12:24:53Z</time>
      </trkpt>
      <trkpt lat="59.164644" lon="18.12433">
        <ele>47</ele>
        <time>2019-11-04T12:24:55Z</time>
      </trkpt>
      <trkpt lat="59.164649" lon="18.124371">
        <ele>47</ele>
        <time>2019-11-04T12:24:57Z</time>
      </trkpt>
      <trkpt lat="59.164663" lon="18.12441">
        <ele>48</ele>
        <time>2019-11-04T12:24:59Z</time>
      </trkpt>
      <trkpt lat="59.16467" lon="18.124446">
        <ele>48</ele>
        <time>2019-11-04T12:25:01Z</time>
      </trkpt>
      <trkpt lat="59.164679" lon="18.124485">
        <ele>48</ele>
        <time>2019-11-04T12:25:03Z</time>
      </trkpt>
      <trkpt lat="59.164683" lon="18.124526">
        <ele>49</ele>
        <time>2019-11-04T12:25:05Z</time>
      </trkpt>
      <trkpt lat="59.164684" lon="18.12458">
        <ele>49</ele>
        <time>2019-11-04T12:25:07Z</time>
      </trkpt>
      <trkpt lat="59.16468" lon="18.124635">
        <ele>49</ele>
        <time>2019-11-04T12:25:09Z</time>
      </trkpt>
      <trkpt lat="59.164681" lon="18.124685">
        <ele>49</ele>
        <time>2019-11-04T12:25:11Z</time>
      </trkpt>
      <trkpt lat="59.164684" lon="18.124736">
        <ele>49</ele>
        <time>2019-11-04T12:25:13Z</time>
      </trkpt>
      <trkpt lat="59.164685" lon="18.124789">
        <ele>50</ele>
        <time>2019-11-04T12:25:15Z</time>
      </trkpt>
      <trkpt lat="59.164688" lon="18.124836">
        <ele>49</ele>
        <time>2019-11-04T12:25:17Z</time>
      </trkpt>
      <trkpt lat="59.164692" lon="18.124888">
        <ele>49</ele>
        <time>2019-11-04T12:25:19Z</time>
      </trkpt>
      <trkpt lat="59.164696" lon="18.124939">
        <ele>49</ele>
        <time>2019-11-04T12:25:21Z</time>
      </trkpt>
      <trkpt lat="59.164698" lon="18.124989">
        <ele>49</ele>
        <time>2019-11-04T12:25:23Z</time>
      </trkpt>
      <trkpt lat="59.164706" lon="18.125039">
        <ele>50</ele>
        <time>2019-11-04T12:25:25Z</time>
      </trkpt>
      <trkpt lat="59.164705" lon="18.125097">
        <ele>50</ele>
        <time>2019-11-04T12:25:27Z</time>
      </trkpt>
      <trkpt lat="59.164704" lon="18.125151">
        <ele>50</ele>
        <time>2019-11-04T12:25:29Z</time>
      </trkpt>
      <trkpt lat="59.164695" lon="18.125203">
        <ele>51</ele>
        <time>2019-11-04T12:25:31Z</time>
      </trkpt>
      <trkpt lat="59.164687" lon="18.125251">
        <ele>51</ele>
        <time>2019-11-04T12:25:33Z</time>
      </trkpt>
      <trkpt lat="59.164679" lon="18.125302">
        <ele>51</ele>
        <time>2019-11-04T12:25:35Z</time>
      </trkpt>
      <trkpt lat="59.164673" lon="18.125352">
        <ele>52</ele>
        <time>2019-11-04T12:25:37Z</time>
      </trkpt>
      <trkpt lat="59.164663" lon="18.125399">
        <ele>52</ele>
        <time>2019-11-04T12:25:39Z</time>
      </trkpt>
      <trkpt lat="59.164641" lon="18.125402">
        <ele>53</ele>
        <time>2019-11-04T12:25:43Z</time>
      </trkpt>
      <trkpt lat="59.164629" lon="18.125461">
        <ele>53</ele>
        <time>2019-11-04T12:25:47Z</time>
      </trkpt>
      <trkpt lat="59.164626" lon="18.125512">
        <ele>54</ele>
        <time>2019-11-04T12:25:49Z</time>
      </trkpt>
      <trkpt lat="59.164627" lon="18.125563">
        <ele>54</ele>
        <time>2019-11-04T12:25:51Z</time>
      </trkpt>
      <trkpt lat="59.16463" lon="18.125609">
        <ele>54</ele>
        <time>2019-11-04T12:25:53Z</time>
      </trkpt>
      <trkpt lat="59.164636" lon="18.125666">
        <ele>54</ele>
        <time>2019-11-04T12:25:55Z</time>
      </trkpt>
      <trkpt lat="59.164641" lon="18.12572">
        <ele>55</ele>
        <time>2019-11-04T12:25:57Z</time>
      </trkpt>
      <trkpt lat="59.164644" lon="18.12577">
        <ele>55</ele>
        <time>2019-11-04T12:25:59Z</time>
      </trkpt>
      <trkpt lat="59.164647" lon="18.125821">
        <ele>55</ele>
        <time>2019-11-04T12:26:01Z</time>
      </trkpt>
      <trkpt lat="59.164652" lon="18.125873">
        <ele>55</ele>
        <time>2019-11-04T12:26:03Z</time>
      </trkpt>
      <trkpt lat="59.16465" lon="18.125921">
        <ele>55</ele>
        <time>2019-11-04T12:26:05Z</time>
      </trkpt>
      <trkpt lat="59.164654" lon="18.12597">
        <ele>55</ele>
        <time>2019-11-04T12:26:07Z</time>
      </trkpt>
      <trkpt lat="59.164668" lon="18.126022">
        <ele>55</ele>
        <time>2019-11-04T12:26:09Z</time>
      </trkpt>
      <trkpt lat="59.16468" lon="18.126066">
        <ele>56</ele>
        <time>2019-11-04T12:26:11Z</time>
      </trkpt>
      <trkpt lat="59.164693" lon="18.126112">
        <ele>56</ele>
        <time>2019-11-04T12:26:14Z</time>
      </trkpt>
      <trkpt lat="59.164706" lon="18.126152">
        <ele>55</ele>
        <time>2019-11-04T12:26:15Z</time>
      </trkpt>
      <trkpt lat="59.164724" lon="18.126196">
        <ele>55</ele>
        <time>2019-11-04T12:26:17Z</time>
      </trkpt>
      <trkpt lat="59.16474" lon="18.126238">
        <ele>55</ele>
        <time>2019-11-04T12:26:19Z</time>
      </trkpt>
      <trkpt lat="59.164755" lon="18.126271">
        <ele>55</ele>
        <time>2019-11-04T12:26:21Z</time>
      </trkpt>
      <trkpt lat="59.164768" lon="18.126313">
        <ele>55</ele>
        <time>2019-11-04T12:26:23Z</time>
      </trkpt>
      <trkpt lat="59.164779" lon="18.126354">
        <ele>54</ele>
        <time>2019-11-04T12:26:25Z</time>
      </trkpt>
      <trkpt lat="59.164794" lon="18.126397">
        <ele>54</ele>
        <time>2019-11-04T12:26:27Z</time>
      </trkpt>
      <trkpt lat="59.164814" lon="18.126441">
        <ele>54</ele>
        <time>2019-11-04T12:26:29Z</time>
      </trkpt>
      <trkpt lat="59.164825" lon="18.126495">
        <ele>54</ele>
        <time>2019-11-04T12:26:31Z</time>
      </trkpt>
      <trkpt lat="59.164834" lon="18.126555">
        <ele>54</ele>
        <time>2019-11-04T12:26:33Z</time>
      </trkpt>
      <trkpt lat="59.16485" lon="18.126607">
        <ele>54</ele>
        <time>2019-11-04T12:26:35Z</time>
      </trkpt>
      <trkpt lat="59.164862" lon="18.126636">
        <ele>55</ele>
        <time>2019-11-04T12:26:36Z</time>
      </trkpt>
      <trkpt lat="59.164867" lon="18.126672">
        <ele>55</ele>
        <time>2019-11-04T12:26:37Z</time>
      </trkpt>
      <trkpt lat="59.164875" lon="18.126735">
        <ele>55</ele>
        <time>2019-11-04T12:26:39Z</time>
      </trkpt>
      <trkpt lat="59.164878" lon="18.126797">
        <ele>55</ele>
        <time>2019-11-04T12:26:41Z</time>
      </trkpt>
      <trkpt lat="59.164883" lon="18.126857">
        <ele>55</ele>
        <time>2019-11-04T12:26:43Z</time>
      </trkpt>
      <trkpt lat="59.164892" lon="18.126918">
        <ele>56</ele>
        <time>2019-11-04T12:26:45Z</time>
      </trkpt>
      <trkpt lat="59.164899" lon="18.126963">
        <ele>56</ele>
        <time>2019-11-04T12:26:47Z</time>
      </trkpt>
      <trkpt lat="59.164909" lon="18.127021">
        <ele>56</ele>
        <time>2019-11-04T12:26:49Z</time>
      </trkpt>
      <trkpt lat="59.164917" lon="18.127075">
        <ele>56</ele>
        <time>2019-11-04T12:26:51Z</time>
      </trkpt>
      <trkpt lat="59.164926" lon="18.12713">
        <ele>57</ele>
        <time>2019-11-04T12:26:53Z</time>
      </trkpt>
      <trkpt lat="59.164937" lon="18.12719">
        <ele>57</ele>
        <time>2019-11-04T12:26:55Z</time>
      </trkpt>
      <trkpt lat="59.164948" lon="18.127236">
        <ele>58</ele>
        <time>2019-11-04T12:26:57Z</time>
      </trkpt>
      <trkpt lat="59.164953" lon="18.127274">
        <ele>58</ele>
        <time>2019-11-04T12:26:59Z</time>
      </trkpt>
      <trkpt lat="59.164965" lon="18.127326">
        <ele>58</ele>
        <time>2019-11-04T12:27:01Z</time>
      </trkpt>
      <trkpt lat="59.164977" lon="18.127377">
        <ele>58</ele>
        <time>2019-11-04T12:27:03Z</time>
      </trkpt>
      <trkpt lat="59.164988" lon="18.127422">
        <ele>57</ele>
        <time>2019-11-04T12:27:05Z</time>
      </trkpt>
      <trkpt lat="59.165002" lon="18.127471">
        <ele>57</ele>
        <time>2019-11-04T12:27:07Z</time>
      </trkpt>
      <trkpt lat="59.165019" lon="18.127528">
        <ele>57</ele>
        <time>2019-11-04T12:27:09Z</time>
      </trkpt>
      <trkpt lat="59.165032" lon="18.127572">
        <ele>57</ele>
        <time>2019-11-04T12:27:11Z</time>
      </trkpt>
      <trkpt lat="59.165049" lon="18.127612">
        <ele>56</ele>
        <time>2019-11-04T12:27:13Z</time>
      </trkpt>
      <trkpt lat="59.165062" lon="18.127663">
        <ele>56</ele>
        <time>2019-11-04T12:27:15Z</time>
      </trkpt>
      <trkpt lat="59.165075" lon="18.127718">
        <ele>56</ele>
        <time>2019-11-04T12:27:17Z</time>
      </trkpt>
      <trkpt lat="59.16508" lon="18.127771">
        <ele>56</ele>
        <time>2019-11-04T12:27:19Z</time>
      </trkpt>
      <trkpt lat="59.165082" lon="18.127818">
        <ele>57</ele>
        <time>2019-11-04T12:27:21Z</time>
      </trkpt>
      <trkpt lat="59.165084" lon="18.127853">
        <ele>57</ele>
        <time>2019-11-04T12:27:22Z</time>
      </trkpt>
      <trkpt lat="59.165084" lon="18.127888">
        <ele>57</ele>
        <time>2019-11-04T12:27:23Z</time>
      </trkpt>
      <trkpt lat="59.165093" lon="18.127942">
        <ele>57</ele>
        <time>2019-11-04T12:27:25Z</time>
      </trkpt>
      <trkpt lat="59.165098" lon="18.127998">
        <ele>57</ele>
        <time>2019-11-04T12:27:27Z</time>
      </trkpt>
      <trkpt lat="59.165098" lon="18.128059">
        <ele>58</ele>
        <time>2019-11-04T12:27:29Z</time>
      </trkpt>
      <trkpt lat="59.165092" lon="18.128097">
        <ele>58</ele>
        <time>2019-11-04T12:27:30Z</time>
      </trkpt>
      <trkpt lat="59.165086" lon="18.128131">
        <ele>58</ele>
        <time>2019-11-04T12:27:31Z</time>
      </trkpt>
      <trkpt lat="59.165079" lon="18.128165">
        <ele>58</ele>
        <time>2019-11-04T12:27:32Z</time>
      </trkpt>
      <trkpt lat="59.165063" lon="18.128235">
        <ele>58</ele>
        <time>2019-11-04T12:27:34Z</time>
      </trkpt>
      <trkpt lat="59.165055" lon="18.128273">
        <ele>58</ele>
        <time>2019-11-04T12:27:35Z</time>
      </trkpt>
      <trkpt lat="59.165044" lon="18.128327">
        <ele>59</ele>
        <time>2019-11-04T12:27:37Z</time>
      </trkpt>
      <trkpt lat="59.165029" lon="18.128383">
        <ele>59</ele>
        <time>2019-11-04T12:27:39Z</time>
      </trkpt>
      <trkpt lat="59.165013" lon="18.128434">
        <ele>59</ele>
        <time>2019-11-04T12:27:41Z</time>
      </trkpt>
      <trkpt lat="59.164997" lon="18.128472">
        <ele>59</ele>
        <time>2019-11-04T12:27:43Z</time>
      </trkpt>
      <trkpt lat="59.164981" lon="18.128506">
        <ele>59</ele>
        <time>2019-11-04T12:27:45Z</time>
      </trkpt>
      <trkpt lat="59.164956" lon="18.12854">
        <ele>59</ele>
        <time>2019-11-04T12:27:47Z</time>
      </trkpt>
      <trkpt lat="59.164934" lon="18.128575">
        <ele>59</ele>
        <time>2019-11-04T12:27:49Z</time>
      </trkpt>
      <trkpt lat="59.164906" lon="18.128608">
        <ele>58</ele>
        <time>2019-11-04T12:27:51Z</time>
      </trkpt>
      <trkpt lat="59.164886" lon="18.128624">
        <ele>58</ele>
        <time>2019-11-04T12:27:52Z</time>
      </trkpt>
      <trkpt lat="59.164857" lon="18.128653">
        <ele>57</ele>
        <time>2019-11-04T12:27:54Z</time>
      </trkpt>
      <trkpt lat="59.164841" lon="18.128671">
        <ele>57</ele>
        <time>2019-11-04T12:27:55Z</time>
      </trkpt>
      <trkpt lat="59.164812" lon="18.1287">
        <ele>57</ele>
        <time>2019-11-04T12:27:57Z</time>
      </trkpt>
      <trkpt lat="59.164786" lon="18.128731">
        <ele>56</ele>
        <time>2019-11-04T12:27:59Z</time>
      </trkpt>
      <trkpt lat="59.164757" lon="18.128745">
        <ele>56</ele>
        <time>2019-11-04T12:28:01Z</time>
      </trkpt>
      <trkpt lat="59.164736" lon="18.12875">
        <ele>56</ele>
        <time>2019-11-04T12:28:03Z</time>
      </trkpt>
      <trkpt lat="59.164706" lon="18.12876">
        <ele>56</ele>
        <time>2019-11-04T12:28:05Z</time>
      </trkpt>
      <trkpt lat="59.16468" lon="18.128783">
        <ele>56</ele>
        <time>2019-11-04T12:28:07Z</time>
      </trkpt>
      <trkpt lat="59.164654" lon="18.1288">
        <ele>56</ele>
        <time>2019-11-04T12:28:09Z</time>
      </trkpt>
      <trkpt lat="59.16463" lon="18.128824">
        <ele>56</ele>
        <time>2019-11-04T12:28:11Z</time>
      </trkpt>
      <trkpt lat="59.164616" lon="18.128848">
        <ele>56</ele>
        <time>2019-11-04T12:28:13Z</time>
      </trkpt>
      <trkpt lat="59.164609" lon="18.128882">
        <ele>56</ele>
        <time>2019-11-04T12:28:15Z</time>
      </trkpt>
      <trkpt lat="59.164598" lon="18.12891">
        <ele>56</ele>
        <time>2019-11-04T12:28:17Z</time>
      </trkpt>
      <trkpt lat="59.16458" lon="18.128933">
        <ele>56</ele>
        <time>2019-11-04T12:28:19Z</time>
      </trkpt>
      <trkpt lat="59.164566" lon="18.128961">
        <ele>56</ele>
        <time>2019-11-04T12:28:21Z</time>
      </trkpt>
      <trkpt lat="59.164561" lon="18.128995">
        <ele>56</ele>
        <time>2019-11-04T12:28:23Z</time>
      </trkpt>
      <trkpt lat="59.164555" lon="18.129033">
        <ele>56</ele>
        <time>2019-11-04T12:28:25Z</time>
      </trkpt>
      <trkpt lat="59.164546" lon="18.129081">
        <ele>56</ele>
        <time>2019-11-04T12:28:28Z</time>
      </trkpt>
      <trkpt lat="59.164548" lon="18.129134">
        <ele>56</ele>
        <time>2019-11-04T12:28:31Z</time>
      </trkpt>
      <trkpt lat="59.164557" lon="18.12917">
        <ele>56</ele>
        <time>2019-11-04T12:28:33Z</time>
      </trkpt>
      <trkpt lat="59.164568" lon="18.129214">
        <ele>56</ele>
        <time>2019-11-04T12:28:35Z</time>
      </trkpt>
      <trkpt lat="59.164583" lon="18.129252">
        <ele>56</ele>
        <time>2019-11-04T12:28:37Z</time>
      </trkpt>
      <trkpt lat="59.164596" lon="18.129294">
        <ele>56</ele>
        <time>2019-11-04T12:28:39Z</time>
      </trkpt>
      <trkpt lat="59.164606" lon="18.129339">
        <ele>55</ele>
        <time>2019-11-04T12:28:41Z</time>
      </trkpt>
      <trkpt lat="59.164599" lon="18.1294">
        <ele>55</ele>
        <time>2019-11-04T12:28:43Z</time>
      </trkpt>
      <trkpt lat="59.164592" lon="18.129459">
        <ele>54</ele>
        <time>2019-11-04T12:28:45Z</time>
      </trkpt>
      <trkpt lat="59.164592" lon="18.129514">
        <ele>54</ele>
        <time>2019-11-04T12:28:47Z</time>
      </trkpt>
      <trkpt lat="59.164584" lon="18.12957">
        <ele>53</ele>
        <time>2019-11-04T12:28:49Z</time>
      </trkpt>
      <trkpt lat="59.164586" lon="18.129618">
        <ele>53</ele>
        <time>2019-11-04T12:28:51Z</time>
      </trkpt>
      <trkpt lat="59.164588" lon="18.129669">
        <ele>53</ele>
        <time>2019-11-04T12:28:53Z</time>
      </trkpt>
      <trkpt lat="59.164595" lon="18.129717">
        <ele>53</ele>
        <time>2019-11-04T12:28:55Z</time>
      </trkpt>
      <trkpt lat="59.164603" lon="18.129771">
        <ele>53</ele>
        <time>2019-11-04T12:28:57Z</time>
      </trkpt>
      <trkpt lat="59.164608" lon="18.129822">
        <ele>52</ele>
        <time>2019-11-04T12:28:59Z</time>
      </trkpt>
      <trkpt lat="59.164612" lon="18.129865">
        <ele>52</ele>
        <time>2019-11-04T12:29:01Z</time>
      </trkpt>
      <trkpt lat="59.16462" lon="18.129913">
        <ele>52</ele>
        <time>2019-11-04T12:29:03Z</time>
      </trkpt>
      <trkpt lat="59.164626" lon="18.129961">
        <ele>51</ele>
        <time>2019-11-04T12:29:05Z</time>
      </trkpt>
      <trkpt lat="59.164633" lon="18.130007">
        <ele>51</ele>
        <time>2019-11-04T12:29:07Z</time>
      </trkpt>
      <trkpt lat="59.164639" lon="18.130053">
        <ele>50</ele>
        <time>2019-11-04T12:29:09Z</time>
      </trkpt>
      <trkpt lat="59.164647" lon="18.13011">
        <ele>50</ele>
        <time>2019-11-04T12:29:11Z</time>
      </trkpt>
      <trkpt lat="59.164652" lon="18.130159">
        <ele>49</ele>
        <time>2019-11-04T12:29:13Z</time>
      </trkpt>
      <trkpt lat="59.164661" lon="18.130208">
        <ele>49</ele>
        <time>2019-11-04T12:29:15Z</time>
      </trkpt>
      <trkpt lat="59.164669" lon="18.130258">
        <ele>48</ele>
        <time>2019-11-04T12:29:17Z</time>
      </trkpt>
      <trkpt lat="59.164678" lon="18.130312">
        <ele>48</ele>
        <time>2019-11-04T12:29:19Z</time>
      </trkpt>
      <trkpt lat="59.164688" lon="18.130361">
        <ele>48</ele>
        <time>2019-11-04T12:29:21Z</time>
      </trkpt>
      <trkpt lat="59.164698" lon="18.130406">
        <ele>47</ele>
        <time>2019-11-04T12:29:23Z</time>
      </trkpt>
      <trkpt lat="59.164706" lon="18.130451">
        <ele>47</ele>
        <time>2019-11-04T12:29:25Z</time>
      </trkpt>
      <trkpt lat="59.164711" lon="18.130501">
        <ele>47</ele>
        <time>2019-11-04T12:29:27Z</time>
      </trkpt>
      <trkpt lat="59.164717" lon="18.130548">
        <ele>46</ele>
        <time>2019-11-04T12:29:29Z</time>
      </trkpt>
      <trkpt lat="59.164729" lon="18.130594">
        <ele>46</ele>
        <time>2019-11-04T12:29:31Z</time>
      </trkpt>
      <trkpt lat="59.164737" lon="18.130644">
        <ele>46</ele>
        <time>2019-11-04T12:29:33Z</time>
      </trkpt>
      <trkpt lat="59.164749" lon="18.130693">
        <ele>45</ele>
        <time>2019-11-04T12:29:35Z</time>
      </trkpt>
      <trkpt lat="59.164759" lon="18.130738">
        <ele>45</ele>
        <time>2019-11-04T12:29:37Z</time>
      </trkpt>
      <trkpt lat="59.164771" lon="18.130783">
        <ele>44</ele>
        <time>2019-11-04T12:29:39Z</time>
      </trkpt>
      <trkpt lat="59.164778" lon="18.130836">
        <ele>44</ele>
        <time>2019-11-04T12:29:41Z</time>
      </trkpt>
      <trkpt lat="59.16478" lon="18.130897">
        <ele>44</ele>
        <time>2019-11-04T12:29:43Z</time>
      </trkpt>
      <trkpt lat="59.164779" lon="18.130955">
        <ele>44</ele>
        <time>2019-11-04T12:29:45Z</time>
      </trkpt>
      <trkpt lat="59.164771" lon="18.131012">
        <ele>44</ele>
        <time>2019-11-04T12:29:47Z</time>
      </trkpt>
      <trkpt lat="59.164762" lon="18.13107">
        <ele>43</ele>
        <time>2019-11-04T12:29:49Z</time>
      </trkpt>
      <trkpt lat="59.164757" lon="18.13113">
        <ele>43</ele>
        <time>2019-11-04T12:29:51Z</time>
      </trkpt>
      <trkpt lat="59.164751" lon="18.131189">
        <ele>43</ele>
        <time>2019-11-04T12:29:53Z</time>
      </trkpt>
      <trkpt lat="59.164745" lon="18.13125">
        <ele>43</ele>
        <time>2019-11-04T12:29:55Z</time>
      </trkpt>
      <trkpt lat="59.164739" lon="18.131311">
        <ele>43</ele>
        <time>2019-11-04T12:29:57Z</time>
      </trkpt>
      <trkpt lat="59.164732" lon="18.131372">
        <ele>43</ele>
        <time>2019-11-04T12:29:59Z</time>
      </trkpt>
      <trkpt lat="59.164726" lon="18.131428">
        <ele>43</ele>
        <time>2019-11-04T12:30:01Z</time>
      </trkpt>
      <trkpt lat="59.16472" lon="18.131485">
        <ele>43</ele>
        <time>2019-11-04T12:30:03Z</time>
      </trkpt>
      <trkpt lat="59.164711" lon="18.131544">
        <ele>43</ele>
        <time>2019-11-04T12:30:05Z</time>
      </trkpt>
      <trkpt lat="59.1647" lon="18.131599">
        <ele>43</ele>
        <time>2019-11-04T12:30:07Z</time>
      </trkpt>
      <trkpt lat="59.164696" lon="18.131652">
        <ele>43</ele>
        <time>2019-11-04T12:30:09Z</time>
      </trkpt>
      <trkpt lat="59.164689" lon="18.131702">
        <ele>43</ele>
        <time>2019-11-04T12:30:11Z</time>
      </trkpt>
      <trkpt lat="59.164679" lon="18.131757">
        <ele>43</ele>
        <time>2019-11-04T12:30:13Z</time>
      </trkpt>
      <trkpt lat="59.16467" lon="18.131817">
        <ele>43</ele>
        <time>2019-11-04T12:30:15Z</time>
      </trkpt>
      <trkpt lat="59.164663" lon="18.131873">
        <ele>44</ele>
        <time>2019-11-04T12:30:17Z</time>
      </trkpt>
      <trkpt lat="59.164658" lon="18.131928">
        <ele>44</ele>
        <time>2019-11-04T12:30:19Z</time>
      </trkpt>
      <trkpt lat="59.164649" lon="18.131976">
        <ele>44</ele>
        <time>2019-11-04T12:30:21Z</time>
      </trkpt>
      <trkpt lat="59.164652" lon="18.132025">
        <ele>45</ele>
        <time>2019-11-04T12:30:23Z</time>
      </trkpt>
      <trkpt lat="59.164661" lon="18.132064">
        <ele>45</ele>
        <time>2019-11-04T12:30:25Z</time>
      </trkpt>
      <trkpt lat="59.164669" lon="18.132101">
        <ele>45</ele>
        <time>2019-11-04T12:30:27Z</time>
      </trkpt>
      <trkpt lat="59.164678" lon="18.132145">
        <ele>45</ele>
        <time>2019-11-04T12:30:29Z</time>
      </trkpt>
      <trkpt lat="59.164685" lon="18.132184">
        <ele>45</ele>
        <time>2019-11-04T12:30:31Z</time>
      </trkpt>
      <trkpt lat="59.164699" lon="18.132229">
        <ele>45</ele>
        <time>2019-11-04T12:30:33Z</time>
      </trkpt>
      <trkpt lat="59.164715" lon="18.132271">
        <ele>45</ele>
        <time>2019-11-04T12:30:35Z</time>
      </trkpt>
      <trkpt lat="59.164729" lon="18.132314">
        <ele>46</ele>
        <time>2019-11-04T12:30:37Z</time>
      </trkpt>
      <trkpt lat="59.16474" lon="18.132372">
        <ele>46</ele>
        <time>2019-11-04T12:30:39Z</time>
      </trkpt>
      <trkpt lat="59.164753" lon="18.132426">
        <ele>46</ele>
        <time>2019-11-04T12:30:41Z</time>
      </trkpt>
      <trkpt lat="59.164762" lon="18.132477">
        <ele>46</ele>
        <time>2019-11-04T12:30:43Z</time>
      </trkpt>
      <trkpt lat="59.164772" lon="18.132523">
        <ele>46</ele>
        <time>2019-11-04T12:30:45Z</time>
      </trkpt>
      <trkpt lat="59.164787" lon="18.132552">
        <ele>47</ele>
        <time>2019-11-04T12:30:47Z</time>
      </trkpt>
      <trkpt lat="59.1648" lon="18.132584">
        <ele>47</ele>
        <time>2019-11-04T12:30:49Z</time>
      </trkpt>
      <trkpt lat="59.16481" lon="18.132626">
        <ele>47</ele>
        <time>2019-11-04T12:30:51Z</time>
      </trkpt>
      <trkpt lat="59.164824" lon="18.132668">
        <ele>47</ele>
        <time>2019-11-04T12:30:53Z</time>
      </trkpt>
      <trkpt lat="59.164837" lon="18.132719">
        <ele>47</ele>
        <time>2019-11-04T12:30:55Z</time>
      </trkpt>
      <trkpt lat="59.164855" lon="18.132764">
        <ele>47</ele>
        <time>2019-11-04T12:30:57Z</time>
      </trkpt>
      <trkpt lat="59.164872" lon="18.132789">
        <ele>46</ele>
        <time>2019-11-04T12:31:00Z</time>
      </trkpt>
      <trkpt lat="59.164865" lon="18.132753">
        <ele>47</ele>
        <time>2019-11-04T12:31:05Z</time>
      </trkpt>
      <trkpt lat="59.164881" lon="18.13273">
        <ele>47</ele>
        <time>2019-11-04T12:31:09Z</time>
      </trkpt>
      <trkpt lat="59.164901" lon="18.13273">
        <ele>46</ele>
        <time>2019-11-04T12:31:13Z</time>
      </trkpt>
      <trkpt lat="59.164918" lon="18.132748">
        <ele>45</ele>
        <time>2019-11-04T12:31:16Z</time>
      </trkpt>
      <trkpt lat="59.164929" lon="18.132779">
        <ele>45</ele>
        <time>2019-11-04T12:31:22Z</time>
      </trkpt>
      <trkpt lat="59.164919" lon="18.13283">
        <ele>44</ele>
        <time>2019-11-04T12:31:25Z</time>
      </trkpt>
      <trkpt lat="59.164915" lon="18.132865">
        <ele>44</ele>
        <time>2019-11-04T12:31:27Z</time>
      </trkpt>
      <trkpt lat="59.164921" lon="18.132905">
        <ele>43</ele>
        <time>2019-11-04T12:31:28Z</time>
      </trkpt>
      <trkpt lat="59.164935" lon="18.132994">
        <ele>43</ele>
        <time>2019-11-04T12:31:30Z</time>
      </trkpt>
      <trkpt lat="59.164931" lon="18.133035">
        <ele>42</ele>
        <time>2019-11-04T12:31:32Z</time>
      </trkpt>
      <trkpt lat="59.164898" lon="18.133105">
        <ele>40</ele>
        <time>2019-11-04T12:31:36Z</time>
      </trkpt>
      <trkpt lat="59.164901" lon="18.13318">
        <ele>39</ele>
        <time>2019-11-04T12:31:38Z</time>
      </trkpt>
      <trkpt lat="59.164901" lon="18.133235">
        <ele>39</ele>
        <time>2019-11-04T12:31:39Z</time>
      </trkpt>
      <trkpt lat="59.1649" lon="18.133279">
        <ele>39</ele>
        <time>2019-11-04T12:31:40Z</time>
      </trkpt>
      <trkpt lat="59.164895" lon="18.133329">
        <ele>39</ele>
        <time>2019-11-04T12:31:42Z</time>
      </trkpt>
      <trkpt lat="59.164889" lon="18.13338">
        <ele>38</ele>
        <time>2019-11-04T12:31:44Z</time>
      </trkpt>
      <trkpt lat="59.164875" lon="18.133434">
        <ele>38</ele>
        <time>2019-11-04T12:31:46Z</time>
      </trkpt>
      <trkpt lat="59.164864" lon="18.133485">
        <ele>37</ele>
        <time>2019-11-04T12:31:48Z</time>
      </trkpt>
      <trkpt lat="59.164847" lon="18.133521">
        <ele>37</ele>
        <time>2019-11-04T12:31:50Z</time>
      </trkpt>
      <trkpt lat="59.164833" lon="18.133553">
        <ele>36</ele>
        <time>2019-11-04T12:31:52Z</time>
      </trkpt>
      <trkpt lat="59.164822" lon="18.13359">
        <ele>36</ele>
        <time>2019-11-04T12:31:54Z</time>
      </trkpt>
      <trkpt lat="59.164805" lon="18.133628">
        <ele>36</ele>
        <time>2019-11-04T12:31:57Z</time>
      </trkpt>
      <trkpt lat="59.164794" lon="18.133669">
        <ele>37</ele>
        <time>2019-11-04T12:31:59Z</time>
      </trkpt>
      <trkpt lat="59.164785" lon="18.133699">
        <ele>36</ele>
        <time>2019-11-04T12:32:00Z</time>
      </trkpt>
      <trkpt lat="59.164766" lon="18.133769">
        <ele>37</ele>
        <time>2019-11-04T12:32:02Z</time>
      </trkpt>
      <trkpt lat="59.164761" lon="18.13381">
        <ele>37</ele>
        <time>2019-11-04T12:32:03Z</time>
      </trkpt>
      <trkpt lat="59.164751" lon="18.133892">
        <ele>37</ele>
        <time>2019-11-04T12:32:05Z</time>
      </trkpt>
      <trkpt lat="59.164749" lon="18.133929">
        <ele>38</ele>
        <time>2019-11-04T12:32:06Z</time>
      </trkpt>
      <trkpt lat="59.164769" lon="18.13394">
        <ele>40</ele>
        <time>2019-11-04T12:32:09Z</time>
      </trkpt>
      <trkpt lat="59.164792" lon="18.133921">
        <ele>43</ele>
        <time>2019-11-04T12:32:11Z</time>
      </trkpt>
      <trkpt lat="59.164811" lon="18.133889">
        <ele>43</ele>
        <time>2019-11-04T12:32:14Z</time>
      </trkpt>
      <trkpt lat="59.164821" lon="18.133856">
        <ele>43</ele>
        <time>2019-11-04T12:32:17Z</time>
      </trkpt>
      <trkpt lat="59.164823" lon="18.1338">
        <ele>43</ele>
        <time>2019-11-04T12:32:20Z</time>
      </trkpt>
      <trkpt lat="59.164817" lon="18.133761">
        <ele>42</ele>
        <time>2019-11-04T12:32:22Z</time>
      </trkpt>
      <trkpt lat="59.164818" lon="18.133722">
        <ele>42</ele>
        <time>2019-11-04T12:32:24Z</time>
      </trkpt>
      <trkpt lat="59.164826" lon="18.133679">
        <ele>42</ele>
        <time>2019-11-04T12:32:26Z</time>
      </trkpt>
      <trkpt lat="59.164849" lon="18.133666">
        <ele>43</ele>
        <time>2019-11-04T12:32:28Z</time>
      </trkpt>
      <trkpt lat="59.164878" lon="18.133656">
        <ele>44</ele>
        <time>2019-11-04T12:32:30Z</time>
      </trkpt>
      <trkpt lat="59.164906" lon="18.13366">
        <ele>44</ele>
        <time>2019-11-04T12:32:32Z</time>
      </trkpt>
      <trkpt lat="59.164931" lon="18.133651">
        <ele>44</ele>
        <time>2019-11-04T12:32:34Z</time>
      </trkpt>
      <trkpt lat="59.164952" lon="18.13366">
        <ele>44</ele>
        <time>2019-11-04T12:32:36Z</time>
      </trkpt>
      <trkpt lat="59.164976" lon="18.133647">
        <ele>44</ele>
        <time>2019-11-04T12:32:38Z</time>
      </trkpt>
      <trkpt lat="59.165003" lon="18.133645">
        <ele>44</ele>
        <time>2019-11-04T12:32:40Z</time>
      </trkpt>
      <trkpt lat="59.165031" lon="18.133649">
        <ele>43</ele>
        <time>2019-11-04T12:32:42Z</time>
      </trkpt>
      <trkpt lat="59.16505" lon="18.133653">
        <ele>43</ele>
        <time>2019-11-04T12:32:43Z</time>
      </trkpt>
      <trkpt lat="59.165078" lon="18.133671">
        <ele>43</ele>
        <time>2019-11-04T12:32:45Z</time>
      </trkpt>
      <trkpt lat="59.165096" lon="18.133675">
        <ele>42</ele>
        <time>2019-11-04T12:32:46Z</time>
      </trkpt>
      <trkpt lat="59.165124" lon="18.133705">
        <ele>42</ele>
        <time>2019-11-04T12:32:48Z</time>
      </trkpt>
      <trkpt lat="59.165153" lon="18.133728">
        <ele>42</ele>
        <time>2019-11-04T12:32:50Z</time>
      </trkpt>
      <trkpt lat="59.16518" lon="18.133749">
        <ele>42</ele>
        <time>2019-11-04T12:32:52Z</time>
      </trkpt>
      <trkpt lat="59.165205" lon="18.133773">
        <ele>42</ele>
        <time>2019-11-04T12:32:54Z</time>
      </trkpt>
      <trkpt lat="59.165229" lon="18.133798">
        <ele>42</ele>
        <time>2019-11-04T12:32:56Z</time>
      </trkpt>
      <trkpt lat="59.165257" lon="18.133823">
        <ele>42</ele>
        <time>2019-11-04T12:32:58Z</time>
      </trkpt>
      <trkpt lat="59.165283" lon="18.133846">
        <ele>42</ele>
        <time>2019-11-04T12:33:00Z</time>
      </trkpt>
      <trkpt lat="59.165306" lon="18.133864">
        <ele>42</ele>
        <time>2019-11-04T12:33:02Z</time>
      </trkpt>
      <trkpt lat="59.165331" lon="18.133881">
        <ele>42</ele>
        <time>2019-11-04T12:33:04Z</time>
      </trkpt>
      <trkpt lat="59.165356" lon="18.13389">
        <ele>42</ele>
        <time>2019-11-04T12:33:06Z</time>
      </trkpt>
      <trkpt lat="59.165382" lon="18.133896">
        <ele>42</ele>
        <time>2019-11-04T12:33:08Z</time>
      </trkpt>
      <trkpt lat="59.165406" lon="18.133911">
        <ele>42</ele>
        <time>2019-11-04T12:33:10Z</time>
      </trkpt>
      <trkpt lat="59.165434" lon="18.133927">
        <ele>41</ele>
        <time>2019-11-04T12:33:12Z</time>
      </trkpt>
      <trkpt lat="59.165462" lon="18.133935">
        <ele>40</ele>
        <time>2019-11-04T12:33:14Z</time>
      </trkpt>
      <trkpt lat="59.165492" lon="18.133941">
        <ele>40</ele>
        <time>2019-11-04T12:33:16Z</time>
      </trkpt>
      <trkpt lat="59.16551" lon="18.133955">
        <ele>40</ele>
        <time>2019-11-04T12:33:17Z</time>
      </trkpt>
      <trkpt lat="59.165527" lon="18.13397">
        <ele>40</ele>
        <time>2019-11-04T12:33:18Z</time>
      </trkpt>
      <trkpt lat="59.165553" lon="18.133997">
        <ele>40</ele>
        <time>2019-11-04T12:33:20Z</time>
      </trkpt>
      <trkpt lat="59.165576" lon="18.134033">
        <ele>40</ele>
        <time>2019-11-04T12:33:22Z</time>
      </trkpt>
      <trkpt lat="59.1656" lon="18.134043">
        <ele>41</ele>
        <time>2019-11-04T12:33:24Z</time>
      </trkpt>
      <trkpt lat="59.165626" lon="18.134054">
        <ele>42</ele>
        <time>2019-11-04T12:33:26Z</time>
      </trkpt>
      <trkpt lat="59.165652" lon="18.134064">
        <ele>43</ele>
        <time>2019-11-04T12:33:28Z</time>
      </trkpt>
      <trkpt lat="59.165682" lon="18.134088">
        <ele>43</ele>
        <time>2019-11-04T12:33:30Z</time>
      </trkpt>
      <trkpt lat="59.165708" lon="18.134107">
        <ele>43</ele>
        <time>2019-11-04T12:33:32Z</time>
      </trkpt>
      <trkpt lat="59.165738" lon="18.134132">
        <ele>43</ele>
        <time>2019-11-04T12:33:34Z</time>
      </trkpt>
      <trkpt lat="59.165762" lon="18.134149">
        <ele>43</ele>
        <time>2019-11-04T12:33:36Z</time>
      </trkpt>
      <trkpt lat="59.165784" lon="18.134167">
        <ele>44</ele>
        <time>2019-11-04T12:33:38Z</time>
      </trkpt>
      <trkpt lat="59.165814" lon="18.134177">
        <ele>43</ele>
        <time>2019-11-04T12:33:40Z</time>
      </trkpt>
      <trkpt lat="59.165836" lon="18.134199">
        <ele>43</ele>
        <time>2019-11-04T12:33:42Z</time>
      </trkpt>
      <trkpt lat="59.165861" lon="18.134205">
        <ele>43</ele>
        <time>2019-11-04T12:33:44Z</time>
      </trkpt>
      <trkpt lat="59.165891" lon="18.134202">
        <ele>43</ele>
        <time>2019-11-04T12:33:46Z</time>
      </trkpt>
      <trkpt lat="59.165923" lon="18.134194">
        <ele>43</ele>
        <time>2019-11-04T12:33:48Z</time>
      </trkpt>
      <trkpt lat="59.16595" lon="18.134198">
        <ele>43</ele>
        <time>2019-11-04T12:33:50Z</time>
      </trkpt>
      <trkpt lat="59.165974" lon="18.134224">
        <ele>43</ele>
        <time>2019-11-04T12:33:52Z</time>
      </trkpt>
      <trkpt lat="59.165996" lon="18.134256">
        <ele>43</ele>
        <time>2019-11-04T12:33:54Z</time>
      </trkpt>
      <trkpt lat="59.166024" lon="18.134284">
        <ele>44</ele>
        <time>2019-11-04T12:33:56Z</time>
      </trkpt>
      <trkpt lat="59.166048" lon="18.134308">
        <ele>44</ele>
        <time>2019-11-04T12:33:58Z</time>
      </trkpt>
      <trkpt lat="59.166072" lon="18.134335">
        <ele>44</ele>
        <time>2019-11-04T12:34:00Z</time>
      </trkpt>
      <trkpt lat="59.166101" lon="18.134342">
        <ele>44</ele>
        <time>2019-11-04T12:34:02Z</time>
      </trkpt>
      <trkpt lat="59.166126" lon="18.134351">
        <ele>45</ele>
        <time>2019-11-04T12:34:04Z</time>
      </trkpt>
      <trkpt lat="59.166148" lon="18.134359">
        <ele>44</ele>
        <time>2019-11-04T12:34:06Z</time>
      </trkpt>
      <trkpt lat="59.166172" lon="18.134386">
        <ele>44</ele>
        <time>2019-11-04T12:34:08Z</time>
      </trkpt>
      <trkpt lat="59.166194" lon="18.134417">
        <ele>44</ele>
        <time>2019-11-04T12:34:10Z</time>
      </trkpt>
      <trkpt lat="59.166222" lon="18.134439">
        <ele>44</ele>
        <time>2019-11-04T12:34:12Z</time>
      </trkpt>
      <trkpt lat="59.166253" lon="18.134448">
        <ele>44</ele>
        <time>2019-11-04T12:34:14Z</time>
      </trkpt>
      <trkpt lat="59.166285" lon="18.134449">
        <ele>44</ele>
        <time>2019-11-04T12:34:16Z</time>
      </trkpt>
      <trkpt lat="59.166315" lon="18.134458">
        <ele>44</ele>
        <time>2019-11-04T12:34:18Z</time>
      </trkpt>
      <trkpt lat="59.166344" lon="18.134462">
        <ele>44</ele>
        <time>2019-11-04T12:34:20Z</time>
      </trkpt>
      <trkpt lat="59.166368" lon="18.134473">
        <ele>44</ele>
        <time>2019-11-04T12:34:22Z</time>
      </trkpt>
      <trkpt lat="59.166401" lon="18.13449">
        <ele>44</ele>
        <time>2019-11-04T12:34:24Z</time>
      </trkpt>
      <trkpt lat="59.166431" lon="18.134518">
        <ele>44</ele>
        <time>2019-11-04T12:34:26Z</time>
      </trkpt>
      <trkpt lat="59.166449" lon="18.134536">
        <ele>43</ele>
        <time>2019-11-04T12:34:27Z</time>
      </trkpt>
      <trkpt lat="59.166464" lon="18.134558">
        <ele>43</ele>
        <time>2019-11-04T12:34:28Z</time>
      </trkpt>
      <trkpt lat="59.16649" lon="18.134574">
        <ele>44</ele>
        <time>2019-11-04T12:34:30Z</time>
      </trkpt>
      <trkpt lat="59.166515" lon="18.134597">
        <ele>44</ele>
        <time>2019-11-04T12:34:32Z</time>
      </trkpt>
      <trkpt lat="59.166539" lon="18.134615">
        <ele>44</ele>
        <time>2019-11-04T12:34:34Z</time>
      </trkpt>
      <trkpt lat="59.166563" lon="18.13463">
        <ele>44</ele>
        <time>2019-11-04T12:34:36Z</time>
      </trkpt>
      <trkpt lat="59.166592" lon="18.134645">
        <ele>44</ele>
        <time>2019-11-04T12:34:38Z</time>
      </trkpt>
      <trkpt lat="59.16662" lon="18.134657">
        <ele>44</ele>
        <time>2019-11-04T12:34:40Z</time>
      </trkpt>
      <trkpt lat="59.166648" lon="18.134675">
        <ele>44</ele>
        <time>2019-11-04T12:34:42Z</time>
      </trkpt>
      <trkpt lat="59.166675" lon="18.134697">
        <ele>44</ele>
        <time>2019-11-04T12:34:44Z</time>
      </trkpt>
      <trkpt lat="59.166704" lon="18.134715">
        <ele>44</ele>
        <time>2019-11-04T12:34:46Z</time>
      </trkpt>
      <trkpt lat="59.166735" lon="18.134729">
        <ele>44</ele>
        <time>2019-11-04T12:34:48Z</time>
      </trkpt>
      <trkpt lat="59.166765" lon="18.134747">
        <ele>44</ele>
        <time>2019-11-04T12:34:50Z</time>
      </trkpt>
      <trkpt lat="59.166794" lon="18.134763">
        <ele>44</ele>
        <time>2019-11-04T12:34:52Z</time>
      </trkpt>
      <trkpt lat="59.166824" lon="18.134779">
        <ele>44</ele>
        <time>2019-11-04T12:34:54Z</time>
      </trkpt>
      <trkpt lat="59.166853" lon="18.134794">
        <ele>44</ele>
        <time>2019-11-04T12:34:56Z</time>
      </trkpt>
      <trkpt lat="59.16688" lon="18.134815">
        <ele>44</ele>
        <time>2019-11-04T12:34:58Z</time>
      </trkpt>
      <trkpt lat="59.166911" lon="18.134837">
        <ele>44</ele>
        <time>2019-11-04T12:35:00Z</time>
      </trkpt>
      <trkpt lat="59.16694" lon="18.134862">
        <ele>44</ele>
        <time>2019-11-04T12:35:02Z</time>
      </trkpt>
      <trkpt lat="59.166969" lon="18.13488">
        <ele>44</ele>
        <time>2019-11-04T12:35:04Z</time>
      </trkpt>
      <trkpt lat="59.166996" lon="18.134897">
        <ele>44</ele>
        <time>2019-11-04T12:35:06Z</time>
      </trkpt>
      <trkpt lat="59.167026" lon="18.134912">
        <ele>44</ele>
        <time>2019-11-04T12:35:08Z</time>
      </trkpt>
      <trkpt lat="59.167056" lon="18.134923">
        <ele>43</ele>
        <time>2019-11-04T12:35:10Z</time>
      </trkpt>
      <trkpt lat="59.167085" lon="18.134948">
        <ele>43</ele>
        <time>2019-11-04T12:35:12Z</time>
      </trkpt>
      <trkpt lat="59.167117" lon="18.134968">
        <ele>43</ele>
        <time>2019-11-04T12:35:14Z</time>
      </trkpt>
      <trkpt lat="59.167146" lon="18.134992">
        <ele>43</ele>
        <time>2019-11-04T12:35:16Z</time>
      </trkpt>
      <trkpt lat="59.167176" lon="18.135016">
        <ele>43</ele>
        <time>2019-11-04T12:35:18Z</time>
      </trkpt>
      <trkpt lat="59.167206" lon="18.13504">
        <ele>42</ele>
        <time>2019-11-04T12:35:20Z</time>
      </trkpt>
      <trkpt lat="59.167235" lon="18.135067">
        <ele>42</ele>
        <time>2019-11-04T12:35:22Z</time>
      </trkpt>
      <trkpt lat="59.167263" lon="18.135091">
        <ele>42</ele>
        <time>2019-11-04T12:35:24Z</time>
      </trkpt>
      <trkpt lat="59.167292" lon="18.135118">
        <ele>42</ele>
        <time>2019-11-04T12:35:26Z</time>
      </trkpt>
      <trkpt lat="59.167322" lon="18.135139">
        <ele>42</ele>
        <time>2019-11-04T12:35:28Z</time>
      </trkpt>
      <trkpt lat="59.167349" lon="18.13516">
        <ele>41</ele>
        <time>2019-11-04T12:35:30Z</time>
      </trkpt>
      <trkpt lat="59.167375" lon="18.135184">
        <ele>42</ele>
        <time>2019-11-04T12:35:32Z</time>
      </trkpt>
      <trkpt lat="59.167397" lon="18.135191">
        <ele>42</ele>
        <time>2019-11-04T12:35:34Z</time>
      </trkpt>
      <trkpt lat="59.167421" lon="18.135184">
        <ele>42</ele>
        <time>2019-11-04T12:35:36Z</time>
      </trkpt>
      <trkpt lat="59.167449" lon="18.135186">
        <ele>42</ele>
        <time>2019-11-04T12:35:38Z</time>
      </trkpt>
      <trkpt lat="59.167479" lon="18.135184">
        <ele>43</ele>
        <time>2019-11-04T12:35:40Z</time>
      </trkpt>
      <trkpt lat="59.167508" lon="18.135176">
        <ele>43</ele>
        <time>2019-11-04T12:35:42Z</time>
      </trkpt>
      <trkpt lat="59.167537" lon="18.13516">
        <ele>43</ele>
        <time>2019-11-04T12:35:44Z</time>
      </trkpt>
      <trkpt lat="59.167561" lon="18.135153">
        <ele>44</ele>
        <time>2019-11-04T12:35:46Z</time>
      </trkpt>
      <trkpt lat="59.167581" lon="18.13517">
        <ele>45</ele>
        <time>2019-11-04T12:35:48Z</time>
      </trkpt>
      <trkpt lat="59.167615" lon="18.135172">
        <ele>45</ele>
        <time>2019-11-04T12:35:50Z</time>
      </trkpt>
      <trkpt lat="59.167641" lon="18.135177">
        <ele>45</ele>
        <time>2019-11-04T12:35:52Z</time>
      </trkpt>
      <trkpt lat="59.167665" lon="18.135186">
        <ele>46</ele>
        <time>2019-11-04T12:35:54Z</time>
      </trkpt>
      <trkpt lat="59.167687" lon="18.135229">
        <ele>46</ele>
        <time>2019-11-04T12:35:56Z</time>
      </trkpt>
      <trkpt lat="59.16771" lon="18.135255">
        <ele>45</ele>
        <time>2019-11-04T12:35:58Z</time>
      </trkpt>
      <trkpt lat="59.167612" lon="18.135311">
        <ele>45</ele>
        <time>2019-11-04T12:36:17Z</time>
      </trkpt>
      <trkpt lat="59.167672" lon="18.135466">
        <ele>45</ele>
        <time>2019-11-04T12:36:24Z</time>
      </trkpt>
      <trkpt lat="59.167684" lon="18.135641">
        <ele>45</ele>
        <time>2019-11-04T12:36:31Z</time>
      </trkpt>
      <trkpt lat="59.167648" lon="18.135808">
        <ele>46</ele>
        <time>2019-11-04T12:36:39Z</time>
      </trkpt>
      <trkpt lat="59.167695" lon="18.135962">
        <ele>47</ele>
        <time>2019-11-04T12:36:51Z</time>
      </trkpt>
      <trkpt lat="59.167751" lon="18.1361">
        <ele>48</ele>
        <time>2019-11-04T12:36:58Z</time>
      </trkpt>
      <trkpt lat="59.167773" lon="18.136178">
        <ele>50</ele>
        <time>2019-11-04T12:37:05Z</time>
      </trkpt>
      <trkpt lat="59.167787" lon="18.136226">
        <ele>51</ele>
        <time>2019-11-04T12:37:07Z</time>
      </trkpt>
      <trkpt lat="59.167814" lon="18.136245">
        <ele>53</ele>
        <time>2019-11-04T12:37:10Z</time>
      </trkpt>
      <trkpt lat="59.16784" lon="18.136263">
        <ele>55</ele>
        <time>2019-11-04T12:37:12Z</time>
      </trkpt>
      <trkpt lat="59.167866" lon="18.136275">
        <ele>56</ele>
        <time>2019-11-04T12:37:14Z</time>
      </trkpt>
      <trkpt lat="59.167897" lon="18.13627">
        <ele>57</ele>
        <time>2019-11-04T12:37:16Z</time>
      </trkpt>
      <trkpt lat="59.167915" lon="18.136278">
        <ele>57</ele>
        <time>2019-11-04T12:37:17Z</time>
      </trkpt>
      <trkpt lat="59.167945" lon="18.136285">
        <ele>58</ele>
        <time>2019-11-04T12:37:19Z</time>
      </trkpt>
      <trkpt lat="59.167961" lon="18.136318">
        <ele>58</ele>
        <time>2019-11-04T12:37:21Z</time>
      </trkpt>
      <trkpt lat="59.167982" lon="18.136328">
        <ele>59</ele>
        <time>2019-11-04T12:37:23Z</time>
      </trkpt>
      <trkpt lat="59.168006" lon="18.136337">
        <ele>59</ele>
        <time>2019-11-04T12:37:25Z</time>
      </trkpt>
      <trkpt lat="59.168037" lon="18.136352">
        <ele>59</ele>
        <time>2019-11-04T12:37:27Z</time>
      </trkpt>
      <trkpt lat="59.168065" lon="18.136382">
        <ele>60</ele>
        <time>2019-11-04T12:37:29Z</time>
      </trkpt>
      <trkpt lat="59.168139" lon="18.13645">
        <ele>61</ele>
        <time>2019-11-04T12:37:33Z</time>
      </trkpt>
      <trkpt lat="59.168167" lon="18.136481">
        <ele>61</ele>
        <time>2019-11-04T12:37:35Z</time>
      </trkpt>
      <trkpt lat="59.168189" lon="18.136514">
        <ele>62</ele>
        <time>2019-11-04T12:37:37Z</time>
      </trkpt>
      <trkpt lat="59.168213" lon="18.13653">
        <ele>62</ele>
        <time>2019-11-04T12:37:39Z</time>
      </trkpt>
      <trkpt lat="59.168234" lon="18.136554">
        <ele>63</ele>
        <time>2019-11-04T12:37:41Z</time>
      </trkpt>
      <trkpt lat="59.168258" lon="18.13657">
        <ele>64</ele>
        <time>2019-11-04T12:37:44Z</time>
      </trkpt>
      <trkpt lat="59.168274" lon="18.136587">
        <ele>65</ele>
        <time>2019-11-04T12:37:46Z</time>
      </trkpt>
      <trkpt lat="59.1683" lon="18.136591">
        <ele>67</ele>
        <time>2019-11-04T12:37:48Z</time>
      </trkpt>
      <trkpt lat="59.168315" lon="18.136632">
        <ele>69</ele>
        <time>2019-11-04T12:37:51Z</time>
      </trkpt>
      <trkpt lat="59.168325" lon="18.136684">
        <ele>69</ele>
        <time>2019-11-04T12:37:53Z</time>
      </trkpt>
      <trkpt lat="59.168323" lon="18.136742">
        <ele>70</ele>
        <time>2019-11-04T12:37:55Z</time>
      </trkpt>
      <trkpt lat="59.168325" lon="18.136792">
        <ele>71</ele>
        <time>2019-11-04T12:37:57Z</time>
      </trkpt>
      <trkpt lat="59.168333" lon="18.136849">
        <ele>72</ele>
        <time>2019-11-04T12:37:59Z</time>
      </trkpt>
      <trkpt lat="59.168339" lon="18.136885">
        <ele>73</ele>
        <time>2019-11-04T12:38:00Z</time>
      </trkpt>
      <trkpt lat="59.168345" lon="18.136922">
        <ele>73</ele>
        <time>2019-11-04T12:38:01Z</time>
      </trkpt>
      <trkpt lat="59.168353" lon="18.136972">
        <ele>73</ele>
        <time>2019-11-04T12:38:02Z</time>
      </trkpt>
      <trkpt lat="59.16836" lon="18.137024">
        <ele>73</ele>
        <time>2019-11-04T12:38:03Z</time>
      </trkpt>
      <trkpt lat="59.16836" lon="18.137062">
        <ele>73</ele>
        <time>2019-11-04T12:38:04Z</time>
      </trkpt>
      <trkpt lat="59.168352" lon="18.137123">
        <ele>73</ele>
        <time>2019-11-04T12:38:06Z</time>
      </trkpt>
      <trkpt lat="59.168342" lon="18.137177">
        <ele>72</ele>
        <time>2019-11-04T12:38:08Z</time>
      </trkpt>
      <trkpt lat="59.168331" lon="18.137242">
        <ele>71</ele>
        <time>2019-11-04T12:38:10Z</time>
      </trkpt>
      <trkpt lat="59.168316" lon="18.137302">
        <ele>71</ele>
        <time>2019-11-04T12:38:12Z</time>
      </trkpt>
      <trkpt lat="59.168304" lon="18.137363">
        <ele>71</ele>
        <time>2019-11-04T12:38:14Z</time>
      </trkpt>
      <trkpt lat="59.168293" lon="18.137418">
        <ele>71</ele>
        <time>2019-11-04T12:38:16Z</time>
      </trkpt>
      <trkpt lat="59.168281" lon="18.137474">
        <ele>70</ele>
        <time>2019-11-04T12:38:18Z</time>
      </trkpt>
      <trkpt lat="59.168269" lon="18.137514">
        <ele>70</ele>
        <time>2019-11-04T12:38:20Z</time>
      </trkpt>
      <trkpt lat="59.168276" lon="18.137561">
        <ele>70</ele>
        <time>2019-11-04T12:38:22Z</time>
      </trkpt>
      <trkpt lat="59.168303" lon="18.137581">
        <ele>70</ele>
        <time>2019-11-04T12:38:25Z</time>
      </trkpt>
      <trkpt lat="59.168329" lon="18.137622">
        <ele>70</ele>
        <time>2019-11-04T12:38:27Z</time>
      </trkpt>
      <trkpt lat="59.168358" lon="18.137648">
        <ele>70</ele>
        <time>2019-11-04T12:38:29Z</time>
      </trkpt>
      <trkpt lat="59.168391" lon="18.137675">
        <ele>70</ele>
        <time>2019-11-04T12:38:31Z</time>
      </trkpt>
      <trkpt lat="59.168423" lon="18.137693">
        <ele>70</ele>
        <time>2019-11-04T12:38:33Z</time>
      </trkpt>
      <trkpt lat="59.168449" lon="18.137709">
        <ele>70</ele>
        <time>2019-11-04T12:38:35Z</time>
      </trkpt>
      <trkpt lat="59.168475" lon="18.137729">
        <ele>70</ele>
        <time>2019-11-04T12:38:37Z</time>
      </trkpt>
      <trkpt lat="59.168502" lon="18.137739">
        <ele>69</ele>
        <time>2019-11-04T12:38:39Z</time>
      </trkpt>
      <trkpt lat="59.16853" lon="18.13775">
        <ele>69</ele>
        <time>2019-11-04T12:38:41Z</time>
      </trkpt>
      <trkpt lat="59.168558" lon="18.137775">
        <ele>69</ele>
        <time>2019-11-04T12:38:43Z</time>
      </trkpt>
      <trkpt lat="59.168589" lon="18.13779">
        <ele>69</ele>
        <time>2019-11-04T12:38:45Z</time>
      </trkpt>
      <trkpt lat="59.168617" lon="18.137812">
        <ele>69</ele>
        <time>2019-11-04T12:38:47Z</time>
      </trkpt>
      <trkpt lat="59.168645" lon="18.137833">
        <ele>69</ele>
        <time>2019-11-04T12:38:49Z</time>
      </trkpt>
      <trkpt lat="59.168675" lon="18.137852">
        <ele>69</ele>
        <time>2019-11-04T12:38:51Z</time>
      </trkpt>
      <trkpt lat="59.168703" lon="18.137871">
        <ele>68</ele>
        <time>2019-11-04T12:38:53Z</time>
      </trkpt>
      <trkpt lat="59.168732" lon="18.137883">
        <ele>68</ele>
        <time>2019-11-04T12:38:55Z</time>
      </trkpt>
      <trkpt lat="59.168762" lon="18.137897">
        <ele>68</ele>
        <time>2019-11-04T12:38:57Z</time>
      </trkpt>
      <trkpt lat="59.168785" lon="18.137913">
        <ele>68</ele>
        <time>2019-11-04T12:38:59Z</time>
      </trkpt>
      <trkpt lat="59.168802" lon="18.137928">
        <ele>68</ele>
        <time>2019-11-04T12:39:01Z</time>
      </trkpt>
      <trkpt lat="59.168819" lon="18.137958">
        <ele>67</ele>
        <time>2019-11-04T12:39:03Z</time>
      </trkpt>
      <trkpt lat="59.168833" lon="18.13798">
        <ele>67</ele>
        <time>2019-11-04T12:39:05Z</time>
      </trkpt>
      <trkpt lat="59.168852" lon="18.138024">
        <ele>67</ele>
        <time>2019-11-04T12:39:08Z</time>
      </trkpt>
      <trkpt lat="59.168871" lon="18.138034">
        <ele>66</ele>
        <time>2019-11-04T12:39:10Z</time>
      </trkpt>
      <trkpt lat="59.168897" lon="18.138044">
        <ele>67</ele>
        <time>2019-11-04T12:39:12Z</time>
      </trkpt>
      <trkpt lat="59.168922" lon="18.138056">
        <ele>67</ele>
        <time>2019-11-04T12:39:14Z</time>
      </trkpt>
      <trkpt lat="59.168942" lon="18.13805">
        <ele>66</ele>
        <time>2019-11-04T12:39:15Z</time>
      </trkpt>
      <trkpt lat="59.168962" lon="18.138046">
        <ele>66</ele>
        <time>2019-11-04T12:39:16Z</time>
      </trkpt>
      <trkpt lat="59.16898" lon="18.138042">
        <ele>67</ele>
        <time>2019-11-04T12:39:17Z</time>
      </trkpt>
      <trkpt lat="59.169" lon="18.138048">
        <ele>66</ele>
        <time>2019-11-04T12:39:18Z</time>
      </trkpt>
      <trkpt lat="59.169029" lon="18.138052">
        <ele>67</ele>
        <time>2019-11-04T12:39:20Z</time>
      </trkpt>
      <trkpt lat="59.169057" lon="18.138056">
        <ele>67</ele>
        <time>2019-11-04T12:39:22Z</time>
      </trkpt>
      <trkpt lat="59.169084" lon="18.13806">
        <ele>67</ele>
        <time>2019-11-04T12:39:24Z</time>
      </trkpt>
      <trkpt lat="59.169115" lon="18.138074">
        <ele>67</ele>
        <time>2019-11-04T12:39:26Z</time>
      </trkpt>
      <trkpt lat="59.169144" lon="18.138086">
        <ele>67</ele>
        <time>2019-11-04T12:39:28Z</time>
      </trkpt>
      <trkpt lat="59.169175" lon="18.138082">
        <ele>66</ele>
        <time>2019-11-04T12:39:30Z</time>
      </trkpt>
      <trkpt lat="59.169208" lon="18.138081">
        <ele>66</ele>
        <time>2019-11-04T12:39:32Z</time>
      </trkpt>
      <trkpt lat="59.169239" lon="18.138094">
        <ele>66</ele>
        <time>2019-11-04T12:39:34Z</time>
      </trkpt>
      <trkpt lat="59.169257" lon="18.138094">
        <ele>66</ele>
        <time>2019-11-04T12:39:35Z</time>
      </trkpt>
      <trkpt lat="59.169283" lon="18.138102">
        <ele>66</ele>
        <time>2019-11-04T12:39:37Z</time>
      </trkpt>
      <trkpt lat="59.169313" lon="18.138124">
        <ele>66</ele>
        <time>2019-11-04T12:39:39Z</time>
      </trkpt>
      <trkpt lat="59.169345" lon="18.138136">
        <ele>66</ele>
        <time>2019-11-04T12:39:41Z</time>
      </trkpt>
      <trkpt lat="59.169381" lon="18.138149">
        <ele>67</ele>
        <time>2019-11-04T12:39:43Z</time>
      </trkpt>
      <trkpt lat="59.1694" lon="18.13815">
        <ele>67</ele>
        <time>2019-11-04T12:39:44Z</time>
      </trkpt>
      <trkpt lat="59.169427" lon="18.138162">
        <ele>68</ele>
        <time>2019-11-04T12:39:46Z</time>
      </trkpt>
      <trkpt lat="59.169455" lon="18.138174">
        <ele>68</ele>
        <time>2019-11-04T12:39:48Z</time>
      </trkpt>
      <trkpt lat="59.16948" lon="18.138184">
        <ele>68</ele>
        <time>2019-11-04T12:39:50Z</time>
      </trkpt>
      <trkpt lat="59.169505" lon="18.1382">
        <ele>68</ele>
        <time>2019-11-04T12:39:52Z</time>
      </trkpt>
      <trkpt lat="59.169542" lon="18.138196">
        <ele>68</ele>
        <time>2019-11-04T12:39:54Z</time>
      </trkpt>
      <trkpt lat="59.169567" lon="18.138214">
        <ele>68</ele>
        <time>2019-11-04T12:39:56Z</time>
      </trkpt>
      <trkpt lat="59.169586" lon="18.138228">
        <ele>68</ele>
        <time>2019-11-04T12:39:58Z</time>
      </trkpt>
      <trkpt lat="59.169617" lon="18.138239">
        <ele>69</ele>
        <time>2019-11-04T12:40:00Z</time>
      </trkpt>
      <trkpt lat="59.169645" lon="18.13825">
        <ele>68</ele>
        <time>2019-11-04T12:40:02Z</time>
      </trkpt>
      <trkpt lat="59.169679" lon="18.138258">
        <ele>69</ele>
        <time>2019-11-04T12:40:04Z</time>
      </trkpt>
      <trkpt lat="59.169705" lon="18.138267">
        <ele>69</ele>
        <time>2019-11-04T12:40:06Z</time>
      </trkpt>
      <trkpt lat="59.169739" lon="18.138272">
        <ele>68</ele>
        <time>2019-11-04T12:40:09Z</time>
      </trkpt>
      <trkpt lat="59.169763" lon="18.138278">
        <ele>68</ele>
        <time>2019-11-04T12:40:10Z</time>
      </trkpt>
      <trkpt lat="59.169783" lon="18.138293">
        <ele>69</ele>
        <time>2019-11-04T12:40:11Z</time>
      </trkpt>
      <trkpt lat="59.1698" lon="18.138312">
        <ele>69</ele>
        <time>2019-11-04T12:40:12Z</time>
      </trkpt>
      <trkpt lat="59.169817" lon="18.138333">
        <ele>69</ele>
        <time>2019-11-04T12:40:13Z</time>
      </trkpt>
      <trkpt lat="59.169833" lon="18.138386">
        <ele>69</ele>
        <time>2019-11-04T12:40:15Z</time>
      </trkpt>
      <trkpt lat="59.169854" lon="18.138434">
        <ele>69</ele>
        <time>2019-11-04T12:40:17Z</time>
      </trkpt>
      <trkpt lat="59.169867" lon="18.138459">
        <ele>69</ele>
        <time>2019-11-04T12:40:18Z</time>
      </trkpt>
      <trkpt lat="59.169891" lon="18.138506">
        <ele>69</ele>
        <time>2019-11-04T12:40:20Z</time>
      </trkpt>
      <trkpt lat="59.169915" lon="18.138545">
        <ele>69</ele>
        <time>2019-11-04T12:40:22Z</time>
      </trkpt>
      <trkpt lat="59.169934" lon="18.138596">
        <ele>69</ele>
        <time>2019-11-04T12:40:24Z</time>
      </trkpt>
      <trkpt lat="59.169946" lon="18.13865">
        <ele>69</ele>
        <time>2019-11-04T12:40:26Z</time>
      </trkpt>
      <trkpt lat="59.169953" lon="18.138694">
        <ele>69</ele>
        <time>2019-11-04T12:40:28Z</time>
      </trkpt>
      <trkpt lat="59.169966" lon="18.138733">
        <ele>69</ele>
        <time>2019-11-04T12:40:30Z</time>
      </trkpt>
      <trkpt lat="59.169989" lon="18.138767">
        <ele>69</ele>
        <time>2019-11-04T12:40:32Z</time>
      </trkpt>
      <trkpt lat="59.170014" lon="18.138786">
        <ele>69</ele>
        <time>2019-11-04T12:40:34Z</time>
      </trkpt>
      <trkpt lat="59.170042" lon="18.138798">
        <ele>68</ele>
        <time>2019-11-04T12:40:36Z</time>
      </trkpt>
      <trkpt lat="59.170068" lon="18.138804">
        <ele>68</ele>
        <time>2019-11-04T12:40:38Z</time>
      </trkpt>
      <trkpt lat="59.170097" lon="18.138809">
        <ele>67</ele>
        <time>2019-11-04T12:40:40Z</time>
      </trkpt>
      <trkpt lat="59.17012" lon="18.138819">
        <ele>67</ele>
        <time>2019-11-04T12:40:42Z</time>
      </trkpt>
      <trkpt lat="59.170148" lon="18.138835">
        <ele>66</ele>
        <time>2019-11-04T12:40:44Z</time>
      </trkpt>
      <trkpt lat="59.170172" lon="18.138847">
        <ele>66</ele>
        <time>2019-11-04T12:40:46Z</time>
      </trkpt>
      <trkpt lat="59.170199" lon="18.138859">
        <ele>66</ele>
        <time>2019-11-04T12:40:48Z</time>
      </trkpt>
      <trkpt lat="59.170221" lon="18.138876">
        <ele>66</ele>
        <time>2019-11-04T12:40:50Z</time>
      </trkpt>
      <trkpt lat="59.170242" lon="18.138906">
        <ele>65</ele>
        <time>2019-11-04T12:40:52Z</time>
      </trkpt>
      <trkpt lat="59.170262" lon="18.138957">
        <ele>66</ele>
        <time>2019-11-04T12:40:54Z</time>
      </trkpt>
      <trkpt lat="59.170283" lon="18.139011">
        <ele>67</ele>
        <time>2019-11-04T12:40:56Z</time>
      </trkpt>
      <trkpt lat="59.170292" lon="18.139042">
        <ele>67</ele>
        <time>2019-11-04T12:40:57Z</time>
      </trkpt>
      <trkpt lat="59.17031" lon="18.139103">
        <ele>67</ele>
        <time>2019-11-04T12:40:59Z</time>
      </trkpt>
      <trkpt lat="59.170319" lon="18.139133">
        <ele>67</ele>
        <time>2019-11-04T12:41:00Z</time>
      </trkpt>
      <trkpt lat="59.170337" lon="18.139177">
        <ele>67</ele>
        <time>2019-11-04T12:41:02Z</time>
      </trkpt>
      <trkpt lat="59.170353" lon="18.139217">
        <ele>67</ele>
        <time>2019-11-04T12:41:04Z</time>
      </trkpt>
      <trkpt lat="59.17037" lon="18.139241">
        <ele>67</ele>
        <time>2019-11-04T12:41:06Z</time>
      </trkpt>
      <trkpt lat="59.170394" lon="18.139278">
        <ele>66</ele>
        <time>2019-11-04T12:41:08Z</time>
      </trkpt>
      <trkpt lat="59.170415" lon="18.139313">
        <ele>66</ele>
        <time>2019-11-04T12:41:10Z</time>
      </trkpt>
      <trkpt lat="59.170437" lon="18.139337">
        <ele>66</ele>
        <time>2019-11-04T12:41:12Z</time>
      </trkpt>
      <trkpt lat="59.17046" lon="18.139363">
        <ele>65</ele>
        <time>2019-11-04T12:41:14Z</time>
      </trkpt>
      <trkpt lat="59.170484" lon="18.139385">
        <ele>65</ele>
        <time>2019-11-04T12:41:16Z</time>
      </trkpt>
      <trkpt lat="59.17051" lon="18.139404">
        <ele>65</ele>
        <time>2019-11-04T12:41:18Z</time>
      </trkpt>
      <trkpt lat="59.170536" lon="18.139427">
        <ele>65</ele>
        <time>2019-11-04T12:41:20Z</time>
      </trkpt>
      <trkpt lat="59.170562" lon="18.139442">
        <ele>65</ele>
        <time>2019-11-04T12:41:22Z</time>
      </trkpt>
      <trkpt lat="59.170587" lon="18.139457">
        <ele>64</ele>
        <time>2019-11-04T12:41:24Z</time>
      </trkpt>
      <trkpt lat="59.170613" lon="18.139484">
        <ele>64</ele>
        <time>2019-11-04T12:41:26Z</time>
      </trkpt>
      <trkpt lat="59.17064" lon="18.139504">
        <ele>64</ele>
        <time>2019-11-04T12:41:28Z</time>
      </trkpt>
      <trkpt lat="59.170666" lon="18.139518">
        <ele>64</ele>
        <time>2019-11-04T12:41:30Z</time>
      </trkpt>
      <trkpt lat="59.170695" lon="18.139532">
        <ele>64</ele>
        <time>2019-11-04T12:41:32Z</time>
      </trkpt>
      <trkpt lat="59.170722" lon="18.139545">
        <ele>64</ele>
        <time>2019-11-04T12:41:34Z</time>
      </trkpt>
      <trkpt lat="59.170754" lon="18.139566">
        <ele>64</ele>
        <time>2019-11-04T12:41:36Z</time>
      </trkpt>
      <trkpt lat="59.170781" lon="18.139593">
        <ele>64</ele>
        <time>2019-11-04T12:41:38Z</time>
      </trkpt>
      <trkpt lat="59.170804" lon="18.139623">
        <ele>64</ele>
        <time>2019-11-04T12:41:40Z</time>
      </trkpt>
      <trkpt lat="59.17083" lon="18.139648">
        <ele>64</ele>
        <time>2019-11-04T12:41:42Z</time>
      </trkpt>
      <trkpt lat="59.170858" lon="18.139675">
        <ele>64</ele>
        <time>2019-11-04T12:41:44Z</time>
      </trkpt>
      <trkpt lat="59.170883" lon="18.139694">
        <ele>64</ele>
        <time>2019-11-04T12:41:46Z</time>
      </trkpt>
      <trkpt lat="59.170904" lon="18.139708">
        <ele>64</ele>
        <time>2019-11-04T12:41:48Z</time>
      </trkpt>
      <trkpt lat="59.170923" lon="18.139732">
        <ele>64</ele>
        <time>2019-11-04T12:41:50Z</time>
      </trkpt>
      <trkpt lat="59.17094" lon="18.139747">
        <ele>65</ele>
        <time>2019-11-04T12:41:52Z</time>
      </trkpt>
      <trkpt lat="59.17096" lon="18.13977">
        <ele>64</ele>
        <time>2019-11-04T12:41:55Z</time>
      </trkpt>
      <trkpt lat="59.170975" lon="18.139793">
        <ele>65</ele>
        <time>2019-11-04T12:41:58Z</time>
      </trkpt>
      <trkpt lat="59.170993" lon="18.139809">
        <ele>65</ele>
        <time>2019-11-04T12:42:00Z</time>
      </trkpt>
      <trkpt lat="59.171007" lon="18.139835">
        <ele>65</ele>
        <time>2019-11-04T12:42:02Z</time>
      </trkpt>
      <trkpt lat="59.171025" lon="18.139861">
        <ele>65</ele>
        <time>2019-11-04T12:42:04Z</time>
      </trkpt>
      <trkpt lat="59.171044" lon="18.13987">
        <ele>65</ele>
        <time>2019-11-04T12:42:06Z</time>
      </trkpt>
      <trkpt lat="59.171139" lon="18.13991">
        <ele>65</ele>
        <time>2019-11-04T12:42:14Z</time>
      </trkpt>
      <trkpt lat="59.171229" lon="18.139958">
        <ele>65</ele>
        <time>2019-11-04T12:42:20Z</time>
      </trkpt>
      <trkpt lat="59.171259" lon="18.139986">
        <ele>66</ele>
        <time>2019-11-04T12:42:22Z</time>
      </trkpt>
      <trkpt lat="59.17129" lon="18.140003">
        <ele>65</ele>
        <time>2019-11-04T12:42:24Z</time>
      </trkpt>
      <trkpt lat="59.171319" lon="18.140027">
        <ele>65</ele>
        <time>2019-11-04T12:42:26Z</time>
      </trkpt>
      <trkpt lat="59.171354" lon="18.140052">
        <ele>65</ele>
        <time>2019-11-04T12:42:28Z</time>
      </trkpt>
      <trkpt lat="59.171377" lon="18.14007">
        <ele>65</ele>
        <time>2019-11-04T12:42:29Z</time>
      </trkpt>
      <trkpt lat="59.171394" lon="18.140082">
        <ele>65</ele>
        <time>2019-11-04T12:42:30Z</time>
      </trkpt>
      <trkpt lat="59.171413" lon="18.140096">
        <ele>64</ele>
        <time>2019-11-04T12:42:31Z</time>
      </trkpt>
      <trkpt lat="59.171428" lon="18.140121">
        <ele>64</ele>
        <time>2019-11-04T12:42:32Z</time>
      </trkpt>
      <trkpt lat="59.171448" lon="18.14014">
        <ele>64</ele>
        <time>2019-11-04T12:42:33Z</time>
      </trkpt>
      <trkpt lat="59.171468" lon="18.140163">
        <ele>64</ele>
        <time>2019-11-04T12:42:34Z</time>
      </trkpt>
      <trkpt lat="59.171501" lon="18.140186">
        <ele>64</ele>
        <time>2019-11-04T12:42:36Z</time>
      </trkpt>
      <trkpt lat="59.171519" lon="18.140197">
        <ele>64</ele>
        <time>2019-11-04T12:42:37Z</time>
      </trkpt>
      <trkpt lat="59.171553" lon="18.140224">
        <ele>64</ele>
        <time>2019-11-04T12:42:39Z</time>
      </trkpt>
      <trkpt lat="59.171578" lon="18.140247">
        <ele>64</ele>
        <time>2019-11-04T12:42:41Z</time>
      </trkpt>
      <trkpt lat="59.171603" lon="18.140256">
        <ele>64</ele>
        <time>2019-11-04T12:42:43Z</time>
      </trkpt>
      <trkpt lat="59.171621" lon="18.14026">
        <ele>64</ele>
        <time>2019-11-04T12:42:45Z</time>
      </trkpt>
      <trkpt lat="59.171645" lon="18.140268">
        <ele>63</ele>
        <time>2019-11-04T12:42:47Z</time>
      </trkpt>
      <trkpt lat="59.171668" lon="18.140296">
        <ele>63</ele>
        <time>2019-11-04T12:42:49Z</time>
      </trkpt>
      <trkpt lat="59.171691" lon="18.140316">
        <ele>62</ele>
        <time>2019-11-04T12:42:51Z</time>
      </trkpt>
      <trkpt lat="59.171714" lon="18.140333">
        <ele>62</ele>
        <time>2019-11-04T12:42:53Z</time>
      </trkpt>
      <trkpt lat="59.171738" lon="18.140346">
        <ele>61</ele>
        <time>2019-11-04T12:42:55Z</time>
      </trkpt>
      <trkpt lat="59.171764" lon="18.140363">
        <ele>61</ele>
        <time>2019-11-04T12:42:57Z</time>
      </trkpt>
      <trkpt lat="59.171791" lon="18.140376">
        <ele>61</ele>
        <time>2019-11-04T12:42:59Z</time>
      </trkpt>
      <trkpt lat="59.171814" lon="18.140386">
        <ele>60</ele>
        <time>2019-11-04T12:43:01Z</time>
      </trkpt>
      <trkpt lat="59.17184" lon="18.140395">
        <ele>60</ele>
        <time>2019-11-04T12:43:03Z</time>
      </trkpt>
      <trkpt lat="59.171866" lon="18.140407">
        <ele>60</ele>
        <time>2019-11-04T12:43:05Z</time>
      </trkpt>
      <trkpt lat="59.17189" lon="18.140422">
        <ele>59</ele>
        <time>2019-11-04T12:43:07Z</time>
      </trkpt>
      <trkpt lat="59.171916" lon="18.140434">
        <ele>59</ele>
        <time>2019-11-04T12:43:09Z</time>
      </trkpt>
      <trkpt lat="59.171942" lon="18.140448">
        <ele>59</ele>
        <time>2019-11-04T12:43:11Z</time>
      </trkpt>
      <trkpt lat="59.171968" lon="18.140462">
        <ele>59</ele>
        <time>2019-11-04T12:43:13Z</time>
      </trkpt>
      <trkpt lat="59.171994" lon="18.140477">
        <ele>59</ele>
        <time>2019-11-04T12:43:15Z</time>
      </trkpt>
      <trkpt lat="59.172018" lon="18.140497">
        <ele>59</ele>
        <time>2019-11-04T12:43:17Z</time>
      </trkpt>
      <trkpt lat="59.172043" lon="18.140518">
        <ele>59</ele>
        <time>2019-11-04T12:43:19Z</time>
      </trkpt>
      <trkpt lat="59.17207" lon="18.140537">
        <ele>58</ele>
        <time>2019-11-04T12:43:21Z</time>
      </trkpt>
      <trkpt lat="59.172097" lon="18.140562">
        <ele>58</ele>
        <time>2019-11-04T12:43:23Z</time>
      </trkpt>
      <trkpt lat="59.172126" lon="18.140581">
        <ele>58</ele>
        <time>2019-11-04T12:43:25Z</time>
      </trkpt>
      <trkpt lat="59.17215" lon="18.140587">
        <ele>58</ele>
        <time>2019-11-04T12:43:27Z</time>
      </trkpt>
      <trkpt lat="59.172173" lon="18.140605">
        <ele>58</ele>
        <time>2019-11-04T12:43:29Z</time>
      </trkpt>
      <trkpt lat="59.172186" lon="18.140644">
        <ele>57</ele>
        <time>2019-11-04T12:43:31Z</time>
      </trkpt>
      <trkpt lat="59.172199" lon="18.140699">
        <ele>57</ele>
        <time>2019-11-04T12:43:33Z</time>
      </trkpt>
      <trkpt lat="59.172208" lon="18.14076">
        <ele>57</ele>
        <time>2019-11-04T12:43:35Z</time>
      </trkpt>
      <trkpt lat="59.172218" lon="18.140815">
        <ele>57</ele>
        <time>2019-11-04T12:43:37Z</time>
      </trkpt>
      <trkpt lat="59.17223" lon="18.14087">
        <ele>57</ele>
        <time>2019-11-04T12:43:39Z</time>
      </trkpt>
      <trkpt lat="59.172246" lon="18.140919">
        <ele>57</ele>
        <time>2019-11-04T12:43:41Z</time>
      </trkpt>
      <trkpt lat="59.172262" lon="18.140965">
        <ele>57</ele>
        <time>2019-11-04T12:43:43Z</time>
      </trkpt>
      <trkpt lat="59.172284" lon="18.141007">
        <ele>57</ele>
        <time>2019-11-04T12:43:45Z</time>
      </trkpt>
      <trkpt lat="59.17231" lon="18.141037">
        <ele>57</ele>
        <time>2019-11-04T12:43:47Z</time>
      </trkpt>
      <trkpt lat="59.172337" lon="18.141064">
        <ele>57</ele>
        <time>2019-11-04T12:43:49Z</time>
      </trkpt>
      <trkpt lat="59.172364" lon="18.141087">
        <ele>58</ele>
        <time>2019-11-04T12:43:51Z</time>
      </trkpt>
      <trkpt lat="59.172374" lon="18.141138">
        <ele>58</ele>
        <time>2019-11-04T12:43:53Z</time>
      </trkpt>
      <trkpt lat="59.172369" lon="18.141199">
        <ele>58</ele>
        <time>2019-11-04T12:43:55Z</time>
      </trkpt>
      <trkpt lat="59.172369" lon="18.141255">
        <ele>58</ele>
        <time>2019-11-04T12:43:57Z</time>
      </trkpt>
      <trkpt lat="59.172367" lon="18.141309">
        <ele>58</ele>
        <time>2019-11-04T12:43:59Z</time>
      </trkpt>
      <trkpt lat="59.172364" lon="18.141365">
        <ele>59</ele>
        <time>2019-11-04T12:44:01Z</time>
      </trkpt>
      <trkpt lat="59.172363" lon="18.141416">
        <ele>59</ele>
        <time>2019-11-04T12:44:03Z</time>
      </trkpt>
      <trkpt lat="59.172361" lon="18.141472">
        <ele>59</ele>
        <time>2019-11-04T12:44:05Z</time>
      </trkpt>
      <trkpt lat="59.17236" lon="18.141529">
        <ele>59</ele>
        <time>2019-11-04T12:44:07Z</time>
      </trkpt>
      <trkpt lat="59.172361" lon="18.141583">
        <ele>59</ele>
        <time>2019-11-04T12:44:09Z</time>
      </trkpt>
      <trkpt lat="59.17236" lon="18.141635">
        <ele>60</ele>
        <time>2019-11-04T12:44:11Z</time>
      </trkpt>
      <trkpt lat="59.172363" lon="18.14169">
        <ele>60</ele>
        <time>2019-11-04T12:44:13Z</time>
      </trkpt>
      <trkpt lat="59.172372" lon="18.141739">
        <ele>60</ele>
        <time>2019-11-04T12:44:15Z</time>
      </trkpt>
      <trkpt lat="59.172378" lon="18.141776">
        <ele>60</ele>
        <time>2019-11-04T12:44:17Z</time>
      </trkpt>
      <trkpt lat="59.172389" lon="18.14182">
        <ele>60</ele>
        <time>2019-11-04T12:44:19Z</time>
      </trkpt>
      <trkpt lat="59.172402" lon="18.141863">
        <ele>60</ele>
        <time>2019-11-04T12:44:21Z</time>
      </trkpt>
      <trkpt lat="59.172422" lon="18.141905">
        <ele>60</ele>
        <time>2019-11-04T12:44:23Z</time>
      </trkpt>
      <trkpt lat="59.172435" lon="18.14193">
        <ele>60</ele>
        <time>2019-11-04T12:44:24Z</time>
      </trkpt>
      <trkpt lat="59.172456" lon="18.141976">
        <ele>61</ele>
        <time>2019-11-04T12:44:26Z</time>
      </trkpt>
      <trkpt lat="59.172473" lon="18.142026">
        <ele>61</ele>
        <time>2019-11-04T12:44:28Z</time>
      </trkpt>
      <trkpt lat="59.172493" lon="18.142065">
        <ele>61</ele>
        <time>2019-11-04T12:44:30Z</time>
      </trkpt>
      <trkpt lat="59.172515" lon="18.142103">
        <ele>61</ele>
        <time>2019-11-04T12:44:32Z</time>
      </trkpt>
      <trkpt lat="59.172541" lon="18.142131">
        <ele>61</ele>
        <time>2019-11-04T12:44:34Z</time>
      </trkpt>
      <trkpt lat="59.172567" lon="18.142142">
        <ele>61</ele>
        <time>2019-11-04T12:44:36Z</time>
      </trkpt>
      <trkpt lat="59.172592" lon="18.14216">
        <ele>61</ele>
        <time>2019-11-04T12:44:38Z</time>
      </trkpt>
      <trkpt lat="59.172622" lon="18.14218">
        <ele>61</ele>
        <time>2019-11-04T12:44:40Z</time>
      </trkpt>
      <trkpt lat="59.172649" lon="18.142192">
        <ele>61</ele>
        <time>2019-11-04T12:44:42Z</time>
      </trkpt>
      <trkpt lat="59.172676" lon="18.142202">
        <ele>61</ele>
        <time>2019-11-04T12:44:44Z</time>
      </trkpt>
      <trkpt lat="59.172702" lon="18.142219">
        <ele>61</ele>
        <time>2019-11-04T12:44:46Z</time>
      </trkpt>
      <trkpt lat="59.172729" lon="18.142231">
        <ele>61</ele>
        <time>2019-11-04T12:44:48Z</time>
      </trkpt>
      <trkpt lat="59.172753" lon="18.142234">
        <ele>61</ele>
        <time>2019-11-04T12:44:50Z</time>
      </trkpt>
      <trkpt lat="59.172782" lon="18.142241">
        <ele>61</ele>
        <time>2019-11-04T12:44:52Z</time>
      </trkpt>
      <trkpt lat="59.172812" lon="18.142247">
        <ele>61</ele>
        <time>2019-11-04T12:44:54Z</time>
      </trkpt>
      <trkpt lat="59.172841" lon="18.14225">
        <ele>61</ele>
        <time>2019-11-04T12:44:56Z</time>
      </trkpt>
      <trkpt lat="59.172868" lon="18.142264">
        <ele>61</ele>
        <time>2019-11-04T12:44:58Z</time>
      </trkpt>
      <trkpt lat="59.172894" lon="18.142278">
        <ele>61</ele>
        <time>2019-11-04T12:45:00Z</time>
      </trkpt>
      <trkpt lat="59.172922" lon="18.142296">
        <ele>61</ele>
        <time>2019-11-04T12:45:02Z</time>
      </trkpt>
      <trkpt lat="59.17295" lon="18.14231">
        <ele>61</ele>
        <time>2019-11-04T12:45:04Z</time>
      </trkpt>
      <trkpt lat="59.172981" lon="18.142328">
        <ele>61</ele>
        <time>2019-11-04T12:45:06Z</time>
      </trkpt>
      <trkpt lat="59.173009" lon="18.142343">
        <ele>61</ele>
        <time>2019-11-04T12:45:08Z</time>
      </trkpt>
      <trkpt lat="59.173034" lon="18.142361">
        <ele>61</ele>
        <time>2019-11-04T12:45:10Z</time>
      </trkpt>
      <trkpt lat="59.173061" lon="18.142378">
        <ele>61</ele>
        <time>2019-11-04T12:45:12Z</time>
      </trkpt>
      <trkpt lat="59.173089" lon="18.142387">
        <ele>61</ele>
        <time>2019-11-04T12:45:14Z</time>
      </trkpt>
      <trkpt lat="59.173117" lon="18.142398">
        <ele>61</ele>
        <time>2019-11-04T12:45:16Z</time>
      </trkpt>
      <trkpt lat="59.173149" lon="18.142411">
        <ele>62</ele>
        <time>2019-11-04T12:45:18Z</time>
      </trkpt>
      <trkpt lat="59.173164" lon="18.14243">
        <ele>61</ele>
        <time>2019-11-04T12:45:19Z</time>
      </trkpt>
      <trkpt lat="59.173181" lon="18.142479">
        <ele>62</ele>
        <time>2019-11-04T12:45:21Z</time>
      </trkpt>
      <trkpt lat="59.17318" lon="18.14254">
        <ele>62</ele>
        <time>2019-11-04T12:45:23Z</time>
      </trkpt>
      <trkpt lat="59.173185" lon="18.14259">
        <ele>62</ele>
        <time>2019-11-04T12:45:25Z</time>
      </trkpt>
      <trkpt lat="59.173201" lon="18.142637">
        <ele>62</ele>
        <time>2019-11-04T12:45:27Z</time>
      </trkpt>
      <trkpt lat="59.173214" lon="18.14269">
        <ele>61</ele>
        <time>2019-11-04T12:45:29Z</time>
      </trkpt>
      <trkpt lat="59.173229" lon="18.142742">
        <ele>61</ele>
        <time>2019-11-04T12:45:31Z</time>
      </trkpt>
      <trkpt lat="59.173251" lon="18.142781">
        <ele>61</ele>
        <time>2019-11-04T12:45:33Z</time>
      </trkpt>
      <trkpt lat="59.173283" lon="18.142805">
        <ele>61</ele>
        <time>2019-11-04T12:45:35Z</time>
      </trkpt>
      <trkpt lat="59.173306" lon="18.142824">
        <ele>61</ele>
        <time>2019-11-04T12:45:37Z</time>
      </trkpt>
      <trkpt lat="59.173328" lon="18.142838">
        <ele>60</ele>
        <time>2019-11-04T12:45:39Z</time>
      </trkpt>
      <trkpt lat="59.173352" lon="18.142851">
        <ele>60</ele>
        <time>2019-11-04T12:45:41Z</time>
      </trkpt>
      <trkpt lat="59.173375" lon="18.142847">
        <ele>60</ele>
        <time>2019-11-04T12:45:43Z</time>
      </trkpt>
      <trkpt lat="59.1734" lon="18.142856">
        <ele>59</ele>
        <time>2019-11-04T12:45:45Z</time>
      </trkpt>
      <trkpt lat="59.173409" lon="18.142914">
        <ele>59</ele>
        <time>2019-11-04T12:45:47Z</time>
      </trkpt>
      <trkpt lat="59.173409" lon="18.142983">
        <ele>58</ele>
        <time>2019-11-04T12:45:49Z</time>
      </trkpt>
      <trkpt lat="59.173406" lon="18.143019">
        <ele>58</ele>
        <time>2019-11-04T12:45:50Z</time>
      </trkpt>
      <trkpt lat="59.173401" lon="18.143087">
        <ele>58</ele>
        <time>2019-11-04T12:45:52Z</time>
      </trkpt>
      <trkpt lat="59.173394" lon="18.14315">
        <ele>58</ele>
        <time>2019-11-04T12:45:54Z</time>
      </trkpt>
      <trkpt lat="59.173388" lon="18.143211">
        <ele>58</ele>
        <time>2019-11-04T12:45:56Z</time>
      </trkpt>
      <trkpt lat="59.173393" lon="18.143259">
        <ele>58</ele>
        <time>2019-11-04T12:45:58Z</time>
      </trkpt>
      <trkpt lat="59.173411" lon="18.143272">
        <ele>56</ele>
        <time>2019-11-04T12:46:04Z</time>
      </trkpt>
      <trkpt lat="59.1734" lon="18.143314">
        <ele>58</ele>
        <time>2019-11-04T12:46:13Z</time>
      </trkpt>
      <trkpt lat="59.173407" lon="18.143346">
        <ele>58</ele>
        <time>2019-11-04T12:46:19Z</time>
      </trkpt>
      <trkpt lat="59.17346" lon="18.143193">
        <ele>59</ele>
        <time>2019-11-04T12:46:57Z</time>
      </trkpt>
      <trkpt lat="59.173499" lon="18.143356">
        <ele>60</ele>
        <time>2019-11-04T12:47:33Z</time>
      </trkpt>
      <trkpt lat="59.173597" lon="18.143358">
        <ele>61</ele>
        <time>2019-11-04T12:48:08Z</time>
      </trkpt>
      <trkpt lat="59.173568" lon="18.14319">
        <ele>58</ele>
        <time>2019-11-04T12:48:28Z</time>
      </trkpt>
      <trkpt lat="59.1735" lon="18.143208">
        <ele>52</ele>
        <time>2019-11-04T12:49:11Z</time>
      </trkpt>
    </trkseg>
  </trk>
</gpx>